<?xml version="1.0" encoding="UTF-8" standalone="no" ?>
<gpx xmlns="http://www.topografix.com/GPX/1/1" xmlns:xsi="http://www.w3.org/2001/XMLSchema-instance" xsi:schemaLocation="http://www.topografix.com/GPX/1/1 http://www.topografix.com/GPX/1/1/gpx.xsd" version="1.1" creator="VisuGPX - https://www.visugpx.com">
  <metadata>
    <name>04-Séjour à Seyne- Esparron la Bâtie - Lac des Monges</name>
    <desc><![CDATA[Esparron la Bâtie - Lac des Monges
Crête de la Colle - Baudinard - Crête Maladrech - Forêt domaniale des Monges
]]></desc>
  </metadata>
  <trk>
    <name><![CDATA[2012-06-27-baudinard]]></name>
    <trkseg>
      <trkpt lat="44.30918" lon="6.15119">
        <ele>1221.022338</ele>
        <time>2012-06-27T07:52:43Z</time>
      </trkpt>
      <trkpt lat="44.30917" lon="6.15118">
        <ele>1220.908569</ele>
        <time>2012-06-27T07:52:44Z</time>
      </trkpt>
      <trkpt lat="44.30917" lon="6.15106">
        <ele>1219.7</ele>
        <time>2012-06-27T07:54:01Z</time>
      </trkpt>
      <trkpt lat="44.30917" lon="6.15119">
        <ele>1219</ele>
        <time>2012-06-27T07:56:30Z</time>
      </trkpt>
      <trkpt lat="44.30908" lon="6.15118">
        <ele>1218.8</ele>
        <time>2012-06-27T07:59:00Z</time>
      </trkpt>
      <trkpt lat="44.30898" lon="6.15101">
        <ele>1221</ele>
        <time>2012-06-27T07:59:28Z</time>
      </trkpt>
      <trkpt lat="44.30898" lon="6.15091">
        <ele>1222</ele>
        <time>2012-06-27T07:59:35Z</time>
      </trkpt>
      <trkpt lat="44.30898" lon="6.15078">
        <ele>1223.6</ele>
        <time>2012-06-27T07:59:44Z</time>
      </trkpt>
      <trkpt lat="44.30893" lon="6.1507">
        <ele>1224.4</ele>
        <time>2012-06-27T07:59:53Z</time>
      </trkpt>
      <trkpt lat="44.30888" lon="6.1506">
        <ele>1225</ele>
        <time>2012-06-27T08:00:04Z</time>
      </trkpt>
      <trkpt lat="44.30887" lon="6.1506">
        <ele>1225.2</ele>
        <time>2012-06-27T08:00:05Z</time>
      </trkpt>
      <trkpt lat="44.30888" lon="6.15036">
        <ele>1227.5</ele>
        <time>2012-06-27T08:00:46Z</time>
      </trkpt>
      <trkpt lat="44.30888" lon="6.15025">
        <ele>1228.7</ele>
        <time>2012-06-27T08:00:55Z</time>
      </trkpt>
      <trkpt lat="44.30892" lon="6.15015">
        <ele>1228.9</ele>
        <time>2012-06-27T08:01:03Z</time>
      </trkpt>
      <trkpt lat="44.30896" lon="6.15004">
        <ele>1229.3</ele>
        <time>2012-06-27T08:01:12Z</time>
      </trkpt>
      <trkpt lat="44.30896" lon="6.15002">
        <ele>1229.4</ele>
        <time>2012-06-27T08:01:13Z</time>
      </trkpt>
      <trkpt lat="44.309" lon="6.14982">
        <ele>1230.3</ele>
        <time>2012-06-27T08:01:27Z</time>
      </trkpt>
      <trkpt lat="44.30902" lon="6.14972">
        <ele>1230.5</ele>
        <time>2012-06-27T08:01:33Z</time>
      </trkpt>
      <trkpt lat="44.30905" lon="6.1496">
        <ele>1231.2</ele>
        <time>2012-06-27T08:01:39Z</time>
      </trkpt>
      <trkpt lat="44.30906" lon="6.14948">
        <ele>1231.6</ele>
        <time>2012-06-27T08:01:47Z</time>
      </trkpt>
      <trkpt lat="44.30899" lon="6.14942">
        <ele>1232</ele>
        <time>2012-06-27T08:01:53Z</time>
      </trkpt>
      <trkpt lat="44.30895" lon="6.14932">
        <ele>1232</ele>
        <time>2012-06-27T08:02:02Z</time>
      </trkpt>
      <trkpt lat="44.30894" lon="6.1492">
        <ele>1232.5</ele>
        <time>2012-06-27T08:02:11Z</time>
      </trkpt>
      <trkpt lat="44.30896" lon="6.14908">
        <ele>1233</ele>
        <time>2012-06-27T08:02:22Z</time>
      </trkpt>
      <trkpt lat="44.30896" lon="6.14906">
        <ele>1233.2</ele>
        <time>2012-06-27T08:02:23Z</time>
      </trkpt>
      <trkpt lat="44.30896" lon="6.14884">
        <ele>1234.7</ele>
        <time>2012-06-27T08:02:37Z</time>
      </trkpt>
      <trkpt lat="44.30892" lon="6.14874">
        <ele>1234.9</ele>
        <time>2012-06-27T08:02:44Z</time>
      </trkpt>
      <trkpt lat="44.30889" lon="6.14863">
        <ele>1235.7</ele>
        <time>2012-06-27T08:02:52Z</time>
      </trkpt>
      <trkpt lat="44.30883" lon="6.14855">
        <ele>1235.9</ele>
        <time>2012-06-27T08:03:00Z</time>
      </trkpt>
      <trkpt lat="44.30878" lon="6.14847">
        <ele>1236.3</ele>
        <time>2012-06-27T08:03:08Z</time>
      </trkpt>
      <trkpt lat="44.30871" lon="6.14839">
        <ele>1237.5</ele>
        <time>2012-06-27T08:03:17Z</time>
      </trkpt>
      <trkpt lat="44.30864" lon="6.14833">
        <ele>1239.7</ele>
        <time>2012-06-27T08:03:27Z</time>
      </trkpt>
      <trkpt lat="44.30863" lon="6.14832">
        <ele>1239.7</ele>
        <time>2012-06-27T08:03:28Z</time>
      </trkpt>
      <trkpt lat="44.30856" lon="6.14811">
        <ele>1243</ele>
        <time>2012-06-27T08:03:53Z</time>
      </trkpt>
      <trkpt lat="44.30851" lon="6.14803">
        <ele>1244.9</ele>
        <time>2012-06-27T08:04:04Z</time>
      </trkpt>
      <trkpt lat="44.30843" lon="6.14801">
        <ele>1245.6</ele>
        <time>2012-06-27T08:04:11Z</time>
      </trkpt>
      <trkpt lat="44.30834" lon="6.14802">
        <ele>1246.2</ele>
        <time>2012-06-27T08:04:19Z</time>
      </trkpt>
      <trkpt lat="44.30827" lon="6.14804">
        <ele>1247.4</ele>
        <time>2012-06-27T08:04:25Z</time>
      </trkpt>
      <trkpt lat="44.30818" lon="6.14806">
        <ele>1248.1</ele>
        <time>2012-06-27T08:04:33Z</time>
      </trkpt>
      <trkpt lat="44.30817" lon="6.14806">
        <ele>1248.1</ele>
        <time>2012-06-27T08:04:34Z</time>
      </trkpt>
      <trkpt lat="44.30801" lon="6.14809">
        <ele>1251.1</ele>
        <time>2012-06-27T08:04:59Z</time>
      </trkpt>
      <trkpt lat="44.30792" lon="6.14809">
        <ele>1252.1</ele>
        <time>2012-06-27T08:05:09Z</time>
      </trkpt>
      <trkpt lat="44.30783" lon="6.1481">
        <ele>1253.3</ele>
        <time>2012-06-27T08:05:18Z</time>
      </trkpt>
      <trkpt lat="44.30776" lon="6.14815">
        <ele>1254</ele>
        <time>2012-06-27T08:05:26Z</time>
      </trkpt>
      <trkpt lat="44.30768" lon="6.14815">
        <ele>1255.7</ele>
        <time>2012-06-27T08:05:42Z</time>
      </trkpt>
      <trkpt lat="44.30767" lon="6.14815">
        <ele>1255.7</ele>
        <time>2012-06-27T08:05:43Z</time>
      </trkpt>
      <trkpt lat="44.30751" lon="6.14812">
        <ele>1258.9</ele>
        <time>2012-06-27T08:06:05Z</time>
      </trkpt>
      <trkpt lat="44.30742" lon="6.14813">
        <ele>1259.7</ele>
        <time>2012-06-27T08:06:12Z</time>
      </trkpt>
      <trkpt lat="44.30733" lon="6.14813">
        <ele>1260.2</ele>
        <time>2012-06-27T08:06:21Z</time>
      </trkpt>
      <trkpt lat="44.30725" lon="6.14816">
        <ele>1262.4</ele>
        <time>2012-06-27T08:06:33Z</time>
      </trkpt>
      <trkpt lat="44.30717" lon="6.1482">
        <ele>1264.2</ele>
        <time>2012-06-27T08:06:50Z</time>
      </trkpt>
      <trkpt lat="44.30716" lon="6.1482">
        <ele>1264.6</ele>
        <time>2012-06-27T08:06:51Z</time>
      </trkpt>
      <trkpt lat="44.3071" lon="6.14798">
        <ele>1268.9</ele>
        <time>2012-06-27T08:07:28Z</time>
      </trkpt>
      <trkpt lat="44.30714" lon="6.14788">
        <ele>1270.1</ele>
        <time>2012-06-27T08:07:42Z</time>
      </trkpt>
      <trkpt lat="44.3072" lon="6.1478">
        <ele>1270.7</ele>
        <time>2012-06-27T08:07:52Z</time>
      </trkpt>
      <trkpt lat="44.30721" lon="6.14778">
        <ele>1270.8</ele>
        <time>2012-06-27T08:07:53Z</time>
      </trkpt>
      <trkpt lat="44.30728" lon="6.14759">
        <ele>1272.6</ele>
        <time>2012-06-27T08:08:11Z</time>
      </trkpt>
      <trkpt lat="44.30719" lon="6.14758">
        <ele>1273.4</ele>
        <time>2012-06-27T08:08:23Z</time>
      </trkpt>
      <trkpt lat="44.30711" lon="6.14761">
        <ele>1274.2</ele>
        <time>2012-06-27T08:08:33Z</time>
      </trkpt>
      <trkpt lat="44.30703" lon="6.14765">
        <ele>1274.9</ele>
        <time>2012-06-27T08:08:44Z</time>
      </trkpt>
      <trkpt lat="44.30695" lon="6.1477">
        <ele>1276</ele>
        <time>2012-06-27T08:08:56Z</time>
      </trkpt>
      <trkpt lat="44.30694" lon="6.1477">
        <ele>1276</ele>
        <time>2012-06-27T08:08:57Z</time>
      </trkpt>
      <trkpt lat="44.30681" lon="6.14779">
        <ele>1277.8</ele>
        <time>2012-06-27T08:09:16Z</time>
      </trkpt>
      <trkpt lat="44.30674" lon="6.14782">
        <ele>1278</ele>
        <time>2012-06-27T08:09:22Z</time>
      </trkpt>
      <trkpt lat="44.30666" lon="6.14787">
        <ele>1278.3</ele>
        <time>2012-06-27T08:09:30Z</time>
      </trkpt>
      <trkpt lat="44.30664" lon="6.14799">
        <ele>1278.7</ele>
        <time>2012-06-27T08:09:40Z</time>
      </trkpt>
      <trkpt lat="44.30661" lon="6.14811">
        <ele>1280.1</ele>
        <time>2012-06-27T08:09:49Z</time>
      </trkpt>
      <trkpt lat="44.30657" lon="6.14821">
        <ele>1280.3</ele>
        <time>2012-06-27T08:09:57Z</time>
      </trkpt>
      <trkpt lat="44.30656" lon="6.14822">
        <ele>1280.4</ele>
        <time>2012-06-27T08:09:58Z</time>
      </trkpt>
      <trkpt lat="44.30647" lon="6.14839">
        <ele>1281.9</ele>
        <time>2012-06-27T08:10:15Z</time>
      </trkpt>
      <trkpt lat="44.30645" lon="6.14851">
        <ele>1283.1</ele>
        <time>2012-06-27T08:10:25Z</time>
      </trkpt>
      <trkpt lat="44.30647" lon="6.14861">
        <ele>1283.9</ele>
        <time>2012-06-27T08:10:31Z</time>
      </trkpt>
      <trkpt lat="44.30648" lon="6.14874">
        <ele>1285.2</ele>
        <time>2012-06-27T08:10:42Z</time>
      </trkpt>
      <trkpt lat="44.30645" lon="6.14884">
        <ele>1285.6</ele>
        <time>2012-06-27T08:10:50Z</time>
      </trkpt>
      <trkpt lat="44.30639" lon="6.14893">
        <ele>1285.6</ele>
        <time>2012-06-27T08:10:59Z</time>
      </trkpt>
      <trkpt lat="44.30638" lon="6.14894">
        <ele>1285.6</ele>
        <time>2012-06-27T08:11:00Z</time>
      </trkpt>
      <trkpt lat="44.30627" lon="6.1491">
        <ele>1287.5</ele>
        <time>2012-06-27T08:11:20Z</time>
      </trkpt>
      <trkpt lat="44.30623" lon="6.14921">
        <ele>1288.9</ele>
        <time>2012-06-27T08:11:30Z</time>
      </trkpt>
      <trkpt lat="44.30618" lon="6.14931">
        <ele>1289.7</ele>
        <time>2012-06-27T08:11:39Z</time>
      </trkpt>
      <trkpt lat="44.30613" lon="6.14941">
        <ele>1289.4</ele>
        <time>2012-06-27T08:11:45Z</time>
      </trkpt>
      <trkpt lat="44.30609" lon="6.14951">
        <ele>1290.5</ele>
        <time>2012-06-27T08:11:53Z</time>
      </trkpt>
      <trkpt lat="44.30602" lon="6.14958">
        <ele>1291.9</ele>
        <time>2012-06-27T08:12:02Z</time>
      </trkpt>
      <trkpt lat="44.30601" lon="6.14958">
        <ele>1291.8</ele>
        <time>2012-06-27T08:12:03Z</time>
      </trkpt>
      <trkpt lat="44.30587" lon="6.14968">
        <ele>1295.5</ele>
        <time>2012-06-27T08:12:33Z</time>
      </trkpt>
      <trkpt lat="44.30578" lon="6.14968">
        <ele>1297</ele>
        <time>2012-06-27T08:12:47Z</time>
      </trkpt>
      <trkpt lat="44.3057" lon="6.14966">
        <ele>1297.1</ele>
        <time>2012-06-27T08:12:52Z</time>
      </trkpt>
      <trkpt lat="44.30562" lon="6.14966">
        <ele>1297.5</ele>
        <time>2012-06-27T08:12:59Z</time>
      </trkpt>
      <trkpt lat="44.30553" lon="6.14966">
        <ele>1298.7</ele>
        <time>2012-06-27T08:13:08Z</time>
      </trkpt>
      <trkpt lat="44.30552" lon="6.14966">
        <ele>1298.9</ele>
        <time>2012-06-27T08:13:09Z</time>
      </trkpt>
      <trkpt lat="44.30536" lon="6.1497">
        <ele>1301.7</ele>
        <time>2012-06-27T08:13:30Z</time>
      </trkpt>
      <trkpt lat="44.30528" lon="6.14974">
        <ele>1302.4</ele>
        <time>2012-06-27T08:13:38Z</time>
      </trkpt>
      <trkpt lat="44.3052" lon="6.14977">
        <ele>1303.6</ele>
        <time>2012-06-27T08:13:47Z</time>
      </trkpt>
      <trkpt lat="44.30515" lon="6.14987">
        <ele>1305.3</ele>
        <time>2012-06-27T08:14:10Z</time>
      </trkpt>
      <trkpt lat="44.30515" lon="6.14988">
        <ele>1305.4</ele>
        <time>2012-06-27T08:14:11Z</time>
      </trkpt>
      <trkpt lat="44.30499" lon="6.14988">
        <ele>1308</ele>
        <time>2012-06-27T08:14:48Z</time>
      </trkpt>
      <trkpt lat="44.3049" lon="6.14992">
        <ele>1308.9</ele>
        <time>2012-06-27T08:15:02Z</time>
      </trkpt>
      <trkpt lat="44.30481" lon="6.14991">
        <ele>1309.3</ele>
        <time>2012-06-27T08:15:13Z</time>
      </trkpt>
      <trkpt lat="44.3048" lon="6.14991">
        <ele>1309.3</ele>
        <time>2012-06-27T08:15:14Z</time>
      </trkpt>
      <trkpt lat="44.30464" lon="6.1499">
        <ele>1311.6</ele>
        <time>2012-06-27T08:15:35Z</time>
      </trkpt>
      <trkpt lat="44.30455" lon="6.14991">
        <ele>1313.2</ele>
        <time>2012-06-27T08:15:50Z</time>
      </trkpt>
      <trkpt lat="44.30447" lon="6.1499">
        <ele>1313.8</ele>
        <time>2012-06-27T08:15:58Z</time>
      </trkpt>
      <trkpt lat="44.30438" lon="6.1499">
        <ele>1314.8</ele>
        <time>2012-06-27T08:16:09Z</time>
      </trkpt>
      <trkpt lat="44.3043" lon="6.14987">
        <ele>1316.4</ele>
        <time>2012-06-27T08:16:22Z</time>
      </trkpt>
      <trkpt lat="44.30428" lon="6.14987">
        <ele>1316.7</ele>
        <time>2012-06-27T08:16:23Z</time>
      </trkpt>
      <trkpt lat="44.30413" lon="6.14992">
        <ele>1318.5</ele>
        <time>2012-06-27T08:16:46Z</time>
      </trkpt>
      <trkpt lat="44.30405" lon="6.14997">
        <ele>1321.2</ele>
        <time>2012-06-27T08:16:59Z</time>
      </trkpt>
      <trkpt lat="44.30399" lon="6.15004">
        <ele>1322</ele>
        <time>2012-06-27T08:17:13Z</time>
      </trkpt>
      <trkpt lat="44.3039" lon="6.15004">
        <ele>1323.1</ele>
        <time>2012-06-27T08:17:18Z</time>
      </trkpt>
      <trkpt lat="44.30383" lon="6.15009">
        <ele>1324.1</ele>
        <time>2012-06-27T08:17:30Z</time>
      </trkpt>
      <trkpt lat="44.30383" lon="6.15011">
        <ele>1324.4</ele>
        <time>2012-06-27T08:17:31Z</time>
      </trkpt>
      <trkpt lat="44.30368" lon="6.15022">
        <ele>1328.1</ele>
        <time>2012-06-27T08:18:13Z</time>
      </trkpt>
      <trkpt lat="44.3036" lon="6.15026">
        <ele>1330.6</ele>
        <time>2012-06-27T08:18:44Z</time>
      </trkpt>
      <trkpt lat="44.30359" lon="6.15027">
        <ele>1330.6</ele>
        <time>2012-06-27T08:18:45Z</time>
      </trkpt>
      <trkpt lat="44.3035" lon="6.1504">
        <ele>1333.5</ele>
        <time>2012-06-27T08:19:06Z</time>
      </trkpt>
      <trkpt lat="44.30347" lon="6.15052">
        <ele>1333</ele>
        <time>2012-06-27T08:19:17Z</time>
      </trkpt>
      <trkpt lat="44.3034" lon="6.15045">
        <ele>1337.7</ele>
        <time>2012-06-27T08:20:06Z</time>
      </trkpt>
      <trkpt lat="44.3034" lon="6.15044">
        <ele>1337.6</ele>
        <time>2012-06-27T08:20:07Z</time>
      </trkpt>
      <trkpt lat="44.30326" lon="6.15033">
        <ele>1340.8</ele>
        <time>2012-06-27T08:20:29Z</time>
      </trkpt>
      <trkpt lat="44.30318" lon="6.15035">
        <ele>1341.9</ele>
        <time>2012-06-27T08:20:35Z</time>
      </trkpt>
      <trkpt lat="44.3031" lon="6.15038">
        <ele>1343.4</ele>
        <time>2012-06-27T08:20:53Z</time>
      </trkpt>
      <trkpt lat="44.30301" lon="6.15038">
        <ele>1345.5</ele>
        <time>2012-06-27T08:21:17Z</time>
      </trkpt>
      <trkpt lat="44.303" lon="6.15039">
        <ele>1345.4</ele>
        <time>2012-06-27T08:21:18Z</time>
      </trkpt>
      <trkpt lat="44.30285" lon="6.15044">
        <ele>1347.5</ele>
        <time>2012-06-27T08:21:38Z</time>
      </trkpt>
      <trkpt lat="44.30277" lon="6.15047">
        <ele>1349.2</ele>
        <time>2012-06-27T08:21:53Z</time>
      </trkpt>
      <trkpt lat="44.30269" lon="6.15049">
        <ele>1350.5</ele>
        <time>2012-06-27T08:22:06Z</time>
      </trkpt>
      <trkpt lat="44.30261" lon="6.15054">
        <ele>1352.3</ele>
        <time>2012-06-27T08:22:19Z</time>
      </trkpt>
      <trkpt lat="44.3026" lon="6.15055">
        <ele>1352.6</ele>
        <time>2012-06-27T08:22:20Z</time>
      </trkpt>
      <trkpt lat="44.30245" lon="6.15065">
        <ele>1354.5</ele>
        <time>2012-06-27T08:22:39Z</time>
      </trkpt>
      <trkpt lat="44.30237" lon="6.1507">
        <ele>1355.8</ele>
        <time>2012-06-27T08:23:03Z</time>
      </trkpt>
      <trkpt lat="44.30238" lon="6.15082">
        <ele>1355.8</ele>
        <time>2012-06-27T08:23:17Z</time>
      </trkpt>
      <trkpt lat="44.30229" lon="6.15083">
        <ele>1356.8</ele>
        <time>2012-06-27T08:24:01Z</time>
      </trkpt>
      <trkpt lat="44.30229" lon="6.15083">
        <ele>1356.7</ele>
        <time>2012-06-27T08:24:02Z</time>
      </trkpt>
      <trkpt lat="44.30215" lon="6.15095">
        <ele>1355.3</ele>
        <time>2012-06-27T08:25:05Z</time>
      </trkpt>
      <trkpt lat="44.30214" lon="6.15095">
        <ele>1355.3</ele>
        <time>2012-06-27T08:25:06Z</time>
      </trkpt>
      <trkpt lat="44.30199" lon="6.15104">
        <ele>1353.4</ele>
        <time>2012-06-27T08:25:43Z</time>
      </trkpt>
      <trkpt lat="44.30191" lon="6.15105">
        <ele>1351.7</ele>
        <time>2012-06-27T08:25:55Z</time>
      </trkpt>
      <trkpt lat="44.30182" lon="6.15106">
        <ele>1350.4</ele>
        <time>2012-06-27T08:26:04Z</time>
      </trkpt>
      <trkpt lat="44.30174" lon="6.15107">
        <ele>1348.1</ele>
        <time>2012-06-27T08:26:20Z</time>
      </trkpt>
      <trkpt lat="44.30173" lon="6.15108">
        <ele>1347.9</ele>
        <time>2012-06-27T08:26:21Z</time>
      </trkpt>
      <trkpt lat="44.30158" lon="6.15118">
        <ele>1346.8</ele>
        <time>2012-06-27T08:26:36Z</time>
      </trkpt>
      <trkpt lat="44.30151" lon="6.15124">
        <ele>1346.6</ele>
        <time>2012-06-27T08:26:43Z</time>
      </trkpt>
      <trkpt lat="44.30144" lon="6.15131">
        <ele>1347.2</ele>
        <time>2012-06-27T08:26:51Z</time>
      </trkpt>
      <trkpt lat="44.30136" lon="6.15135">
        <ele>1346.3</ele>
        <time>2012-06-27T08:27:09Z</time>
      </trkpt>
      <trkpt lat="44.30127" lon="6.15138">
        <ele>1345.5</ele>
        <time>2012-06-27T08:27:19Z</time>
      </trkpt>
      <trkpt lat="44.3012" lon="6.15141">
        <ele>1344.5</ele>
        <time>2012-06-27T08:27:28Z</time>
      </trkpt>
      <trkpt lat="44.30118" lon="6.15142">
        <ele>1344.1</ele>
        <time>2012-06-27T08:27:29Z</time>
      </trkpt>
      <trkpt lat="44.30103" lon="6.15143">
        <ele>1342.2</ele>
        <time>2012-06-27T08:27:46Z</time>
      </trkpt>
      <trkpt lat="44.30094" lon="6.15144">
        <ele>1341.8</ele>
        <time>2012-06-27T08:27:54Z</time>
      </trkpt>
      <trkpt lat="44.30085" lon="6.15142">
        <ele>1341.2</ele>
        <time>2012-06-27T08:28:01Z</time>
      </trkpt>
      <trkpt lat="44.30078" lon="6.15139">
        <ele>1341.1</ele>
        <time>2012-06-27T08:28:11Z</time>
      </trkpt>
      <trkpt lat="44.30069" lon="6.15137">
        <ele>1340.1</ele>
        <time>2012-06-27T08:28:18Z</time>
      </trkpt>
      <trkpt lat="44.30061" lon="6.15131">
        <ele>1339.7</ele>
        <time>2012-06-27T08:28:31Z</time>
      </trkpt>
      <trkpt lat="44.3006" lon="6.1513">
        <ele>1339.6</ele>
        <time>2012-06-27T08:28:32Z</time>
      </trkpt>
      <trkpt lat="44.30045" lon="6.1513">
        <ele>1339.8</ele>
        <time>2012-06-27T08:28:49Z</time>
      </trkpt>
      <trkpt lat="44.30037" lon="6.1513">
        <ele>1340.9</ele>
        <time>2012-06-27T08:29:13Z</time>
      </trkpt>
      <trkpt lat="44.30034" lon="6.15142">
        <ele>1340.6</ele>
        <time>2012-06-27T08:30:46Z</time>
      </trkpt>
      <trkpt lat="44.30034" lon="6.15142">
        <ele>1340.4</ele>
        <time>2012-06-27T08:30:47Z</time>
      </trkpt>
      <trkpt lat="44.30019" lon="6.15131">
        <ele>1335.6</ele>
        <time>2012-06-27T08:31:18Z</time>
      </trkpt>
      <trkpt lat="44.3002" lon="6.15143">
        <ele>1333.7</ele>
        <time>2012-06-27T08:31:29Z</time>
      </trkpt>
      <trkpt lat="44.3002" lon="6.15156">
        <ele>1331.7</ele>
        <time>2012-06-27T08:31:38Z</time>
      </trkpt>
      <trkpt lat="44.30019" lon="6.15168">
        <ele>1330</ele>
        <time>2012-06-27T08:32:37Z</time>
      </trkpt>
      <trkpt lat="44.30019" lon="6.15169">
        <ele>1329.5</ele>
        <time>2012-06-27T08:32:38Z</time>
      </trkpt>
      <trkpt lat="44.30022" lon="6.15191">
        <ele>1326.1</ele>
        <time>2012-06-27T08:33:05Z</time>
      </trkpt>
      <trkpt lat="44.30023" lon="6.15203">
        <ele>1324.5</ele>
        <time>2012-06-27T08:33:20Z</time>
      </trkpt>
      <trkpt lat="44.30022" lon="6.15215">
        <ele>1322.5</ele>
        <time>2012-06-27T08:33:33Z</time>
      </trkpt>
      <trkpt lat="44.30019" lon="6.15227">
        <ele>1321</ele>
        <time>2012-06-27T08:33:49Z</time>
      </trkpt>
      <trkpt lat="44.3002" lon="6.15228">
        <ele>1320.8</ele>
        <time>2012-06-27T08:33:50Z</time>
      </trkpt>
      <trkpt lat="44.3002" lon="6.15251">
        <ele>1314.1</ele>
        <time>2012-06-27T08:34:33Z</time>
      </trkpt>
      <trkpt lat="44.30021" lon="6.15263">
        <ele>1312.2</ele>
        <time>2012-06-27T08:35:31Z</time>
      </trkpt>
      <trkpt lat="44.30021" lon="6.15264">
        <ele>1311.8</ele>
        <time>2012-06-27T08:35:32Z</time>
      </trkpt>
      <trkpt lat="44.30022" lon="6.15285">
        <ele>1308.9</ele>
        <time>2012-06-27T08:35:47Z</time>
      </trkpt>
      <trkpt lat="44.30025" lon="6.15296">
        <ele>1309</ele>
        <time>2012-06-27T08:35:53Z</time>
      </trkpt>
      <trkpt lat="44.30026" lon="6.15307">
        <ele>1307</ele>
        <time>2012-06-27T08:36:01Z</time>
      </trkpt>
      <trkpt lat="44.30024" lon="6.15319">
        <ele>1305.5</ele>
        <time>2012-06-27T08:36:13Z</time>
      </trkpt>
      <trkpt lat="44.30021" lon="6.1533">
        <ele>1302.7</ele>
        <time>2012-06-27T08:36:29Z</time>
      </trkpt>
      <trkpt lat="44.30022" lon="6.15343">
        <ele>1301.4</ele>
        <time>2012-06-27T08:37:25Z</time>
      </trkpt>
      <trkpt lat="44.30022" lon="6.15344">
        <ele>1301.3</ele>
        <time>2012-06-27T08:37:26Z</time>
      </trkpt>
      <trkpt lat="44.30028" lon="6.15365">
        <ele>1296.2</ele>
        <time>2012-06-27T08:38:02Z</time>
      </trkpt>
      <trkpt lat="44.3003" lon="6.15377">
        <ele>1293.9</ele>
        <time>2012-06-27T08:38:25Z</time>
      </trkpt>
      <trkpt lat="44.30032" lon="6.15389">
        <ele>1292.2</ele>
        <time>2012-06-27T08:38:41Z</time>
      </trkpt>
      <trkpt lat="44.30032" lon="6.1539">
        <ele>1292.3</ele>
        <time>2012-06-27T08:38:42Z</time>
      </trkpt>
      <trkpt lat="44.30034" lon="6.15412">
        <ele>1289.9</ele>
        <time>2012-06-27T08:39:17Z</time>
      </trkpt>
      <trkpt lat="44.30036" lon="6.15424">
        <ele>1288.4</ele>
        <time>2012-06-27T08:40:26Z</time>
      </trkpt>
      <trkpt lat="44.30036" lon="6.15425">
        <ele>1288.6</ele>
        <time>2012-06-27T08:40:27Z</time>
      </trkpt>
      <trkpt lat="44.30022" lon="6.15439">
        <ele>1285.6</ele>
        <time>2012-06-27T08:42:04Z</time>
      </trkpt>
      <trkpt lat="44.30022" lon="6.15439">
        <ele>1285.5</ele>
        <time>2012-06-27T08:42:05Z</time>
      </trkpt>
      <trkpt lat="44.30017" lon="6.1546">
        <ele>1285.1</ele>
        <time>2012-06-27T08:42:27Z</time>
      </trkpt>
      <trkpt lat="44.30012" lon="6.1547">
        <ele>1286.6</ele>
        <time>2012-06-27T08:42:38Z</time>
      </trkpt>
      <trkpt lat="44.30008" lon="6.15481">
        <ele>1288.2</ele>
        <time>2012-06-27T08:42:47Z</time>
      </trkpt>
      <trkpt lat="44.30006" lon="6.15493">
        <ele>1288.4</ele>
        <time>2012-06-27T08:42:56Z</time>
      </trkpt>
      <trkpt lat="44.30001" lon="6.15503">
        <ele>1288.9</ele>
        <time>2012-06-27T08:43:05Z</time>
      </trkpt>
      <trkpt lat="44.30001" lon="6.15504">
        <ele>1289</ele>
        <time>2012-06-27T08:43:06Z</time>
      </trkpt>
      <trkpt lat="44.29996" lon="6.15526">
        <ele>1289.7</ele>
        <time>2012-06-27T08:43:23Z</time>
      </trkpt>
      <trkpt lat="44.29991" lon="6.15536">
        <ele>1290.8</ele>
        <time>2012-06-27T08:43:41Z</time>
      </trkpt>
      <trkpt lat="44.29987" lon="6.15546">
        <ele>1290.7</ele>
        <time>2012-06-27T08:43:52Z</time>
      </trkpt>
      <trkpt lat="44.2998" lon="6.15554">
        <ele>1289.9</ele>
        <time>2012-06-27T08:45:06Z</time>
      </trkpt>
      <trkpt lat="44.2998" lon="6.15554">
        <ele>1289.8</ele>
        <time>2012-06-27T08:45:07Z</time>
      </trkpt>
      <trkpt lat="44.29965" lon="6.15561">
        <ele>1288.8</ele>
        <time>2012-06-27T08:45:21Z</time>
      </trkpt>
      <trkpt lat="44.29961" lon="6.15572">
        <ele>1288</ele>
        <time>2012-06-27T08:45:47Z</time>
      </trkpt>
      <trkpt lat="44.29953" lon="6.15574">
        <ele>1285.9</ele>
        <time>2012-06-27T08:46:12Z</time>
      </trkpt>
      <trkpt lat="44.29952" lon="6.15574">
        <ele>1285.5</ele>
        <time>2012-06-27T08:46:13Z</time>
      </trkpt>
      <trkpt lat="44.29937" lon="6.15585">
        <ele>1286.3</ele>
        <time>2012-06-27T08:46:48Z</time>
      </trkpt>
      <trkpt lat="44.29932" lon="6.15595">
        <ele>1285.1</ele>
        <time>2012-06-27T08:46:55Z</time>
      </trkpt>
      <trkpt lat="44.29925" lon="6.15602">
        <ele>1283.6</ele>
        <time>2012-06-27T08:47:02Z</time>
      </trkpt>
      <trkpt lat="44.29918" lon="6.15608">
        <ele>1283</ele>
        <time>2012-06-27T08:47:10Z</time>
      </trkpt>
      <trkpt lat="44.29913" lon="6.15599">
        <ele>1282.6</ele>
        <time>2012-06-27T08:47:19Z</time>
      </trkpt>
      <trkpt lat="44.29912" lon="6.15598">
        <ele>1282.5</ele>
        <time>2012-06-27T08:47:20Z</time>
      </trkpt>
      <trkpt lat="44.29904" lon="6.15619">
        <ele>1282.4</ele>
        <time>2012-06-27T08:47:36Z</time>
      </trkpt>
      <trkpt lat="44.29896" lon="6.15624">
        <ele>1283.3</ele>
        <time>2012-06-27T08:48:03Z</time>
      </trkpt>
      <trkpt lat="44.29889" lon="6.15629">
        <ele>1283.4</ele>
        <time>2012-06-27T08:48:22Z</time>
      </trkpt>
      <trkpt lat="44.29888" lon="6.15628">
        <ele>1283.3</ele>
        <time>2012-06-27T08:48:23Z</time>
      </trkpt>
      <trkpt lat="44.29875" lon="6.15616">
        <ele>1283.5</ele>
        <time>2012-06-27T08:48:43Z</time>
      </trkpt>
      <trkpt lat="44.29868" lon="6.1561">
        <ele>1284.3</ele>
        <time>2012-06-27T08:48:57Z</time>
      </trkpt>
      <trkpt lat="44.29861" lon="6.15605">
        <ele>1285.4</ele>
        <time>2012-06-27T08:49:06Z</time>
      </trkpt>
      <trkpt lat="44.29853" lon="6.15601">
        <ele>1287</ele>
        <time>2012-06-27T08:49:15Z</time>
      </trkpt>
      <trkpt lat="44.29845" lon="6.15597">
        <ele>1287.4</ele>
        <time>2012-06-27T08:49:25Z</time>
      </trkpt>
      <trkpt lat="44.29844" lon="6.15597">
        <ele>1287.3</ele>
        <time>2012-06-27T08:49:26Z</time>
      </trkpt>
      <trkpt lat="44.29828" lon="6.15599">
        <ele>1287.8</ele>
        <time>2012-06-27T08:49:46Z</time>
      </trkpt>
      <trkpt lat="44.2982" lon="6.156">
        <ele>1289.4</ele>
        <time>2012-06-27T08:49:56Z</time>
      </trkpt>
      <trkpt lat="44.29811" lon="6.15598">
        <ele>1290.9</ele>
        <time>2012-06-27T08:50:09Z</time>
      </trkpt>
      <trkpt lat="44.29804" lon="6.15601">
        <ele>1291.1</ele>
        <time>2012-06-27T08:50:21Z</time>
      </trkpt>
      <trkpt lat="44.29797" lon="6.15609">
        <ele>1291.6</ele>
        <time>2012-06-27T08:50:39Z</time>
      </trkpt>
      <trkpt lat="44.29796" lon="6.15609">
        <ele>1291.5</ele>
        <time>2012-06-27T08:50:40Z</time>
      </trkpt>
      <trkpt lat="44.2978" lon="6.15607">
        <ele>1291.3</ele>
        <time>2012-06-27T08:51:04Z</time>
      </trkpt>
      <trkpt lat="44.29772" lon="6.15606">
        <ele>1291.2</ele>
        <time>2012-06-27T08:51:11Z</time>
      </trkpt>
      <trkpt lat="44.29764" lon="6.15604">
        <ele>1290.4</ele>
        <time>2012-06-27T08:51:18Z</time>
      </trkpt>
      <trkpt lat="44.29755" lon="6.15604">
        <ele>1289.6</ele>
        <time>2012-06-27T08:51:27Z</time>
      </trkpt>
      <trkpt lat="44.29746" lon="6.15605">
        <ele>1289.8</ele>
        <time>2012-06-27T08:51:34Z</time>
      </trkpt>
      <trkpt lat="44.29738" lon="6.15607">
        <ele>1289.3</ele>
        <time>2012-06-27T08:51:43Z</time>
      </trkpt>
      <trkpt lat="44.29737" lon="6.15607">
        <ele>1289.4</ele>
        <time>2012-06-27T08:51:44Z</time>
      </trkpt>
      <trkpt lat="44.29722" lon="6.15609">
        <ele>1289</ele>
        <time>2012-06-27T08:51:57Z</time>
      </trkpt>
      <trkpt lat="44.29714" lon="6.15606">
        <ele>1289.3</ele>
        <time>2012-06-27T08:52:05Z</time>
      </trkpt>
      <trkpt lat="44.29707" lon="6.15613">
        <ele>1290.5</ele>
        <time>2012-06-27T08:52:37Z</time>
      </trkpt>
      <trkpt lat="44.29698" lon="6.15617">
        <ele>1289.8</ele>
        <time>2012-06-27T08:52:57Z</time>
      </trkpt>
      <trkpt lat="44.29698" lon="6.15618">
        <ele>1289.6</ele>
        <time>2012-06-27T08:52:58Z</time>
      </trkpt>
      <trkpt lat="44.29693" lon="6.1564">
        <ele>1286.3</ele>
        <time>2012-06-27T08:53:30Z</time>
      </trkpt>
      <trkpt lat="44.29691" lon="6.15651">
        <ele>1284.9</ele>
        <time>2012-06-27T08:53:39Z</time>
      </trkpt>
      <trkpt lat="44.2969" lon="6.15663">
        <ele>1284.4</ele>
        <time>2012-06-27T08:53:48Z</time>
      </trkpt>
      <trkpt lat="44.29691" lon="6.15676">
        <ele>1284.4</ele>
        <time>2012-06-27T08:54:03Z</time>
      </trkpt>
      <trkpt lat="44.29691" lon="6.15677">
        <ele>1284</ele>
        <time>2012-06-27T08:54:04Z</time>
      </trkpt>
      <trkpt lat="44.29684" lon="6.15698">
        <ele>1282.5</ele>
        <time>2012-06-27T08:54:29Z</time>
      </trkpt>
      <trkpt lat="44.29682" lon="6.1571">
        <ele>1281.4</ele>
        <time>2012-06-27T08:54:40Z</time>
      </trkpt>
      <trkpt lat="44.2968" lon="6.15722">
        <ele>1280.2</ele>
        <time>2012-06-27T08:54:53Z</time>
      </trkpt>
      <trkpt lat="44.29677" lon="6.15732">
        <ele>1279.7</ele>
        <time>2012-06-27T08:55:01Z</time>
      </trkpt>
      <trkpt lat="44.29675" lon="6.15744">
        <ele>1279.7</ele>
        <time>2012-06-27T08:55:10Z</time>
      </trkpt>
      <trkpt lat="44.29674" lon="6.15746">
        <ele>1280</ele>
        <time>2012-06-27T08:55:11Z</time>
      </trkpt>
      <trkpt lat="44.29669" lon="6.15768">
        <ele>1280.7</ele>
        <time>2012-06-27T08:55:52Z</time>
      </trkpt>
      <trkpt lat="44.2966" lon="6.15769">
        <ele>1280.3</ele>
        <time>2012-06-27T08:56:03Z</time>
      </trkpt>
      <trkpt lat="44.29652" lon="6.15773">
        <ele>1280.3</ele>
        <time>2012-06-27T08:56:16Z</time>
      </trkpt>
      <trkpt lat="44.29651" lon="6.15774">
        <ele>1280.2</ele>
        <time>2012-06-27T08:56:17Z</time>
      </trkpt>
      <trkpt lat="44.29637" lon="6.15784">
        <ele>1279.2</ele>
        <time>2012-06-27T08:56:33Z</time>
      </trkpt>
      <trkpt lat="44.2963" lon="6.15792">
        <ele>1279.8</ele>
        <time>2012-06-27T08:56:40Z</time>
      </trkpt>
      <trkpt lat="44.29628" lon="6.15803">
        <ele>1279.5</ele>
        <time>2012-06-27T08:56:49Z</time>
      </trkpt>
      <trkpt lat="44.29625" lon="6.15815">
        <ele>1279.9</ele>
        <time>2012-06-27T08:56:56Z</time>
      </trkpt>
      <trkpt lat="44.29621" lon="6.15825">
        <ele>1279.4</ele>
        <time>2012-06-27T08:57:02Z</time>
      </trkpt>
      <trkpt lat="44.2962" lon="6.15836">
        <ele>1277.7</ele>
        <time>2012-06-27T08:57:08Z</time>
      </trkpt>
      <trkpt lat="44.29616" lon="6.15847">
        <ele>1277</ele>
        <time>2012-06-27T08:57:16Z</time>
      </trkpt>
      <trkpt lat="44.29612" lon="6.15857">
        <ele>1277</ele>
        <time>2012-06-27T08:57:25Z</time>
      </trkpt>
      <trkpt lat="44.29612" lon="6.15858">
        <ele>1276.5</ele>
        <time>2012-06-27T08:57:26Z</time>
      </trkpt>
      <trkpt lat="44.29609" lon="6.15881">
        <ele>1274.6</ele>
        <time>2012-06-27T08:57:55Z</time>
      </trkpt>
      <trkpt lat="44.2961" lon="6.1587">
        <ele>1270.2</ele>
        <time>2012-06-27T08:58:36Z</time>
      </trkpt>
      <trkpt lat="44.29611" lon="6.15868">
        <ele>1270.1</ele>
        <time>2012-06-27T08:58:37Z</time>
      </trkpt>
      <trkpt lat="44.29605" lon="6.15847">
        <ele>1268.9</ele>
        <time>2012-06-27T08:59:02Z</time>
      </trkpt>
      <trkpt lat="44.29602" lon="6.15836">
        <ele>1266.5</ele>
        <time>2012-06-27T08:59:19Z</time>
      </trkpt>
      <trkpt lat="44.29595" lon="6.1583">
        <ele>1262.6</ele>
        <time>2012-06-27T08:59:55Z</time>
      </trkpt>
      <trkpt lat="44.29595" lon="6.15829">
        <ele>1262.5</ele>
        <time>2012-06-27T08:59:56Z</time>
      </trkpt>
      <trkpt lat="44.296" lon="6.15808">
        <ele>1261.2</ele>
        <time>2012-06-27T09:00:17Z</time>
      </trkpt>
      <trkpt lat="44.29605" lon="6.15798">
        <ele>1260.2</ele>
        <time>2012-06-27T09:00:30Z</time>
      </trkpt>
      <trkpt lat="44.29607" lon="6.15786">
        <ele>1257.7</ele>
        <time>2012-06-27T09:00:47Z</time>
      </trkpt>
      <trkpt lat="44.29598" lon="6.15785">
        <ele>1255.4</ele>
        <time>2012-06-27T09:01:17Z</time>
      </trkpt>
      <trkpt lat="44.29597" lon="6.15786">
        <ele>1255.3</ele>
        <time>2012-06-27T09:01:18Z</time>
      </trkpt>
      <trkpt lat="44.29587" lon="6.15803">
        <ele>1253.3</ele>
        <time>2012-06-27T09:01:36Z</time>
      </trkpt>
      <trkpt lat="44.29585" lon="6.15814">
        <ele>1251.3</ele>
        <time>2012-06-27T09:01:51Z</time>
      </trkpt>
      <trkpt lat="44.29582" lon="6.15803">
        <ele>1248.1</ele>
        <time>2012-06-27T09:02:16Z</time>
      </trkpt>
      <trkpt lat="44.29586" lon="6.15792">
        <ele>1248</ele>
        <time>2012-06-27T09:02:30Z</time>
      </trkpt>
      <trkpt lat="44.29587" lon="6.15792">
        <ele>1248</ele>
        <time>2012-06-27T09:02:31Z</time>
      </trkpt>
      <trkpt lat="44.29579" lon="6.15775">
        <ele>1242.6</ele>
        <time>2012-06-27T09:03:19Z</time>
      </trkpt>
      <trkpt lat="44.29574" lon="6.15784">
        <ele>1241.4</ele>
        <time>2012-06-27T09:03:36Z</time>
      </trkpt>
      <trkpt lat="44.29573" lon="6.15785">
        <ele>1241.7</ele>
        <time>2012-06-27T09:03:37Z</time>
      </trkpt>
      <trkpt lat="44.29561" lon="6.158">
        <ele>1238.7</ele>
        <time>2012-06-27T09:04:04Z</time>
      </trkpt>
      <trkpt lat="44.29556" lon="6.1581">
        <ele>1236.8</ele>
        <time>2012-06-27T09:04:21Z</time>
      </trkpt>
      <trkpt lat="44.29553" lon="6.15799">
        <ele>1234.1</ele>
        <time>2012-06-27T09:04:50Z</time>
      </trkpt>
      <trkpt lat="44.29553" lon="6.15798">
        <ele>1234</ele>
        <time>2012-06-27T09:04:51Z</time>
      </trkpt>
      <trkpt lat="44.2956" lon="6.15777">
        <ele>1231.4</ele>
        <time>2012-06-27T09:05:26Z</time>
      </trkpt>
      <trkpt lat="44.29563" lon="6.15765">
        <ele>1228.6</ele>
        <time>2012-06-27T09:05:43Z</time>
      </trkpt>
      <trkpt lat="44.29564" lon="6.15754">
        <ele>1226.8</ele>
        <time>2012-06-27T09:06:06Z</time>
      </trkpt>
      <trkpt lat="44.29564" lon="6.15753">
        <ele>1226.7</ele>
        <time>2012-06-27T09:06:07Z</time>
      </trkpt>
      <trkpt lat="44.29563" lon="6.15731">
        <ele>1221.7</ele>
        <time>2012-06-27T09:06:48Z</time>
      </trkpt>
      <trkpt lat="44.29567" lon="6.15721">
        <ele>1220.6</ele>
        <time>2012-06-27T09:07:04Z</time>
      </trkpt>
      <trkpt lat="44.29567" lon="6.15709">
        <ele>1218.6</ele>
        <time>2012-06-27T09:07:19Z</time>
      </trkpt>
      <trkpt lat="44.29566" lon="6.15708">
        <ele>1218.8</ele>
        <time>2012-06-27T09:07:20Z</time>
      </trkpt>
      <trkpt lat="44.29551" lon="6.15709">
        <ele>1214.6</ele>
        <time>2012-06-27T09:07:45Z</time>
      </trkpt>
      <trkpt lat="44.29542" lon="6.1571">
        <ele>1212.2</ele>
        <time>2012-06-27T09:08:04Z</time>
      </trkpt>
      <trkpt lat="44.29535" lon="6.15704">
        <ele>1209.2</ele>
        <time>2012-06-27T09:08:35Z</time>
      </trkpt>
      <trkpt lat="44.29534" lon="6.15704">
        <ele>1209</ele>
        <time>2012-06-27T09:08:36Z</time>
      </trkpt>
      <trkpt lat="44.29527" lon="6.15697">
        <ele>1207.1</ele>
        <time>2012-06-27T09:09:12Z</time>
      </trkpt>
      <trkpt lat="44.29521" lon="6.15689">
        <ele>1205</ele>
        <time>2012-06-27T09:09:25Z</time>
      </trkpt>
      <trkpt lat="44.29513" lon="6.15695">
        <ele>1202.8</ele>
        <time>2012-06-27T09:09:42Z</time>
      </trkpt>
      <trkpt lat="44.29512" lon="6.15694">
        <ele>1202.3</ele>
        <time>2012-06-27T09:09:43Z</time>
      </trkpt>
      <trkpt lat="44.29506" lon="6.15674">
        <ele>1198.5</ele>
        <time>2012-06-27T09:10:20Z</time>
      </trkpt>
      <trkpt lat="44.29497" lon="6.15674">
        <ele>1196.4</ele>
        <time>2012-06-27T09:10:33Z</time>
      </trkpt>
      <trkpt lat="44.29489" lon="6.15676">
        <ele>1194.1</ele>
        <time>2012-06-27T09:10:48Z</time>
      </trkpt>
      <trkpt lat="44.29489" lon="6.15676">
        <ele>1193.7</ele>
        <time>2012-06-27T09:10:49Z</time>
      </trkpt>
      <trkpt lat="44.29479" lon="6.15666">
        <ele>1190.4</ele>
        <time>2012-06-27T09:11:15Z</time>
      </trkpt>
      <trkpt lat="44.29478" lon="6.15654">
        <ele>1188.2</ele>
        <time>2012-06-27T09:11:38Z</time>
      </trkpt>
      <trkpt lat="44.2948" lon="6.15643">
        <ele>1187.3</ele>
        <time>2012-06-27T09:11:47Z</time>
      </trkpt>
      <trkpt lat="44.29474" lon="6.15633">
        <ele>1184.1</ele>
        <time>2012-06-27T09:12:11Z</time>
      </trkpt>
      <trkpt lat="44.29473" lon="6.15633">
        <ele>1183.8</ele>
        <time>2012-06-27T09:12:12Z</time>
      </trkpt>
      <trkpt lat="44.29465" lon="6.15613">
        <ele>1179.2</ele>
        <time>2012-06-27T09:12:56Z</time>
      </trkpt>
      <trkpt lat="44.29458" lon="6.1562">
        <ele>1178.2</ele>
        <time>2012-06-27T09:13:12Z</time>
      </trkpt>
      <trkpt lat="44.29458" lon="6.15621">
        <ele>1178.2</ele>
        <time>2012-06-27T09:13:13Z</time>
      </trkpt>
      <trkpt lat="44.29449" lon="6.1564">
        <ele>1173.7</ele>
        <time>2012-06-27T09:13:46Z</time>
      </trkpt>
      <trkpt lat="44.29443" lon="6.15648">
        <ele>1170.8</ele>
        <time>2012-06-27T09:14:06Z</time>
      </trkpt>
      <trkpt lat="44.29434" lon="6.15653">
        <ele>1168.4</ele>
        <time>2012-06-27T09:14:21Z</time>
      </trkpt>
      <trkpt lat="44.29434" lon="6.15653">
        <ele>1168.5</ele>
        <time>2012-06-27T09:14:22Z</time>
      </trkpt>
      <trkpt lat="44.29422" lon="6.1564">
        <ele>1164.7</ele>
        <time>2012-06-27T09:15:15Z</time>
      </trkpt>
      <trkpt lat="44.29416" lon="6.15631">
        <ele>1163.7</ele>
        <time>2012-06-27T09:15:31Z</time>
      </trkpt>
      <trkpt lat="44.29415" lon="6.1563">
        <ele>1163.6</ele>
        <time>2012-06-27T09:15:32Z</time>
      </trkpt>
      <trkpt lat="44.29404" lon="6.15614">
        <ele>1160.1</ele>
        <time>2012-06-27T09:16:01Z</time>
      </trkpt>
      <trkpt lat="44.29395" lon="6.15612">
        <ele>1158.8</ele>
        <time>2012-06-27T09:16:13Z</time>
      </trkpt>
      <trkpt lat="44.29387" lon="6.15611">
        <ele>1156.1</ele>
        <time>2012-06-27T09:16:50Z</time>
      </trkpt>
      <trkpt lat="44.29386" lon="6.15611">
        <ele>1156</ele>
        <time>2012-06-27T09:16:51Z</time>
      </trkpt>
      <trkpt lat="44.2937" lon="6.15618">
        <ele>1152.5</ele>
        <time>2012-06-27T09:19:51Z</time>
      </trkpt>
      <trkpt lat="44.29369" lon="6.15618">
        <ele>1152.5</ele>
        <time>2012-06-27T09:19:52Z</time>
      </trkpt>
      <trkpt lat="44.29353" lon="6.15619">
        <ele>1152.2</ele>
        <time>2012-06-27T09:20:28Z</time>
      </trkpt>
      <trkpt lat="44.29349" lon="6.15609">
        <ele>1151.7</ele>
        <time>2012-06-27T09:20:38Z</time>
      </trkpt>
      <trkpt lat="44.29347" lon="6.15597">
        <ele>1150.8</ele>
        <time>2012-06-27T09:20:47Z</time>
      </trkpt>
      <trkpt lat="44.29343" lon="6.15586">
        <ele>1150</ele>
        <time>2012-06-27T09:20:58Z</time>
      </trkpt>
      <trkpt lat="44.29343" lon="6.15585">
        <ele>1149.8</ele>
        <time>2012-06-27T09:20:59Z</time>
      </trkpt>
      <trkpt lat="44.29333" lon="6.15568">
        <ele>1148.7</ele>
        <time>2012-06-27T09:21:16Z</time>
      </trkpt>
      <trkpt lat="44.29328" lon="6.15558">
        <ele>1148.9</ele>
        <time>2012-06-27T09:21:24Z</time>
      </trkpt>
      <trkpt lat="44.29322" lon="6.1555">
        <ele>1149.8</ele>
        <time>2012-06-27T09:21:32Z</time>
      </trkpt>
      <trkpt lat="44.29315" lon="6.15542">
        <ele>1151.5</ele>
        <time>2012-06-27T09:21:40Z</time>
      </trkpt>
      <trkpt lat="44.29308" lon="6.15537">
        <ele>1151.6</ele>
        <time>2012-06-27T09:21:47Z</time>
      </trkpt>
      <trkpt lat="44.293" lon="6.15535">
        <ele>1152.6</ele>
        <time>2012-06-27T09:21:55Z</time>
      </trkpt>
      <trkpt lat="44.29292" lon="6.15535">
        <ele>1152.6</ele>
        <time>2012-06-27T09:22:01Z</time>
      </trkpt>
      <trkpt lat="44.2929" lon="6.15536">
        <ele>1152.7</ele>
        <time>2012-06-27T09:22:02Z</time>
      </trkpt>
      <trkpt lat="44.29275" lon="6.15533">
        <ele>1152.4</ele>
        <time>2012-06-27T09:22:17Z</time>
      </trkpt>
      <trkpt lat="44.29267" lon="6.15528">
        <ele>1151.7</ele>
        <time>2012-06-27T09:22:27Z</time>
      </trkpt>
      <trkpt lat="44.29259" lon="6.15524">
        <ele>1151.3</ele>
        <time>2012-06-27T09:22:35Z</time>
      </trkpt>
      <trkpt lat="44.29252" lon="6.15519">
        <ele>1151.1</ele>
        <time>2012-06-27T09:22:43Z</time>
      </trkpt>
      <trkpt lat="44.29245" lon="6.15513">
        <ele>1149.8</ele>
        <time>2012-06-27T09:22:51Z</time>
      </trkpt>
      <trkpt lat="44.29238" lon="6.15507">
        <ele>1150.3</ele>
        <time>2012-06-27T09:23:22Z</time>
      </trkpt>
      <trkpt lat="44.29237" lon="6.15506">
        <ele>1150.3</ele>
        <time>2012-06-27T09:23:23Z</time>
      </trkpt>
      <trkpt lat="44.29221" lon="6.15504">
        <ele>1149.9</ele>
        <time>2012-06-27T09:23:36Z</time>
      </trkpt>
      <trkpt lat="44.29212" lon="6.15505">
        <ele>1149.9</ele>
        <time>2012-06-27T09:23:44Z</time>
      </trkpt>
      <trkpt lat="44.29204" lon="6.15506">
        <ele>1149.1</ele>
        <time>2012-06-27T09:24:10Z</time>
      </trkpt>
      <trkpt lat="44.29195" lon="6.1551">
        <ele>1149.7</ele>
        <time>2012-06-27T09:24:18Z</time>
      </trkpt>
      <trkpt lat="44.29187" lon="6.15509">
        <ele>1149.1</ele>
        <time>2012-06-27T09:24:59Z</time>
      </trkpt>
      <trkpt lat="44.29186" lon="6.15509">
        <ele>1148.8</ele>
        <time>2012-06-27T09:25:00Z</time>
      </trkpt>
      <trkpt lat="44.29177" lon="6.15489">
        <ele>1147</ele>
        <time>2012-06-27T09:25:45Z</time>
      </trkpt>
      <trkpt lat="44.2917" lon="6.15482">
        <ele>1144.8</ele>
        <time>2012-06-27T09:26:06Z</time>
      </trkpt>
      <trkpt lat="44.2917" lon="6.15481">
        <ele>1144.9</ele>
        <time>2012-06-27T09:26:07Z</time>
      </trkpt>
      <trkpt lat="44.29155" lon="6.1547">
        <ele>1142.7</ele>
        <time>2012-06-27T09:27:11Z</time>
      </trkpt>
      <trkpt lat="44.29155" lon="6.1547">
        <ele>1142.6</ele>
        <time>2012-06-27T09:27:12Z</time>
      </trkpt>
      <trkpt lat="44.29141" lon="6.15457">
        <ele>1139.5</ele>
        <time>2012-06-27T09:27:42Z</time>
      </trkpt>
      <trkpt lat="44.29135" lon="6.15448">
        <ele>1137.7</ele>
        <time>2012-06-27T09:27:58Z</time>
      </trkpt>
      <trkpt lat="44.29128" lon="6.15441">
        <ele>1136.2</ele>
        <time>2012-06-27T09:28:13Z</time>
      </trkpt>
      <trkpt lat="44.29128" lon="6.15441">
        <ele>1136</ele>
        <time>2012-06-27T09:28:14Z</time>
      </trkpt>
      <trkpt lat="44.29112" lon="6.15431">
        <ele>1133.3</ele>
        <time>2012-06-27T09:28:45Z</time>
      </trkpt>
      <trkpt lat="44.29105" lon="6.15423">
        <ele>1132.3</ele>
        <time>2012-06-27T09:29:04Z</time>
      </trkpt>
      <trkpt lat="44.291" lon="6.15414">
        <ele>1130.8</ele>
        <time>2012-06-27T09:29:28Z</time>
      </trkpt>
      <trkpt lat="44.29099" lon="6.15413">
        <ele>1130.5</ele>
        <time>2012-06-27T09:29:29Z</time>
      </trkpt>
      <trkpt lat="44.29085" lon="6.1541">
        <ele>1126.1</ele>
        <time>2012-06-27T09:30:28Z</time>
      </trkpt>
      <trkpt lat="44.29078" lon="6.15416">
        <ele>1124.2</ele>
        <time>2012-06-27T09:30:45Z</time>
      </trkpt>
      <trkpt lat="44.29077" lon="6.15416">
        <ele>1123.9</ele>
        <time>2012-06-27T09:30:46Z</time>
      </trkpt>
      <trkpt lat="44.29061" lon="6.15418">
        <ele>1122.1</ele>
        <time>2012-06-27T09:31:31Z</time>
      </trkpt>
      <trkpt lat="44.29053" lon="6.15414">
        <ele>1122.4</ele>
        <time>2012-06-27T09:31:39Z</time>
      </trkpt>
      <trkpt lat="44.29049" lon="6.15404">
        <ele>1122.3</ele>
        <time>2012-06-27T09:31:51Z</time>
      </trkpt>
      <trkpt lat="44.29047" lon="6.15403">
        <ele>1122</ele>
        <time>2012-06-27T09:31:52Z</time>
      </trkpt>
      <trkpt lat="44.29035" lon="6.15389">
        <ele>1122</ele>
        <time>2012-06-27T09:32:03Z</time>
      </trkpt>
      <trkpt lat="44.29029" lon="6.15381">
        <ele>1122.4</ele>
        <time>2012-06-27T09:32:13Z</time>
      </trkpt>
      <trkpt lat="44.29024" lon="6.15372">
        <ele>1123.3</ele>
        <time>2012-06-27T09:32:20Z</time>
      </trkpt>
      <trkpt lat="44.29019" lon="6.15362">
        <ele>1124.1</ele>
        <time>2012-06-27T09:32:28Z</time>
      </trkpt>
      <trkpt lat="44.29013" lon="6.15355">
        <ele>1124.2</ele>
        <time>2012-06-27T09:32:36Z</time>
      </trkpt>
      <trkpt lat="44.29005" lon="6.15351">
        <ele>1125.2</ele>
        <time>2012-06-27T09:32:44Z</time>
      </trkpt>
      <trkpt lat="44.28997" lon="6.15347">
        <ele>1125.4</ele>
        <time>2012-06-27T09:32:53Z</time>
      </trkpt>
      <trkpt lat="44.28996" lon="6.15346">
        <ele>1125.6</ele>
        <time>2012-06-27T09:32:54Z</time>
      </trkpt>
      <trkpt lat="44.28983" lon="6.1534">
        <ele>1125.7</ele>
        <time>2012-06-27T09:33:05Z</time>
      </trkpt>
      <trkpt lat="44.28974" lon="6.15341">
        <ele>1125.7</ele>
        <time>2012-06-27T09:33:13Z</time>
      </trkpt>
      <trkpt lat="44.28968" lon="6.1535">
        <ele>1125.7</ele>
        <time>2012-06-27T09:33:43Z</time>
      </trkpt>
      <trkpt lat="44.28959" lon="6.15349">
        <ele>1124.4</ele>
        <time>2012-06-27T09:34:03Z</time>
      </trkpt>
      <trkpt lat="44.28959" lon="6.15349">
        <ele>1124.2</ele>
        <time>2012-06-27T09:34:04Z</time>
      </trkpt>
      <trkpt lat="44.28943" lon="6.15347">
        <ele>1122.5</ele>
        <time>2012-06-27T09:34:32Z</time>
      </trkpt>
      <trkpt lat="44.28939" lon="6.15358">
        <ele>1123.2</ele>
        <time>2012-06-27T09:34:51Z</time>
      </trkpt>
      <trkpt lat="44.28947" lon="6.15363">
        <ele>1123.4</ele>
        <time>2012-06-27T09:35:32Z</time>
      </trkpt>
      <trkpt lat="44.28948" lon="6.15363">
        <ele>1123.1</ele>
        <time>2012-06-27T09:35:33Z</time>
      </trkpt>
      <trkpt lat="44.28947" lon="6.15374">
        <ele>1125.5</ele>
        <time>2012-06-27T09:37:08Z</time>
      </trkpt>
      <trkpt lat="44.28947" lon="6.15375">
        <ele>1125.5</ele>
        <time>2012-06-27T09:37:09Z</time>
      </trkpt>
      <trkpt lat="44.28956" lon="6.15374">
        <ele>1129.1</ele>
        <time>2012-06-27T09:39:17Z</time>
      </trkpt>
      <trkpt lat="44.28971" lon="6.15363">
        <ele>1127.5</ele>
        <time>2012-06-27T09:39:29Z</time>
      </trkpt>
      <trkpt lat="44.28963" lon="6.15367">
        <ele>1131.3</ele>
        <time>2012-06-27T09:41:16Z</time>
      </trkpt>
      <trkpt lat="44.28962" lon="6.15368">
        <ele>1131.4</ele>
        <time>2012-06-27T09:41:17Z</time>
      </trkpt>
      <trkpt lat="44.28954" lon="6.15385">
        <ele>1132.5</ele>
        <time>2012-06-27T09:41:38Z</time>
      </trkpt>
      <trkpt lat="44.28961" lon="6.15391">
        <ele>1132.8</ele>
        <time>2012-06-27T09:41:54Z</time>
      </trkpt>
      <trkpt lat="44.28957" lon="6.1538">
        <ele>1132.5</ele>
        <time>2012-06-27T09:42:10Z</time>
      </trkpt>
      <trkpt lat="44.28964" lon="6.15374">
        <ele>1131.8</ele>
        <time>2012-06-27T09:42:41Z</time>
      </trkpt>
      <trkpt lat="44.28965" lon="6.15373">
        <ele>1131.5</ele>
        <time>2012-06-27T09:42:42Z</time>
      </trkpt>
      <trkpt lat="44.28971" lon="6.15355">
        <ele>1127.7</ele>
        <time>2012-06-27T09:44:00Z</time>
      </trkpt>
      <trkpt lat="44.28972" lon="6.15354">
        <ele>1127.6</ele>
        <time>2012-06-27T09:44:01Z</time>
      </trkpt>
      <trkpt lat="44.28955" lon="6.15352">
        <ele>1123.7</ele>
        <time>2012-06-27T09:44:22Z</time>
      </trkpt>
      <trkpt lat="44.28946" lon="6.15352">
        <ele>1122.8</ele>
        <time>2012-06-27T09:44:29Z</time>
      </trkpt>
      <trkpt lat="44.28938" lon="6.15351">
        <ele>1122.6</ele>
        <time>2012-06-27T09:44:36Z</time>
      </trkpt>
      <trkpt lat="44.28931" lon="6.15359">
        <ele>1122.5</ele>
        <time>2012-06-27T09:44:48Z</time>
      </trkpt>
      <trkpt lat="44.28923" lon="6.15354">
        <ele>1122.8</ele>
        <time>2012-06-27T09:45:14Z</time>
      </trkpt>
      <trkpt lat="44.28923" lon="6.15353">
        <ele>1122.8</ele>
        <time>2012-06-27T09:45:15Z</time>
      </trkpt>
      <trkpt lat="44.28914" lon="6.15354">
        <ele>1122.4</ele>
        <time>2012-06-27T09:48:29Z</time>
      </trkpt>
      <trkpt lat="44.28932" lon="6.15351">
        <ele>1122.6</ele>
        <time>2012-06-27T09:48:57Z</time>
      </trkpt>
      <trkpt lat="44.28927" lon="6.15361">
        <ele>1122.2</ele>
        <time>2012-06-27T09:49:19Z</time>
      </trkpt>
      <trkpt lat="44.28919" lon="6.1536">
        <ele>1122.1</ele>
        <time>2012-06-27T09:49:44Z</time>
      </trkpt>
      <trkpt lat="44.28918" lon="6.1536">
        <ele>1122</ele>
        <time>2012-06-27T09:49:45Z</time>
      </trkpt>
      <trkpt lat="44.28933" lon="6.15366">
        <ele>1122</ele>
        <time>2012-06-27T09:50:03Z</time>
      </trkpt>
      <trkpt lat="44.28942" lon="6.15368">
        <ele>1122.3</ele>
        <time>2012-06-27T09:50:06Z</time>
      </trkpt>
      <trkpt lat="44.28935" lon="6.15361">
        <ele>1122.1</ele>
        <time>2012-06-27T09:50:20Z</time>
      </trkpt>
      <trkpt lat="44.28928" lon="6.15359">
        <ele>1122.2</ele>
        <time>2012-06-27T09:50:28Z</time>
      </trkpt>
      <trkpt lat="44.28922" lon="6.15356">
        <ele>1122.4</ele>
        <time>2012-06-27T09:50:32Z</time>
      </trkpt>
      <trkpt lat="44.28914" lon="6.15351">
        <ele>1122.1</ele>
        <time>2012-06-27T09:50:43Z</time>
      </trkpt>
      <trkpt lat="44.2892" lon="6.15354">
        <ele>1121.7</ele>
        <time>2012-06-27T09:51:01Z</time>
      </trkpt>
      <trkpt lat="44.28924" lon="6.15357">
        <ele>1121.7</ele>
        <time>2012-06-27T09:51:02Z</time>
      </trkpt>
      <trkpt lat="44.28921" lon="6.15366">
        <ele>1123.7</ele>
        <time>2012-06-27T09:52:27Z</time>
      </trkpt>
      <trkpt lat="44.28921" lon="6.15366">
        <ele>1123.9</ele>
        <time>2012-06-27T09:52:28Z</time>
      </trkpt>
      <trkpt lat="44.28928" lon="6.15387">
        <ele>1127.7</ele>
        <time>2012-06-27T09:52:57Z</time>
      </trkpt>
      <trkpt lat="44.28929" lon="6.15399">
        <ele>1129.9</ele>
        <time>2012-06-27T09:53:29Z</time>
      </trkpt>
      <trkpt lat="44.28928" lon="6.154">
        <ele>1130.2</ele>
        <time>2012-06-27T09:53:30Z</time>
      </trkpt>
      <trkpt lat="44.28919" lon="6.15419">
        <ele>1134.4</ele>
        <time>2012-06-27T09:53:54Z</time>
      </trkpt>
      <trkpt lat="44.28917" lon="6.15431">
        <ele>1135.6</ele>
        <time>2012-06-27T09:54:07Z</time>
      </trkpt>
      <trkpt lat="44.28915" lon="6.15443">
        <ele>1137.6</ele>
        <time>2012-06-27T09:54:20Z</time>
      </trkpt>
      <trkpt lat="44.28915" lon="6.15455">
        <ele>1139.2</ele>
        <time>2012-06-27T09:54:32Z</time>
      </trkpt>
      <trkpt lat="44.28914" lon="6.15456">
        <ele>1139.5</ele>
        <time>2012-06-27T09:54:33Z</time>
      </trkpt>
      <trkpt lat="44.28913" lon="6.15479">
        <ele>1142.4</ele>
        <time>2012-06-27T09:54:57Z</time>
      </trkpt>
      <trkpt lat="44.28914" lon="6.15492">
        <ele>1143.4</ele>
        <time>2012-06-27T09:55:08Z</time>
      </trkpt>
      <trkpt lat="44.28912" lon="6.15504">
        <ele>1144.8</ele>
        <time>2012-06-27T09:55:19Z</time>
      </trkpt>
      <trkpt lat="44.2891" lon="6.15515">
        <ele>1145.7</ele>
        <time>2012-06-27T09:55:29Z</time>
      </trkpt>
      <trkpt lat="44.28909" lon="6.15526">
        <ele>1146.2</ele>
        <time>2012-06-27T09:55:39Z</time>
      </trkpt>
      <trkpt lat="44.28909" lon="6.15528">
        <ele>1146.4</ele>
        <time>2012-06-27T09:55:40Z</time>
      </trkpt>
      <trkpt lat="44.28908" lon="6.1555">
        <ele>1148</ele>
        <time>2012-06-27T09:55:58Z</time>
      </trkpt>
      <trkpt lat="44.2891" lon="6.15562">
        <ele>1149.6</ele>
        <time>2012-06-27T09:56:24Z</time>
      </trkpt>
      <trkpt lat="44.28912" lon="6.15573">
        <ele>1150.2</ele>
        <time>2012-06-27T09:56:35Z</time>
      </trkpt>
      <trkpt lat="44.28915" lon="6.15585">
        <ele>1152.3</ele>
        <time>2012-06-27T09:56:48Z</time>
      </trkpt>
      <trkpt lat="44.28915" lon="6.15586">
        <ele>1152.3</ele>
        <time>2012-06-27T09:56:49Z</time>
      </trkpt>
      <trkpt lat="44.2892" lon="6.15608">
        <ele>1154.2</ele>
        <time>2012-06-27T09:57:11Z</time>
      </trkpt>
      <trkpt lat="44.28924" lon="6.15619">
        <ele>1155.4</ele>
        <time>2012-06-27T09:57:25Z</time>
      </trkpt>
      <trkpt lat="44.28919" lon="6.15629">
        <ele>1156.2</ele>
        <time>2012-06-27T09:57:41Z</time>
      </trkpt>
      <trkpt lat="44.28916" lon="6.1564">
        <ele>1157</ele>
        <time>2012-06-27T09:57:52Z</time>
      </trkpt>
      <trkpt lat="44.28915" lon="6.15641">
        <ele>1157</ele>
        <time>2012-06-27T09:57:53Z</time>
      </trkpt>
      <trkpt lat="44.28906" lon="6.15659">
        <ele>1161.1</ele>
        <time>2012-06-27T09:58:22Z</time>
      </trkpt>
      <trkpt lat="44.28905" lon="6.15672">
        <ele>1163.5</ele>
        <time>2012-06-27T09:58:35Z</time>
      </trkpt>
      <trkpt lat="44.28901" lon="6.15683">
        <ele>1165.6</ele>
        <time>2012-06-27T09:58:51Z</time>
      </trkpt>
      <trkpt lat="44.28898" lon="6.15694">
        <ele>1167.6</ele>
        <time>2012-06-27T09:59:04Z</time>
      </trkpt>
      <trkpt lat="44.28898" lon="6.15694">
        <ele>1167.7</ele>
        <time>2012-06-27T09:59:05Z</time>
      </trkpt>
      <trkpt lat="44.28885" lon="6.15708">
        <ele>1170.6</ele>
        <time>2012-06-27T09:59:34Z</time>
      </trkpt>
      <trkpt lat="44.28879" lon="6.15716">
        <ele>1171.5</ele>
        <time>2012-06-27T09:59:46Z</time>
      </trkpt>
      <trkpt lat="44.28872" lon="6.15724">
        <ele>1172.9</ele>
        <time>2012-06-27T09:59:59Z</time>
      </trkpt>
      <trkpt lat="44.28867" lon="6.15734">
        <ele>1174.8</ele>
        <time>2012-06-27T10:00:11Z</time>
      </trkpt>
      <trkpt lat="44.28866" lon="6.15734">
        <ele>1175.2</ele>
        <time>2012-06-27T10:00:12Z</time>
      </trkpt>
      <trkpt lat="44.28861" lon="6.15757">
        <ele>1177</ele>
        <time>2012-06-27T10:00:33Z</time>
      </trkpt>
      <trkpt lat="44.28858" lon="6.15768">
        <ele>1178.5</ele>
        <time>2012-06-27T10:00:43Z</time>
      </trkpt>
      <trkpt lat="44.28853" lon="6.15778">
        <ele>1179.1</ele>
        <time>2012-06-27T10:00:53Z</time>
      </trkpt>
      <trkpt lat="44.28847" lon="6.15787">
        <ele>1178.6</ele>
        <time>2012-06-27T10:01:03Z</time>
      </trkpt>
      <trkpt lat="44.28846" lon="6.15799">
        <ele>1178.4</ele>
        <time>2012-06-27T10:01:11Z</time>
      </trkpt>
      <trkpt lat="44.28845" lon="6.1581">
        <ele>1178.2</ele>
        <time>2012-06-27T10:01:18Z</time>
      </trkpt>
      <trkpt lat="44.28844" lon="6.15811">
        <ele>1177.9</ele>
        <time>2012-06-27T10:01:19Z</time>
      </trkpt>
      <trkpt lat="44.28849" lon="6.15834">
        <ele>1175.4</ele>
        <time>2012-06-27T10:01:35Z</time>
      </trkpt>
      <trkpt lat="44.2885" lon="6.15846">
        <ele>1174.3</ele>
        <time>2012-06-27T10:01:41Z</time>
      </trkpt>
      <trkpt lat="44.28851" lon="6.15858">
        <ele>1173.4</ele>
        <time>2012-06-27T10:01:50Z</time>
      </trkpt>
      <trkpt lat="44.28851" lon="6.1587">
        <ele>1172.6</ele>
        <time>2012-06-27T10:01:59Z</time>
      </trkpt>
      <trkpt lat="44.28853" lon="6.15881">
        <ele>1172.4</ele>
        <time>2012-06-27T10:02:06Z</time>
      </trkpt>
      <trkpt lat="44.28857" lon="6.15892">
        <ele>1172.3</ele>
        <time>2012-06-27T10:02:15Z</time>
      </trkpt>
      <trkpt lat="44.28857" lon="6.15903">
        <ele>1172.2</ele>
        <time>2012-06-27T10:02:24Z</time>
      </trkpt>
      <trkpt lat="44.28857" lon="6.15904">
        <ele>1171.9</ele>
        <time>2012-06-27T10:02:25Z</time>
      </trkpt>
      <trkpt lat="44.28856" lon="6.15926">
        <ele>1171.4</ele>
        <time>2012-06-27T10:02:47Z</time>
      </trkpt>
      <trkpt lat="44.28854" lon="6.15937">
        <ele>1172.2</ele>
        <time>2012-06-27T10:02:57Z</time>
      </trkpt>
      <trkpt lat="44.28856" lon="6.15948">
        <ele>1173.4</ele>
        <time>2012-06-27T10:03:04Z</time>
      </trkpt>
      <trkpt lat="44.28854" lon="6.1596">
        <ele>1173.6</ele>
        <time>2012-06-27T10:03:13Z</time>
      </trkpt>
      <trkpt lat="44.28858" lon="6.15969">
        <ele>1175.8</ele>
        <time>2012-06-27T10:03:24Z</time>
      </trkpt>
      <trkpt lat="44.28861" lon="6.1598">
        <ele>1178.2</ele>
        <time>2012-06-27T10:03:37Z</time>
      </trkpt>
      <trkpt lat="44.28861" lon="6.15982">
        <ele>1178</ele>
        <time>2012-06-27T10:03:38Z</time>
      </trkpt>
      <trkpt lat="44.28863" lon="6.16004">
        <ele>1179.5</ele>
        <time>2012-06-27T10:03:54Z</time>
      </trkpt>
      <trkpt lat="44.28857" lon="6.16014">
        <ele>1181.8</ele>
        <time>2012-06-27T10:04:10Z</time>
      </trkpt>
      <trkpt lat="44.28851" lon="6.16021">
        <ele>1183.2</ele>
        <time>2012-06-27T10:04:22Z</time>
      </trkpt>
      <trkpt lat="44.28846" lon="6.1603">
        <ele>1184.5</ele>
        <time>2012-06-27T10:04:35Z</time>
      </trkpt>
      <trkpt lat="44.28841" lon="6.16041">
        <ele>1185.3</ele>
        <time>2012-06-27T10:04:49Z</time>
      </trkpt>
      <trkpt lat="44.28842" lon="6.16041">
        <ele>1185.3</ele>
        <time>2012-06-27T10:04:50Z</time>
      </trkpt>
      <trkpt lat="44.2884" lon="6.16064">
        <ele>1187.1</ele>
        <time>2012-06-27T10:05:16Z</time>
      </trkpt>
      <trkpt lat="44.28838" lon="6.16076">
        <ele>1188.5</ele>
        <time>2012-06-27T10:05:25Z</time>
      </trkpt>
      <trkpt lat="44.28834" lon="6.16087">
        <ele>1189.6</ele>
        <time>2012-06-27T10:05:34Z</time>
      </trkpt>
      <trkpt lat="44.28828" lon="6.16096">
        <ele>1191.3</ele>
        <time>2012-06-27T10:05:46Z</time>
      </trkpt>
      <trkpt lat="44.28825" lon="6.16106">
        <ele>1193.1</ele>
        <time>2012-06-27T10:05:58Z</time>
      </trkpt>
      <trkpt lat="44.28824" lon="6.16107">
        <ele>1193</ele>
        <time>2012-06-27T10:05:59Z</time>
      </trkpt>
      <trkpt lat="44.2882" lon="6.16126">
        <ele>1193.4</ele>
        <time>2012-06-27T10:06:15Z</time>
      </trkpt>
      <trkpt lat="44.28814" lon="6.16135">
        <ele>1195</ele>
        <time>2012-06-27T10:06:33Z</time>
      </trkpt>
      <trkpt lat="44.28806" lon="6.16135">
        <ele>1197.1</ele>
        <time>2012-06-27T10:06:50Z</time>
      </trkpt>
      <trkpt lat="44.28797" lon="6.16135">
        <ele>1197.5</ele>
        <time>2012-06-27T10:06:59Z</time>
      </trkpt>
      <trkpt lat="44.28797" lon="6.16135">
        <ele>1197.4</ele>
        <time>2012-06-27T10:07:00Z</time>
      </trkpt>
      <trkpt lat="44.28782" lon="6.16142">
        <ele>1199.1</ele>
        <time>2012-06-27T10:07:18Z</time>
      </trkpt>
      <trkpt lat="44.28776" lon="6.1615">
        <ele>1200.2</ele>
        <time>2012-06-27T10:07:27Z</time>
      </trkpt>
      <trkpt lat="44.28772" lon="6.16161">
        <ele>1201.2</ele>
        <time>2012-06-27T10:07:39Z</time>
      </trkpt>
      <trkpt lat="44.28764" lon="6.16167">
        <ele>1202.7</ele>
        <time>2012-06-27T10:07:49Z</time>
      </trkpt>
      <trkpt lat="44.28759" lon="6.16177">
        <ele>1203.6</ele>
        <time>2012-06-27T10:07:58Z</time>
      </trkpt>
      <trkpt lat="44.28751" lon="6.16182">
        <ele>1205.2</ele>
        <time>2012-06-27T10:08:16Z</time>
      </trkpt>
      <trkpt lat="44.2875" lon="6.16183">
        <ele>1205.2</ele>
        <time>2012-06-27T10:08:17Z</time>
      </trkpt>
      <trkpt lat="44.28744" lon="6.16202">
        <ele>1209</ele>
        <time>2012-06-27T10:08:45Z</time>
      </trkpt>
      <trkpt lat="44.28745" lon="6.16215">
        <ele>1210.8</ele>
        <time>2012-06-27T10:08:57Z</time>
      </trkpt>
      <trkpt lat="44.28745" lon="6.16227">
        <ele>1212.8</ele>
        <time>2012-06-27T10:09:09Z</time>
      </trkpt>
      <trkpt lat="44.28737" lon="6.16232">
        <ele>1214.6</ele>
        <time>2012-06-27T10:09:24Z</time>
      </trkpt>
      <trkpt lat="44.28737" lon="6.16233">
        <ele>1214.7</ele>
        <time>2012-06-27T10:09:25Z</time>
      </trkpt>
      <trkpt lat="44.28726" lon="6.16246">
        <ele>1213.5</ele>
        <time>2012-06-27T10:09:41Z</time>
      </trkpt>
      <trkpt lat="44.28718" lon="6.16252">
        <ele>1212.4</ele>
        <time>2012-06-27T10:10:00Z</time>
      </trkpt>
      <trkpt lat="44.28712" lon="6.16261">
        <ele>1212.6</ele>
        <time>2012-06-27T10:10:07Z</time>
      </trkpt>
      <trkpt lat="44.28707" lon="6.16269">
        <ele>1212.3</ele>
        <time>2012-06-27T10:10:18Z</time>
      </trkpt>
      <trkpt lat="44.28698" lon="6.1627">
        <ele>1212.3</ele>
        <time>2012-06-27T10:10:24Z</time>
      </trkpt>
      <trkpt lat="44.28692" lon="6.16278">
        <ele>1211.9</ele>
        <time>2012-06-27T10:10:33Z</time>
      </trkpt>
      <trkpt lat="44.28691" lon="6.16279">
        <ele>1211.9</ele>
        <time>2012-06-27T10:10:34Z</time>
      </trkpt>
      <trkpt lat="44.28681" lon="6.16296">
        <ele>1211.9</ele>
        <time>2012-06-27T10:10:50Z</time>
      </trkpt>
      <trkpt lat="44.28677" lon="6.16307">
        <ele>1211.8</ele>
        <time>2012-06-27T10:10:59Z</time>
      </trkpt>
      <trkpt lat="44.2867" lon="6.16314">
        <ele>1212.9</ele>
        <time>2012-06-27T10:11:17Z</time>
      </trkpt>
      <trkpt lat="44.28663" lon="6.16321">
        <ele>1212.4</ele>
        <time>2012-06-27T10:11:26Z</time>
      </trkpt>
      <trkpt lat="44.28656" lon="6.16314">
        <ele>1215.9</ele>
        <time>2012-06-27T10:12:09Z</time>
      </trkpt>
      <trkpt lat="44.28656" lon="6.16313">
        <ele>1216</ele>
        <time>2012-06-27T10:12:10Z</time>
      </trkpt>
      <trkpt lat="44.28642" lon="6.16299">
        <ele>1216.9</ele>
        <time>2012-06-27T10:12:37Z</time>
      </trkpt>
      <trkpt lat="44.28635" lon="6.16298">
        <ele>1217.6</ele>
        <time>2012-06-27T10:12:42Z</time>
      </trkpt>
      <trkpt lat="44.28627" lon="6.16295">
        <ele>1218.7</ele>
        <time>2012-06-27T10:12:52Z</time>
      </trkpt>
      <trkpt lat="44.28618" lon="6.16293">
        <ele>1220.6</ele>
        <time>2012-06-27T10:13:05Z</time>
      </trkpt>
      <trkpt lat="44.2861" lon="6.1629">
        <ele>1221.3</ele>
        <time>2012-06-27T10:13:22Z</time>
      </trkpt>
      <trkpt lat="44.2861" lon="6.16289">
        <ele>1221.4</ele>
        <time>2012-06-27T10:13:23Z</time>
      </trkpt>
      <trkpt lat="44.28593" lon="6.16291">
        <ele>1221.3</ele>
        <time>2012-06-27T10:14:18Z</time>
      </trkpt>
      <trkpt lat="44.28602" lon="6.16292">
        <ele>1222.2</ele>
        <time>2012-06-27T10:14:54Z</time>
      </trkpt>
      <trkpt lat="44.28603" lon="6.16291">
        <ele>1222.1</ele>
        <time>2012-06-27T10:14:55Z</time>
      </trkpt>
      <trkpt lat="44.28593" lon="6.16275">
        <ele>1222.5</ele>
        <time>2012-06-27T10:15:28Z</time>
      </trkpt>
      <trkpt lat="44.28584" lon="6.16274">
        <ele>1224.8</ele>
        <time>2012-06-27T10:15:36Z</time>
      </trkpt>
      <trkpt lat="44.28577" lon="6.16279">
        <ele>1226</ele>
        <time>2012-06-27T10:15:44Z</time>
      </trkpt>
      <trkpt lat="44.28573" lon="6.1629">
        <ele>1227.1</ele>
        <time>2012-06-27T10:15:58Z</time>
      </trkpt>
      <trkpt lat="44.28572" lon="6.16291">
        <ele>1227.2</ele>
        <time>2012-06-27T10:15:59Z</time>
      </trkpt>
      <trkpt lat="44.28557" lon="6.163">
        <ele>1228.2</ele>
        <time>2012-06-27T10:16:16Z</time>
      </trkpt>
      <trkpt lat="44.28549" lon="6.16297">
        <ele>1229.2</ele>
        <time>2012-06-27T10:16:29Z</time>
      </trkpt>
      <trkpt lat="44.28542" lon="6.16292">
        <ele>1230.3</ele>
        <time>2012-06-27T10:16:44Z</time>
      </trkpt>
      <trkpt lat="44.28534" lon="6.16287">
        <ele>1230.7</ele>
        <time>2012-06-27T10:17:04Z</time>
      </trkpt>
      <trkpt lat="44.28533" lon="6.16287">
        <ele>1230.8</ele>
        <time>2012-06-27T10:17:05Z</time>
      </trkpt>
      <trkpt lat="44.28518" lon="6.16296">
        <ele>1232.7</ele>
        <time>2012-06-27T10:17:21Z</time>
      </trkpt>
      <trkpt lat="44.28511" lon="6.16304">
        <ele>1234.5</ele>
        <time>2012-06-27T10:17:31Z</time>
      </trkpt>
      <trkpt lat="44.28509" lon="6.16316">
        <ele>1235.7</ele>
        <time>2012-06-27T10:17:43Z</time>
      </trkpt>
      <trkpt lat="44.28506" lon="6.16327">
        <ele>1237.1</ele>
        <time>2012-06-27T10:17:57Z</time>
      </trkpt>
      <trkpt lat="44.285" lon="6.16336">
        <ele>1238.6</ele>
        <time>2012-06-27T10:18:12Z</time>
      </trkpt>
      <trkpt lat="44.28499" lon="6.16337">
        <ele>1238.9</ele>
        <time>2012-06-27T10:18:13Z</time>
      </trkpt>
      <trkpt lat="44.28486" lon="6.16351">
        <ele>1238.7</ele>
        <time>2012-06-27T10:18:27Z</time>
      </trkpt>
      <trkpt lat="44.28481" lon="6.1636">
        <ele>1238.7</ele>
        <time>2012-06-27T10:18:36Z</time>
      </trkpt>
      <trkpt lat="44.28478" lon="6.16372">
        <ele>1238.6</ele>
        <time>2012-06-27T10:18:44Z</time>
      </trkpt>
      <trkpt lat="44.28472" lon="6.1638">
        <ele>1239.1</ele>
        <time>2012-06-27T10:18:52Z</time>
      </trkpt>
      <trkpt lat="44.28465" lon="6.16388">
        <ele>1240.1</ele>
        <time>2012-06-27T10:19:02Z</time>
      </trkpt>
      <trkpt lat="44.2846" lon="6.16397">
        <ele>1241.8</ele>
        <time>2012-06-27T10:19:12Z</time>
      </trkpt>
      <trkpt lat="44.28454" lon="6.16405">
        <ele>1242.7</ele>
        <time>2012-06-27T10:19:19Z</time>
      </trkpt>
      <trkpt lat="44.28453" lon="6.16406">
        <ele>1243</ele>
        <time>2012-06-27T10:19:20Z</time>
      </trkpt>
      <trkpt lat="44.28448" lon="6.16427">
        <ele>1244.4</ele>
        <time>2012-06-27T10:19:37Z</time>
      </trkpt>
      <trkpt lat="44.28444" lon="6.16438">
        <ele>1245.7</ele>
        <time>2012-06-27T10:19:47Z</time>
      </trkpt>
      <trkpt lat="44.28439" lon="6.16447">
        <ele>1245.4</ele>
        <time>2012-06-27T10:19:56Z</time>
      </trkpt>
      <trkpt lat="44.28436" lon="6.16459">
        <ele>1245.7</ele>
        <time>2012-06-27T10:20:06Z</time>
      </trkpt>
      <trkpt lat="44.28428" lon="6.16463">
        <ele>1246.4</ele>
        <time>2012-06-27T10:20:13Z</time>
      </trkpt>
      <trkpt lat="44.28428" lon="6.16475">
        <ele>1247.5</ele>
        <time>2012-06-27T10:20:25Z</time>
      </trkpt>
      <trkpt lat="44.28427" lon="6.16476">
        <ele>1247.6</ele>
        <time>2012-06-27T10:20:26Z</time>
      </trkpt>
      <trkpt lat="44.28415" lon="6.16489">
        <ele>1251</ele>
        <time>2012-06-27T10:20:49Z</time>
      </trkpt>
      <trkpt lat="44.28408" lon="6.16494">
        <ele>1251.4</ele>
        <time>2012-06-27T10:20:55Z</time>
      </trkpt>
      <trkpt lat="44.28403" lon="6.16505">
        <ele>1252</ele>
        <time>2012-06-27T10:21:02Z</time>
      </trkpt>
      <trkpt lat="44.28398" lon="6.16513">
        <ele>1252</ele>
        <time>2012-06-27T10:21:09Z</time>
      </trkpt>
      <trkpt lat="44.28392" lon="6.16522">
        <ele>1252.1</ele>
        <time>2012-06-27T10:21:21Z</time>
      </trkpt>
      <trkpt lat="44.28386" lon="6.16531">
        <ele>1254.8</ele>
        <time>2012-06-27T10:21:36Z</time>
      </trkpt>
      <trkpt lat="44.28385" lon="6.16531">
        <ele>1255</ele>
        <time>2012-06-27T10:21:37Z</time>
      </trkpt>
      <trkpt lat="44.28371" lon="6.16538">
        <ele>1255.4</ele>
        <time>2012-06-27T10:21:45Z</time>
      </trkpt>
      <trkpt lat="44.28365" lon="6.16546">
        <ele>1255.6</ele>
        <time>2012-06-27T10:21:51Z</time>
      </trkpt>
      <trkpt lat="44.28362" lon="6.16557">
        <ele>1255.4</ele>
        <time>2012-06-27T10:21:58Z</time>
      </trkpt>
      <trkpt lat="44.28362" lon="6.16567">
        <ele>1254.9</ele>
        <time>2012-06-27T10:22:03Z</time>
      </trkpt>
      <trkpt lat="44.28362" lon="6.16579">
        <ele>1255</ele>
        <time>2012-06-27T10:22:10Z</time>
      </trkpt>
      <trkpt lat="44.28368" lon="6.16587">
        <ele>1255.4</ele>
        <time>2012-06-27T10:22:15Z</time>
      </trkpt>
      <trkpt lat="44.28371" lon="6.16597">
        <ele>1255.9</ele>
        <time>2012-06-27T10:22:22Z</time>
      </trkpt>
      <trkpt lat="44.28374" lon="6.16609">
        <ele>1253.7</ele>
        <time>2012-06-27T10:22:30Z</time>
      </trkpt>
      <trkpt lat="44.28375" lon="6.16621">
        <ele>1252.6</ele>
        <time>2012-06-27T10:23:02Z</time>
      </trkpt>
      <trkpt lat="44.28376" lon="6.16622">
        <ele>1252.6</ele>
        <time>2012-06-27T10:23:03Z</time>
      </trkpt>
      <trkpt lat="44.28361" lon="6.16614">
        <ele>1253.1</ele>
        <time>2012-06-27T10:23:18Z</time>
      </trkpt>
      <trkpt lat="44.28354" lon="6.1661">
        <ele>1253</ele>
        <time>2012-06-27T10:23:22Z</time>
      </trkpt>
      <trkpt lat="44.28361" lon="6.16618">
        <ele>1253.2</ele>
        <time>2012-06-27T10:23:33Z</time>
      </trkpt>
      <trkpt lat="44.28369" lon="6.16623">
        <ele>1252.9</ele>
        <time>2012-06-27T10:23:40Z</time>
      </trkpt>
      <trkpt lat="44.28377" lon="6.16628">
        <ele>1252.6</ele>
        <time>2012-06-27T10:24:07Z</time>
      </trkpt>
      <trkpt lat="44.28378" lon="6.16629">
        <ele>1252.5</ele>
        <time>2012-06-27T10:24:08Z</time>
      </trkpt>
      <trkpt lat="44.28369" lon="6.16622">
        <ele>1253.3</ele>
        <time>2012-06-27T10:25:11Z</time>
      </trkpt>
      <trkpt lat="44.28356" lon="6.16639">
        <ele>1252.1</ele>
        <time>2012-06-27T10:25:58Z</time>
      </trkpt>
      <trkpt lat="44.28354" lon="6.1665">
        <ele>1252.4</ele>
        <time>2012-06-27T10:26:05Z</time>
      </trkpt>
      <trkpt lat="44.28353" lon="6.16662">
        <ele>1253.3</ele>
        <time>2012-06-27T10:26:14Z</time>
      </trkpt>
      <trkpt lat="44.28352" lon="6.16662">
        <ele>1253.2</ele>
        <time>2012-06-27T10:26:15Z</time>
      </trkpt>
      <trkpt lat="44.28348" lon="6.16684">
        <ele>1253.1</ele>
        <time>2012-06-27T10:26:32Z</time>
      </trkpt>
      <trkpt lat="44.28347" lon="6.16695">
        <ele>1252.3</ele>
        <time>2012-06-27T10:26:42Z</time>
      </trkpt>
      <trkpt lat="44.28348" lon="6.16707">
        <ele>1251.6</ele>
        <time>2012-06-27T10:26:51Z</time>
      </trkpt>
      <trkpt lat="44.28349" lon="6.16718">
        <ele>1251.8</ele>
        <time>2012-06-27T10:26:59Z</time>
      </trkpt>
      <trkpt lat="44.28347" lon="6.1673">
        <ele>1251.6</ele>
        <time>2012-06-27T10:27:08Z</time>
      </trkpt>
      <trkpt lat="44.28339" lon="6.16734">
        <ele>1251.5</ele>
        <time>2012-06-27T10:27:16Z</time>
      </trkpt>
      <trkpt lat="44.28338" lon="6.16735">
        <ele>1251.3</ele>
        <time>2012-06-27T10:27:17Z</time>
      </trkpt>
      <trkpt lat="44.28328" lon="6.16727">
        <ele>1251.7</ele>
        <time>2012-06-27T10:27:48Z</time>
      </trkpt>
      <trkpt lat="44.28321" lon="6.1672">
        <ele>1252.5</ele>
        <time>2012-06-27T10:27:57Z</time>
      </trkpt>
      <trkpt lat="44.28312" lon="6.16718">
        <ele>1253.5</ele>
        <time>2012-06-27T10:28:04Z</time>
      </trkpt>
      <trkpt lat="44.28303" lon="6.16717">
        <ele>1255.2</ele>
        <time>2012-06-27T10:28:16Z</time>
      </trkpt>
      <trkpt lat="44.28296" lon="6.16716">
        <ele>1255.2</ele>
        <time>2012-06-27T10:28:21Z</time>
      </trkpt>
      <trkpt lat="44.28293" lon="6.16715">
        <ele>1255.2</ele>
        <time>2012-06-27T10:28:22Z</time>
      </trkpt>
      <trkpt lat="44.28284" lon="6.16734">
        <ele>1257</ele>
        <time>2012-06-27T10:28:44Z</time>
      </trkpt>
      <trkpt lat="44.2828" lon="6.16745">
        <ele>1257.6</ele>
        <time>2012-06-27T10:28:56Z</time>
      </trkpt>
      <trkpt lat="44.28274" lon="6.16754">
        <ele>1260</ele>
        <time>2012-06-27T10:29:14Z</time>
      </trkpt>
      <trkpt lat="44.28266" lon="6.16759">
        <ele>1261.9</ele>
        <time>2012-06-27T10:29:29Z</time>
      </trkpt>
      <trkpt lat="44.28266" lon="6.16761">
        <ele>1262.1</ele>
        <time>2012-06-27T10:29:30Z</time>
      </trkpt>
      <trkpt lat="44.28268" lon="6.16777">
        <ele>1263.7</ele>
        <time>2012-06-27T10:29:51Z</time>
      </trkpt>
      <trkpt lat="44.28269" lon="6.1679">
        <ele>1266.6</ele>
        <time>2012-06-27T10:30:12Z</time>
      </trkpt>
      <trkpt lat="44.28277" lon="6.16794">
        <ele>1266.9</ele>
        <time>2012-06-27T10:30:25Z</time>
      </trkpt>
      <trkpt lat="44.28284" lon="6.168">
        <ele>1268.1</ele>
        <time>2012-06-27T10:30:37Z</time>
      </trkpt>
      <trkpt lat="44.28285" lon="6.16801">
        <ele>1268.3</ele>
        <time>2012-06-27T10:30:38Z</time>
      </trkpt>
      <trkpt lat="44.28286" lon="6.16824">
        <ele>1276.6</ele>
        <time>2012-06-27T10:31:32Z</time>
      </trkpt>
      <trkpt lat="44.28281" lon="6.16833">
        <ele>1278</ele>
        <time>2012-06-27T10:32:05Z</time>
      </trkpt>
      <trkpt lat="44.2828" lon="6.16834">
        <ele>1278.2</ele>
        <time>2012-06-27T10:32:06Z</time>
      </trkpt>
      <trkpt lat="44.28272" lon="6.16852">
        <ele>1279.3</ele>
        <time>2012-06-27T10:32:27Z</time>
      </trkpt>
      <trkpt lat="44.28269" lon="6.16863">
        <ele>1281</ele>
        <time>2012-06-27T10:32:43Z</time>
      </trkpt>
      <trkpt lat="44.28265" lon="6.16875">
        <ele>1283.8</ele>
        <time>2012-06-27T10:33:01Z</time>
      </trkpt>
      <trkpt lat="44.28261" lon="6.16885">
        <ele>1286.1</ele>
        <time>2012-06-27T10:33:14Z</time>
      </trkpt>
      <trkpt lat="44.28261" lon="6.16886">
        <ele>1286.1</ele>
        <time>2012-06-27T10:33:15Z</time>
      </trkpt>
      <trkpt lat="44.2826" lon="6.1691">
        <ele>1289.8</ele>
        <time>2012-06-27T10:33:45Z</time>
      </trkpt>
      <trkpt lat="44.28257" lon="6.16921">
        <ele>1292</ele>
        <time>2012-06-27T10:34:00Z</time>
      </trkpt>
      <trkpt lat="44.28253" lon="6.16931">
        <ele>1293.7</ele>
        <time>2012-06-27T10:34:12Z</time>
      </trkpt>
      <trkpt lat="44.28253" lon="6.16943">
        <ele>1294.9</ele>
        <time>2012-06-27T10:34:22Z</time>
      </trkpt>
      <trkpt lat="44.28253" lon="6.16944">
        <ele>1294.9</ele>
        <time>2012-06-27T10:34:23Z</time>
      </trkpt>
      <trkpt lat="44.28246" lon="6.16964">
        <ele>1296.4</ele>
        <time>2012-06-27T10:34:44Z</time>
      </trkpt>
      <trkpt lat="44.28246" lon="6.16977">
        <ele>1298.1</ele>
        <time>2012-06-27T10:34:56Z</time>
      </trkpt>
      <trkpt lat="44.28242" lon="6.16987">
        <ele>1300.6</ele>
        <time>2012-06-27T10:35:16Z</time>
      </trkpt>
      <trkpt lat="44.28237" lon="6.16998">
        <ele>1301.9</ele>
        <time>2012-06-27T10:35:24Z</time>
      </trkpt>
      <trkpt lat="44.28237" lon="6.16999">
        <ele>1301.8</ele>
        <time>2012-06-27T10:35:25Z</time>
      </trkpt>
      <trkpt lat="44.28233" lon="6.1702">
        <ele>1304.3</ele>
        <time>2012-06-27T10:35:45Z</time>
      </trkpt>
      <trkpt lat="44.2823" lon="6.17032">
        <ele>1304.8</ele>
        <time>2012-06-27T10:35:54Z</time>
      </trkpt>
      <trkpt lat="44.2823" lon="6.17043">
        <ele>1305.9</ele>
        <time>2012-06-27T10:36:05Z</time>
      </trkpt>
      <trkpt lat="44.28225" lon="6.17053">
        <ele>1307</ele>
        <time>2012-06-27T10:36:16Z</time>
      </trkpt>
      <trkpt lat="44.28221" lon="6.17064">
        <ele>1308.7</ele>
        <time>2012-06-27T10:36:29Z</time>
      </trkpt>
      <trkpt lat="44.28221" lon="6.17065">
        <ele>1308.7</ele>
        <time>2012-06-27T10:36:30Z</time>
      </trkpt>
      <trkpt lat="44.28219" lon="6.17088">
        <ele>1311.3</ele>
        <time>2012-06-27T10:36:51Z</time>
      </trkpt>
      <trkpt lat="44.2822" lon="6.171">
        <ele>1312.3</ele>
        <time>2012-06-27T10:37:01Z</time>
      </trkpt>
      <trkpt lat="44.28226" lon="6.17108">
        <ele>1317.9</ele>
        <time>2012-06-27T10:37:42Z</time>
      </trkpt>
      <trkpt lat="44.28226" lon="6.17108">
        <ele>1318.1</ele>
        <time>2012-06-27T10:37:43Z</time>
      </trkpt>
      <trkpt lat="44.28228" lon="6.17131">
        <ele>1323</ele>
        <time>2012-06-27T10:38:20Z</time>
      </trkpt>
      <trkpt lat="44.28226" lon="6.17143">
        <ele>1323.6</ele>
        <time>2012-06-27T10:38:34Z</time>
      </trkpt>
      <trkpt lat="44.28226" lon="6.17155">
        <ele>1325.2</ele>
        <time>2012-06-27T10:38:45Z</time>
      </trkpt>
      <trkpt lat="44.28227" lon="6.17156">
        <ele>1325.6</ele>
        <time>2012-06-27T10:38:46Z</time>
      </trkpt>
      <trkpt lat="44.28223" lon="6.17168">
        <ele>1326.8</ele>
        <time>2012-06-27T10:40:21Z</time>
      </trkpt>
      <trkpt lat="44.28224" lon="6.1717">
        <ele>1326.8</ele>
        <time>2012-06-27T10:40:22Z</time>
      </trkpt>
      <trkpt lat="44.28213" lon="6.17149">
        <ele>1329</ele>
        <time>2012-06-27T10:41:21Z</time>
      </trkpt>
      <trkpt lat="44.28206" lon="6.1714">
        <ele>1329.5</ele>
        <time>2012-06-27T10:41:28Z</time>
      </trkpt>
      <trkpt lat="44.28206" lon="6.1714">
        <ele>1329.7</ele>
        <time>2012-06-27T10:41:29Z</time>
      </trkpt>
      <trkpt lat="44.28199" lon="6.17156">
        <ele>1332.4</ele>
        <time>2012-06-27T10:41:58Z</time>
      </trkpt>
      <trkpt lat="44.28193" lon="6.17163">
        <ele>1333.4</ele>
        <time>2012-06-27T10:42:06Z</time>
      </trkpt>
      <trkpt lat="44.28186" lon="6.17169">
        <ele>1334.8</ele>
        <time>2012-06-27T10:42:26Z</time>
      </trkpt>
      <trkpt lat="44.28177" lon="6.17171">
        <ele>1335.7</ele>
        <time>2012-06-27T10:42:36Z</time>
      </trkpt>
      <trkpt lat="44.28177" lon="6.17172">
        <ele>1335.7</ele>
        <time>2012-06-27T10:42:37Z</time>
      </trkpt>
      <trkpt lat="44.2816" lon="6.1717">
        <ele>1339.3</ele>
        <time>2012-06-27T10:43:04Z</time>
      </trkpt>
      <trkpt lat="44.28155" lon="6.17178">
        <ele>1339.9</ele>
        <time>2012-06-27T10:43:11Z</time>
      </trkpt>
      <trkpt lat="44.28151" lon="6.17189">
        <ele>1340.4</ele>
        <time>2012-06-27T10:43:18Z</time>
      </trkpt>
      <trkpt lat="44.28146" lon="6.17199">
        <ele>1340.4</ele>
        <time>2012-06-27T10:43:28Z</time>
      </trkpt>
      <trkpt lat="44.28144" lon="6.17211">
        <ele>1341.8</ele>
        <time>2012-06-27T10:43:38Z</time>
      </trkpt>
      <trkpt lat="44.28144" lon="6.17212">
        <ele>1341.9</ele>
        <time>2012-06-27T10:43:39Z</time>
      </trkpt>
      <trkpt lat="44.2813" lon="6.17222">
        <ele>1345.6</ele>
        <time>2012-06-27T10:44:04Z</time>
      </trkpt>
      <trkpt lat="44.28123" lon="6.17228">
        <ele>1346.2</ele>
        <time>2012-06-27T10:44:15Z</time>
      </trkpt>
      <trkpt lat="44.28119" lon="6.17239">
        <ele>1346.3</ele>
        <time>2012-06-27T10:44:22Z</time>
      </trkpt>
      <trkpt lat="44.28115" lon="6.17248">
        <ele>1345.9</ele>
        <time>2012-06-27T10:44:30Z</time>
      </trkpt>
      <trkpt lat="44.28114" lon="6.1726">
        <ele>1345.2</ele>
        <time>2012-06-27T10:44:37Z</time>
      </trkpt>
      <trkpt lat="44.28112" lon="6.17272">
        <ele>1346.1</ele>
        <time>2012-06-27T10:44:48Z</time>
      </trkpt>
      <trkpt lat="44.28112" lon="6.17273">
        <ele>1346.2</ele>
        <time>2012-06-27T10:44:49Z</time>
      </trkpt>
      <trkpt lat="44.28109" lon="6.17295">
        <ele>1348</ele>
        <time>2012-06-27T10:45:08Z</time>
      </trkpt>
      <trkpt lat="44.28109" lon="6.17307">
        <ele>1347.4</ele>
        <time>2012-06-27T10:45:17Z</time>
      </trkpt>
      <trkpt lat="44.28106" lon="6.17318">
        <ele>1347.5</ele>
        <time>2012-06-27T10:45:25Z</time>
      </trkpt>
      <trkpt lat="44.28105" lon="6.17328">
        <ele>1347.4</ele>
        <time>2012-06-27T10:45:31Z</time>
      </trkpt>
      <trkpt lat="44.28105" lon="6.17341">
        <ele>1347.8</ele>
        <time>2012-06-27T10:45:38Z</time>
      </trkpt>
      <trkpt lat="44.28101" lon="6.17352">
        <ele>1346.5</ele>
        <time>2012-06-27T10:45:50Z</time>
      </trkpt>
      <trkpt lat="44.28101" lon="6.17353">
        <ele>1346.3</ele>
        <time>2012-06-27T10:45:51Z</time>
      </trkpt>
      <trkpt lat="44.28099" lon="6.17375">
        <ele>1344.8</ele>
        <time>2012-06-27T10:46:07Z</time>
      </trkpt>
      <trkpt lat="44.28099" lon="6.17387">
        <ele>1344.1</ele>
        <time>2012-06-27T10:46:15Z</time>
      </trkpt>
      <trkpt lat="44.28096" lon="6.17399">
        <ele>1344</ele>
        <time>2012-06-27T10:46:26Z</time>
      </trkpt>
      <trkpt lat="44.28093" lon="6.17411">
        <ele>1344.8</ele>
        <time>2012-06-27T10:46:34Z</time>
      </trkpt>
      <trkpt lat="44.28095" lon="6.17422">
        <ele>1345.5</ele>
        <time>2012-06-27T10:46:48Z</time>
      </trkpt>
      <trkpt lat="44.28088" lon="6.17429">
        <ele>1348.2</ele>
        <time>2012-06-27T10:47:12Z</time>
      </trkpt>
      <trkpt lat="44.28087" lon="6.17429">
        <ele>1348.3</ele>
        <time>2012-06-27T10:47:13Z</time>
      </trkpt>
      <trkpt lat="44.28087" lon="6.17445">
        <ele>1352</ele>
        <time>2012-06-27T10:47:55Z</time>
      </trkpt>
      <trkpt lat="44.28095" lon="6.17446">
        <ele>1353.2</ele>
        <time>2012-06-27T10:48:02Z</time>
      </trkpt>
      <trkpt lat="44.28102" lon="6.17454">
        <ele>1354.1</ele>
        <time>2012-06-27T10:48:26Z</time>
      </trkpt>
      <trkpt lat="44.28102" lon="6.17455">
        <ele>1354.1</ele>
        <time>2012-06-27T10:48:27Z</time>
      </trkpt>
      <trkpt lat="44.28112" lon="6.17465">
        <ele>1357.9</ele>
        <time>2012-06-27T10:48:57Z</time>
      </trkpt>
      <trkpt lat="44.28116" lon="6.17455">
        <ele>1360.2</ele>
        <time>2012-06-27T10:49:18Z</time>
      </trkpt>
      <trkpt lat="44.28121" lon="6.17445">
        <ele>1363.1</ele>
        <time>2012-06-27T10:49:41Z</time>
      </trkpt>
      <trkpt lat="44.28122" lon="6.17444">
        <ele>1363.3</ele>
        <time>2012-06-27T10:49:42Z</time>
      </trkpt>
      <trkpt lat="44.28126" lon="6.17468">
        <ele>1369.5</ele>
        <time>2012-06-27T10:50:42Z</time>
      </trkpt>
      <trkpt lat="44.28127" lon="6.17469">
        <ele>1369.7</ele>
        <time>2012-06-27T10:50:43Z</time>
      </trkpt>
      <trkpt lat="44.28121" lon="6.1749">
        <ele>1372.7</ele>
        <time>2012-06-27T10:51:20Z</time>
      </trkpt>
      <trkpt lat="44.28113" lon="6.1749">
        <ele>1376</ele>
        <time>2012-06-27T10:51:56Z</time>
      </trkpt>
      <trkpt lat="44.28112" lon="6.1749">
        <ele>1376</ele>
        <time>2012-06-27T10:51:57Z</time>
      </trkpt>
      <trkpt lat="44.2811" lon="6.17511">
        <ele>1377.7</ele>
        <time>2012-06-27T10:52:13Z</time>
      </trkpt>
      <trkpt lat="44.28111" lon="6.17523">
        <ele>1379</ele>
        <time>2012-06-27T10:52:24Z</time>
      </trkpt>
      <trkpt lat="44.28119" lon="6.17523">
        <ele>1379.9</ele>
        <time>2012-06-27T10:53:19Z</time>
      </trkpt>
      <trkpt lat="44.28121" lon="6.17523">
        <ele>1380</ele>
        <time>2012-06-27T10:53:20Z</time>
      </trkpt>
      <trkpt lat="44.28118" lon="6.17536">
        <ele>1381</ele>
        <time>2012-06-27T10:54:21Z</time>
      </trkpt>
      <trkpt lat="44.2813" lon="6.17543">
        <ele>1384.6</ele>
        <time>2012-06-27T10:54:50Z</time>
      </trkpt>
      <trkpt lat="44.28124" lon="6.17552">
        <ele>1388.5</ele>
        <time>2012-06-27T10:55:15Z</time>
      </trkpt>
      <trkpt lat="44.28128" lon="6.17564">
        <ele>1390.1</ele>
        <time>2012-06-27T10:55:34Z</time>
      </trkpt>
      <trkpt lat="44.28128" lon="6.17564">
        <ele>1390.2</ele>
        <time>2012-06-27T10:55:35Z</time>
      </trkpt>
      <trkpt lat="44.28142" lon="6.17557">
        <ele>1392.7</ele>
        <time>2012-06-27T10:56:01Z</time>
      </trkpt>
      <trkpt lat="44.28138" lon="6.17568">
        <ele>1397.4</ele>
        <time>2012-06-27T10:56:50Z</time>
      </trkpt>
      <trkpt lat="44.28138" lon="6.17568">
        <ele>1397.6</ele>
        <time>2012-06-27T10:56:51Z</time>
      </trkpt>
      <trkpt lat="44.28155" lon="6.17566">
        <ele>1402.4</ele>
        <time>2012-06-27T10:58:03Z</time>
      </trkpt>
      <trkpt lat="44.28156" lon="6.17566">
        <ele>1402.5</ele>
        <time>2012-06-27T10:58:04Z</time>
      </trkpt>
      <trkpt lat="44.28149" lon="6.17576">
        <ele>1404.4</ele>
        <time>2012-06-27T10:59:07Z</time>
      </trkpt>
      <trkpt lat="44.28154" lon="6.17596">
        <ele>1406.9</ele>
        <time>2012-06-27T10:59:30Z</time>
      </trkpt>
      <trkpt lat="44.28162" lon="6.17599">
        <ele>1409.2</ele>
        <time>2012-06-27T11:00:00Z</time>
      </trkpt>
      <trkpt lat="44.28168" lon="6.17592">
        <ele>1409.6</ele>
        <time>2012-06-27T11:00:14Z</time>
      </trkpt>
      <trkpt lat="44.28169" lon="6.17591">
        <ele>1409.7</ele>
        <time>2012-06-27T11:00:15Z</time>
      </trkpt>
      <trkpt lat="44.28172" lon="6.17593">
        <ele>1417</ele>
        <time>2012-06-27T11:01:19Z</time>
      </trkpt>
      <trkpt lat="44.28172" lon="6.17594">
        <ele>1417.2</ele>
        <time>2012-06-27T11:01:20Z</time>
      </trkpt>
      <trkpt lat="44.28187" lon="6.17589">
        <ele>1420.2</ele>
        <time>2012-06-27T11:01:49Z</time>
      </trkpt>
      <trkpt lat="44.28192" lon="6.17579">
        <ele>1421.2</ele>
        <time>2012-06-27T11:02:02Z</time>
      </trkpt>
      <trkpt lat="44.28197" lon="6.17589">
        <ele>1429.6</ele>
        <time>2012-06-27T11:03:24Z</time>
      </trkpt>
      <trkpt lat="44.28197" lon="6.17589">
        <ele>1429.8</ele>
        <time>2012-06-27T11:03:25Z</time>
      </trkpt>
      <trkpt lat="44.28192" lon="6.17598">
        <ele>1430.3</ele>
        <time>2012-06-27T11:05:53Z</time>
      </trkpt>
      <trkpt lat="44.28199" lon="6.1761">
        <ele>1433.3</ele>
        <time>2012-06-27T11:06:21Z</time>
      </trkpt>
      <trkpt lat="44.28202" lon="6.17621">
        <ele>1436.2</ele>
        <time>2012-06-27T11:06:41Z</time>
      </trkpt>
      <trkpt lat="44.28211" lon="6.17621">
        <ele>1439.1</ele>
        <time>2012-06-27T11:07:09Z</time>
      </trkpt>
      <trkpt lat="44.28212" lon="6.1762">
        <ele>1439.3</ele>
        <time>2012-06-27T11:07:10Z</time>
      </trkpt>
      <trkpt lat="44.28222" lon="6.17603">
        <ele>1440.6</ele>
        <time>2012-06-27T11:07:31Z</time>
      </trkpt>
      <trkpt lat="44.28213" lon="6.17608">
        <ele>1444.7</ele>
        <time>2012-06-27T11:08:19Z</time>
      </trkpt>
      <trkpt lat="44.28213" lon="6.17609">
        <ele>1444.8</ele>
        <time>2012-06-27T11:08:20Z</time>
      </trkpt>
      <trkpt lat="44.28217" lon="6.17632">
        <ele>1449.3</ele>
        <time>2012-06-27T11:09:01Z</time>
      </trkpt>
      <trkpt lat="44.28221" lon="6.17643">
        <ele>1452.2</ele>
        <time>2012-06-27T11:09:26Z</time>
      </trkpt>
      <trkpt lat="44.28221" lon="6.17644">
        <ele>1452.2</ele>
        <time>2012-06-27T11:09:27Z</time>
      </trkpt>
      <trkpt lat="44.28226" lon="6.17666">
        <ele>1456.4</ele>
        <time>2012-06-27T11:10:06Z</time>
      </trkpt>
      <trkpt lat="44.28231" lon="6.17677">
        <ele>1461.3</ele>
        <time>2012-06-27T11:11:05Z</time>
      </trkpt>
      <trkpt lat="44.28231" lon="6.17677">
        <ele>1461.4</ele>
        <time>2012-06-27T11:11:06Z</time>
      </trkpt>
      <trkpt lat="44.28234" lon="6.17697">
        <ele>1467.9</ele>
        <time>2012-06-27T11:15:22Z</time>
      </trkpt>
      <trkpt lat="44.28234" lon="6.17697">
        <ele>1468.1</ele>
        <time>2012-06-27T11:15:23Z</time>
      </trkpt>
      <trkpt lat="44.28245" lon="6.17686">
        <ele>1474.1</ele>
        <time>2012-06-27T11:16:13Z</time>
      </trkpt>
      <trkpt lat="44.28251" lon="6.17678">
        <ele>1475.5</ele>
        <time>2012-06-27T11:16:23Z</time>
      </trkpt>
      <trkpt lat="44.28246" lon="6.17688">
        <ele>1476.2</ele>
        <time>2012-06-27T11:17:06Z</time>
      </trkpt>
      <trkpt lat="44.28247" lon="6.17689">
        <ele>1476.4</ele>
        <time>2012-06-27T11:17:07Z</time>
      </trkpt>
      <trkpt lat="44.28238" lon="6.1771">
        <ele>1478.5</ele>
        <time>2012-06-27T11:17:47Z</time>
      </trkpt>
      <trkpt lat="44.28236" lon="6.17722">
        <ele>1480.9</ele>
        <time>2012-06-27T11:18:08Z</time>
      </trkpt>
      <trkpt lat="44.28236" lon="6.17723">
        <ele>1481.1</ele>
        <time>2012-06-27T11:18:09Z</time>
      </trkpt>
      <trkpt lat="44.28229" lon="6.17744">
        <ele>1488.8</ele>
        <time>2012-06-27T11:19:26Z</time>
      </trkpt>
      <trkpt lat="44.28229" lon="6.17745">
        <ele>1488.8</ele>
        <time>2012-06-27T11:19:27Z</time>
      </trkpt>
      <trkpt lat="44.28232" lon="6.17742">
        <ele>1488.6</ele>
        <time>2012-06-27T11:20:22Z</time>
      </trkpt>
      <trkpt lat="44.28225" lon="6.17733">
        <ele>1488.8</ele>
        <time>2012-06-27T11:20:35Z</time>
      </trkpt>
      <trkpt lat="44.28225" lon="6.17733">
        <ele>1488.7</ele>
        <time>2012-06-27T11:20:36Z</time>
      </trkpt>
      <trkpt lat="44.28236" lon="6.17749">
        <ele>1488.9</ele>
        <time>2012-06-27T11:21:55Z</time>
      </trkpt>
      <trkpt lat="44.28237" lon="6.17751">
        <ele>1489</ele>
        <time>2012-06-27T11:21:56Z</time>
      </trkpt>
      <trkpt lat="44.28235" lon="6.17753">
        <ele>1490</ele>
        <time>2012-06-27T11:22:42Z</time>
      </trkpt>
      <trkpt lat="44.28227" lon="6.17759">
        <ele>1490.7</ele>
        <time>2012-06-27T11:22:53Z</time>
      </trkpt>
      <trkpt lat="44.2822" lon="6.17767">
        <ele>1492.1</ele>
        <time>2012-06-27T11:23:15Z</time>
      </trkpt>
      <trkpt lat="44.28221" lon="6.17769">
        <ele>1492</ele>
        <time>2012-06-27T11:23:16Z</time>
      </trkpt>
      <trkpt lat="44.28222" lon="6.17782">
        <ele>1497.1</ele>
        <time>2012-06-27T11:24:00Z</time>
      </trkpt>
      <trkpt lat="44.28219" lon="6.17794">
        <ele>1502.5</ele>
        <time>2012-06-27T11:24:50Z</time>
      </trkpt>
      <trkpt lat="44.28218" lon="6.17794">
        <ele>1502.5</ele>
        <time>2012-06-27T11:24:51Z</time>
      </trkpt>
      <trkpt lat="44.28204" lon="6.17806">
        <ele>1504.2</ele>
        <time>2012-06-27T11:25:12Z</time>
      </trkpt>
      <trkpt lat="44.282" lon="6.17817">
        <ele>1505.7</ele>
        <time>2012-06-27T11:25:27Z</time>
      </trkpt>
      <trkpt lat="44.28195" lon="6.17827">
        <ele>1507.9</ele>
        <time>2012-06-27T11:25:50Z</time>
      </trkpt>
      <trkpt lat="44.28186" lon="6.1783">
        <ele>1509.7</ele>
        <time>2012-06-27T11:26:11Z</time>
      </trkpt>
      <trkpt lat="44.28186" lon="6.17829">
        <ele>1509.7</ele>
        <time>2012-06-27T11:26:12Z</time>
      </trkpt>
      <trkpt lat="44.28173" lon="6.17844">
        <ele>1514.4</ele>
        <time>2012-06-27T11:26:49Z</time>
      </trkpt>
      <trkpt lat="44.28173" lon="6.17866">
        <ele>1516</ele>
        <time>2012-06-27T11:27:42Z</time>
      </trkpt>
      <trkpt lat="44.28168" lon="6.17854">
        <ele>1516</ele>
        <time>2012-06-27T11:27:50Z</time>
      </trkpt>
      <trkpt lat="44.28173" lon="6.17845">
        <ele>1516</ele>
        <time>2012-06-27T11:28:08Z</time>
      </trkpt>
      <trkpt lat="44.28169" lon="6.1786">
        <ele>1516</ele>
        <time>2012-06-27T11:28:34Z</time>
      </trkpt>
      <trkpt lat="44.28166" lon="6.17872">
        <ele>1524.7</ele>
        <time>2012-06-27T11:30:21Z</time>
      </trkpt>
      <trkpt lat="44.28167" lon="6.17873">
        <ele>1524.8</ele>
        <time>2012-06-27T11:30:22Z</time>
      </trkpt>
      <trkpt lat="44.28159" lon="6.17889">
        <ele>1528</ele>
        <time>2012-06-27T11:31:02Z</time>
      </trkpt>
      <trkpt lat="44.28153" lon="6.17881">
        <ele>1531</ele>
        <time>2012-06-27T11:31:28Z</time>
      </trkpt>
      <trkpt lat="44.28153" lon="6.1788">
        <ele>1530.8</ele>
        <time>2012-06-27T11:31:29Z</time>
      </trkpt>
      <trkpt lat="44.28148" lon="6.17904">
        <ele>1534.8</ele>
        <time>2012-06-27T11:32:01Z</time>
      </trkpt>
      <trkpt lat="44.28152" lon="6.17915">
        <ele>1536.1</ele>
        <time>2012-06-27T11:32:17Z</time>
      </trkpt>
      <trkpt lat="44.28159" lon="6.17922">
        <ele>1536.1</ele>
        <time>2012-06-27T11:32:33Z</time>
      </trkpt>
      <trkpt lat="44.28161" lon="6.17922">
        <ele>1536.1</ele>
        <time>2012-06-27T11:32:34Z</time>
      </trkpt>
      <trkpt lat="44.28176" lon="6.17921">
        <ele>1535.7</ele>
        <time>2012-06-27T11:32:55Z</time>
      </trkpt>
      <trkpt lat="44.28184" lon="6.17918">
        <ele>1536.5</ele>
        <time>2012-06-27T11:33:04Z</time>
      </trkpt>
      <trkpt lat="44.28193" lon="6.17923">
        <ele>1536.7</ele>
        <time>2012-06-27T11:33:15Z</time>
      </trkpt>
      <trkpt lat="44.28201" lon="6.17923">
        <ele>1537.5</ele>
        <time>2012-06-27T11:33:26Z</time>
      </trkpt>
      <trkpt lat="44.28209" lon="6.17919">
        <ele>1538.2</ele>
        <time>2012-06-27T11:33:39Z</time>
      </trkpt>
      <trkpt lat="44.2821" lon="6.17918">
        <ele>1538.3</ele>
        <time>2012-06-27T11:33:40Z</time>
      </trkpt>
      <trkpt lat="44.28218" lon="6.17904">
        <ele>1540.1</ele>
        <time>2012-06-27T11:34:11Z</time>
      </trkpt>
      <trkpt lat="44.28222" lon="6.17893">
        <ele>1539.5</ele>
        <time>2012-06-27T11:34:24Z</time>
      </trkpt>
      <trkpt lat="44.28223" lon="6.17906">
        <ele>1539.8</ele>
        <time>2012-06-27T11:35:48Z</time>
      </trkpt>
      <trkpt lat="44.28222" lon="6.17907">
        <ele>1539.7</ele>
        <time>2012-06-27T11:35:49Z</time>
      </trkpt>
      <trkpt lat="44.28214" lon="6.17927">
        <ele>1538.6</ele>
        <time>2012-06-27T11:36:13Z</time>
      </trkpt>
      <trkpt lat="44.28221" lon="6.1792">
        <ele>1539.3</ele>
        <time>2012-06-27T11:36:55Z</time>
      </trkpt>
      <trkpt lat="44.28222" lon="6.17919">
        <ele>1539.2</ele>
        <time>2012-06-27T11:36:56Z</time>
      </trkpt>
      <trkpt lat="44.28224" lon="6.17897">
        <ele>1540</ele>
        <time>2012-06-27T11:37:21Z</time>
      </trkpt>
      <trkpt lat="44.2822" lon="6.17909">
        <ele>1539</ele>
        <time>2012-06-27T11:39:36Z</time>
      </trkpt>
      <trkpt lat="44.28219" lon="6.17909">
        <ele>1539.4</ele>
        <time>2012-06-27T11:39:40Z</time>
      </trkpt>
      <trkpt lat="44.28222" lon="6.17897">
        <ele>1540</ele>
        <time>2012-06-27T11:40:46Z</time>
      </trkpt>
      <trkpt lat="44.2822" lon="6.17911">
        <ele>1540.4</ele>
        <time>2012-06-27T11:43:54Z</time>
      </trkpt>
      <trkpt lat="44.28226" lon="6.17884">
        <ele>1539.9</ele>
        <time>2012-06-27T11:44:06Z</time>
      </trkpt>
      <trkpt lat="44.28229" lon="6.17869">
        <ele>1540</ele>
        <time>2012-06-27T11:44:11Z</time>
      </trkpt>
      <trkpt lat="44.28232" lon="6.17858">
        <ele>1540</ele>
        <time>2012-06-27T11:44:16Z</time>
      </trkpt>
      <trkpt lat="44.28234" lon="6.17884">
        <ele>1540</ele>
        <time>2012-06-27T11:44:42Z</time>
      </trkpt>
      <trkpt lat="44.28224" lon="6.17907">
        <ele>1540</ele>
        <time>2012-06-27T11:45:05Z</time>
      </trkpt>
      <trkpt lat="44.28226" lon="6.17889">
        <ele>1540.2</ele>
        <time>2012-06-27T11:45:11Z</time>
      </trkpt>
      <trkpt lat="44.28217" lon="6.17888">
        <ele>1540.6</ele>
        <time>2012-06-27T11:47:08Z</time>
      </trkpt>
      <trkpt lat="44.28216" lon="6.17887">
        <ele>1540.6</ele>
        <time>2012-06-27T11:47:09Z</time>
      </trkpt>
      <trkpt lat="44.28222" lon="6.17898">
        <ele>1541.1</ele>
        <time>2012-06-27T11:48:24Z</time>
      </trkpt>
      <trkpt lat="44.28225" lon="6.17884">
        <ele>1540.2</ele>
        <time>2012-06-27T11:49:47Z</time>
      </trkpt>
      <trkpt lat="44.2822" lon="6.17897">
        <ele>1541.2</ele>
        <time>2012-06-27T11:52:11Z</time>
      </trkpt>
      <trkpt lat="44.28223" lon="6.17873">
        <ele>1540</ele>
        <time>2012-06-27T11:53:00Z</time>
      </trkpt>
      <trkpt lat="44.2823" lon="6.17888">
        <ele>1540</ele>
        <time>2012-06-27T11:53:26Z</time>
      </trkpt>
      <trkpt lat="44.28233" lon="6.17887">
        <ele>1540.4</ele>
        <time>2012-06-27T11:53:28Z</time>
      </trkpt>
      <trkpt lat="44.28218" lon="6.1789">
        <ele>1540</ele>
        <time>2012-06-27T11:54:14Z</time>
      </trkpt>
      <trkpt lat="44.28225" lon="6.17897">
        <ele>1540.3</ele>
        <time>2012-06-27T11:57:43Z</time>
      </trkpt>
      <trkpt lat="44.28226" lon="6.17897">
        <ele>1540.1</ele>
        <time>2012-06-27T11:57:44Z</time>
      </trkpt>
      <trkpt lat="44.28225" lon="6.17884">
        <ele>1539.8</ele>
        <time>2012-06-27T12:00:24Z</time>
      </trkpt>
      <trkpt lat="44.28221" lon="6.17896">
        <ele>1541.5</ele>
        <time>2012-06-27T12:03:43Z</time>
      </trkpt>
      <trkpt lat="44.28229" lon="6.17889">
        <ele>1539.7</ele>
        <time>2012-06-27T12:12:45Z</time>
      </trkpt>
      <trkpt lat="44.28229" lon="6.17894">
        <ele>1539.7</ele>
        <time>2012-06-27T12:14:11Z</time>
      </trkpt>
      <trkpt lat="44.28229" lon="6.17894">
        <ele>1539.7</ele>
        <time>2012-06-27T12:14:12Z</time>
      </trkpt>
      <trkpt lat="44.2822" lon="6.17893">
        <ele>1539.2</ele>
        <time>2012-06-27T12:16:50Z</time>
      </trkpt>
      <trkpt lat="44.28228" lon="6.17888">
        <ele>1539.2</ele>
        <time>2012-06-27T12:19:19Z</time>
      </trkpt>
      <trkpt lat="44.28221" lon="6.17896">
        <ele>1541.2</ele>
        <time>2012-06-27T12:21:26Z</time>
      </trkpt>
      <trkpt lat="44.28215" lon="6.17886">
        <ele>1540.7</ele>
        <time>2012-06-27T12:23:40Z</time>
      </trkpt>
      <trkpt lat="44.2821" lon="6.17897">
        <ele>1539.6</ele>
        <time>2012-06-27T12:25:39Z</time>
      </trkpt>
      <trkpt lat="44.28194" lon="6.17905">
        <ele>1538.4</ele>
        <time>2012-06-27T12:26:02Z</time>
      </trkpt>
      <trkpt lat="44.28185" lon="6.17903">
        <ele>1537.7</ele>
        <time>2012-06-27T12:26:16Z</time>
      </trkpt>
      <trkpt lat="44.28177" lon="6.17901">
        <ele>1537.7</ele>
        <time>2012-06-27T12:26:27Z</time>
      </trkpt>
      <trkpt lat="44.28181" lon="6.1791">
        <ele>1537.5</ele>
        <time>2012-06-27T12:27:25Z</time>
      </trkpt>
      <trkpt lat="44.28182" lon="6.17911">
        <ele>1537.3</ele>
        <time>2012-06-27T12:27:26Z</time>
      </trkpt>
      <trkpt lat="44.28197" lon="6.17919">
        <ele>1538.4</ele>
        <time>2012-06-27T12:27:47Z</time>
      </trkpt>
      <trkpt lat="44.28206" lon="6.17923">
        <ele>1538.9</ele>
        <time>2012-06-27T12:28:00Z</time>
      </trkpt>
      <trkpt lat="44.28213" lon="6.17921">
        <ele>1539.4</ele>
        <time>2012-06-27T12:28:22Z</time>
      </trkpt>
      <trkpt lat="44.28219" lon="6.17913">
        <ele>1540.3</ele>
        <time>2012-06-27T12:28:29Z</time>
      </trkpt>
      <trkpt lat="44.2822" lon="6.17911">
        <ele>1540.3</ele>
        <time>2012-06-27T12:28:30Z</time>
      </trkpt>
      <trkpt lat="44.28215" lon="6.17911">
        <ele>1539.3</ele>
        <time>2012-06-27T12:31:58Z</time>
      </trkpt>
      <trkpt lat="44.28215" lon="6.17912">
        <ele>1538.7</ele>
        <time>2012-06-27T12:31:59Z</time>
      </trkpt>
      <trkpt lat="44.28218" lon="6.17916">
        <ele>1540.6</ele>
        <time>2012-06-27T12:35:17Z</time>
      </trkpt>
      <trkpt lat="44.28218" lon="6.17916">
        <ele>1540.6</ele>
        <time>2012-06-27T12:35:18Z</time>
      </trkpt>
      <trkpt lat="44.28219" lon="6.17903">
        <ele>1542.2</ele>
        <time>2012-06-27T12:39:51Z</time>
      </trkpt>
      <trkpt lat="44.2822" lon="6.17903">
        <ele>1542.2</ele>
        <time>2012-06-27T12:39:52Z</time>
      </trkpt>
      <trkpt lat="44.28236" lon="6.17905">
        <ele>1544.2</ele>
        <time>2012-06-27T12:40:21Z</time>
      </trkpt>
      <trkpt lat="44.28244" lon="6.17911">
        <ele>1544.8</ele>
        <time>2012-06-27T12:40:35Z</time>
      </trkpt>
      <trkpt lat="44.28253" lon="6.17909">
        <ele>1545.3</ele>
        <time>2012-06-27T12:40:53Z</time>
      </trkpt>
      <trkpt lat="44.28254" lon="6.17909">
        <ele>1545.7</ele>
        <time>2012-06-27T12:40:54Z</time>
      </trkpt>
      <trkpt lat="44.28268" lon="6.17896">
        <ele>1549.1</ele>
        <time>2012-06-27T12:41:23Z</time>
      </trkpt>
      <trkpt lat="44.28275" lon="6.17888">
        <ele>1549.3</ele>
        <time>2012-06-27T12:41:40Z</time>
      </trkpt>
      <trkpt lat="44.2828" lon="6.17879">
        <ele>1551</ele>
        <time>2012-06-27T12:41:52Z</time>
      </trkpt>
      <trkpt lat="44.28286" lon="6.1787">
        <ele>1552.1</ele>
        <time>2012-06-27T12:42:05Z</time>
      </trkpt>
      <trkpt lat="44.28286" lon="6.17869">
        <ele>1552</ele>
        <time>2012-06-27T12:42:06Z</time>
      </trkpt>
      <trkpt lat="44.28298" lon="6.17854">
        <ele>1554.1</ele>
        <time>2012-06-27T12:42:33Z</time>
      </trkpt>
      <trkpt lat="44.28303" lon="6.17845">
        <ele>1555.6</ele>
        <time>2012-06-27T12:42:46Z</time>
      </trkpt>
      <trkpt lat="44.28309" lon="6.17837">
        <ele>1556.6</ele>
        <time>2012-06-27T12:42:56Z</time>
      </trkpt>
      <trkpt lat="44.28316" lon="6.17828">
        <ele>1559</ele>
        <time>2012-06-27T12:43:10Z</time>
      </trkpt>
      <trkpt lat="44.28316" lon="6.17828">
        <ele>1559.1</ele>
        <time>2012-06-27T12:43:11Z</time>
      </trkpt>
      <trkpt lat="44.2833" lon="6.17814">
        <ele>1561.3</ele>
        <time>2012-06-27T12:43:34Z</time>
      </trkpt>
      <trkpt lat="44.28337" lon="6.17807">
        <ele>1560.7</ele>
        <time>2012-06-27T12:43:49Z</time>
      </trkpt>
      <trkpt lat="44.28344" lon="6.17801">
        <ele>1561.6</ele>
        <time>2012-06-27T12:44:03Z</time>
      </trkpt>
      <trkpt lat="44.28353" lon="6.17797">
        <ele>1564</ele>
        <time>2012-06-27T12:44:17Z</time>
      </trkpt>
      <trkpt lat="44.28354" lon="6.17797">
        <ele>1564.2</ele>
        <time>2012-06-27T12:44:18Z</time>
      </trkpt>
      <trkpt lat="44.28368" lon="6.17787">
        <ele>1565.7</ele>
        <time>2012-06-27T12:44:43Z</time>
      </trkpt>
      <trkpt lat="44.28375" lon="6.17779">
        <ele>1565.9</ele>
        <time>2012-06-27T12:44:52Z</time>
      </trkpt>
      <trkpt lat="44.28381" lon="6.1777">
        <ele>1565</ele>
        <time>2012-06-27T12:44:59Z</time>
      </trkpt>
      <trkpt lat="44.28383" lon="6.1776">
        <ele>1565.8</ele>
        <time>2012-06-27T12:45:06Z</time>
      </trkpt>
      <trkpt lat="44.28387" lon="6.17749">
        <ele>1565.6</ele>
        <time>2012-06-27T12:45:15Z</time>
      </trkpt>
      <trkpt lat="44.28391" lon="6.17739">
        <ele>1565.3</ele>
        <time>2012-06-27T12:45:24Z</time>
      </trkpt>
      <trkpt lat="44.28391" lon="6.17738">
        <ele>1565</ele>
        <time>2012-06-27T12:45:25Z</time>
      </trkpt>
      <trkpt lat="44.284" lon="6.17719">
        <ele>1564.3</ele>
        <time>2012-06-27T12:45:40Z</time>
      </trkpt>
      <trkpt lat="44.28407" lon="6.1771">
        <ele>1563.8</ele>
        <time>2012-06-27T12:45:49Z</time>
      </trkpt>
      <trkpt lat="44.28412" lon="6.17701">
        <ele>1563.7</ele>
        <time>2012-06-27T12:45:58Z</time>
      </trkpt>
      <trkpt lat="44.2842" lon="6.17696">
        <ele>1562.8</ele>
        <time>2012-06-27T12:46:05Z</time>
      </trkpt>
      <trkpt lat="44.28427" lon="6.1769">
        <ele>1563.3</ele>
        <time>2012-06-27T12:46:15Z</time>
      </trkpt>
      <trkpt lat="44.28434" lon="6.17682">
        <ele>1563.8</ele>
        <time>2012-06-27T12:46:29Z</time>
      </trkpt>
      <trkpt lat="44.28434" lon="6.17681">
        <ele>1563.7</ele>
        <time>2012-06-27T12:46:30Z</time>
      </trkpt>
      <trkpt lat="44.28438" lon="6.17659">
        <ele>1562.2</ele>
        <time>2012-06-27T12:46:51Z</time>
      </trkpt>
      <trkpt lat="44.28447" lon="6.1766">
        <ele>1563.4</ele>
        <time>2012-06-27T12:47:07Z</time>
      </trkpt>
      <trkpt lat="44.28455" lon="6.17654">
        <ele>1563.1</ele>
        <time>2012-06-27T12:47:20Z</time>
      </trkpt>
      <trkpt lat="44.28461" lon="6.17647">
        <ele>1563.7</ele>
        <time>2012-06-27T12:47:32Z</time>
      </trkpt>
      <trkpt lat="44.28462" lon="6.17646">
        <ele>1563.6</ele>
        <time>2012-06-27T12:47:33Z</time>
      </trkpt>
      <trkpt lat="44.28475" lon="6.17634">
        <ele>1564</ele>
        <time>2012-06-27T12:47:51Z</time>
      </trkpt>
      <trkpt lat="44.28481" lon="6.17625">
        <ele>1563</ele>
        <time>2012-06-27T12:48:07Z</time>
      </trkpt>
      <trkpt lat="44.28482" lon="6.17613">
        <ele>1562.9</ele>
        <time>2012-06-27T12:48:15Z</time>
      </trkpt>
      <trkpt lat="44.28483" lon="6.17601">
        <ele>1562.3</ele>
        <time>2012-06-27T12:48:25Z</time>
      </trkpt>
      <trkpt lat="44.28483" lon="6.17589">
        <ele>1561.7</ele>
        <time>2012-06-27T12:48:35Z</time>
      </trkpt>
      <trkpt lat="44.28483" lon="6.17587">
        <ele>1561.3</ele>
        <time>2012-06-27T12:48:36Z</time>
      </trkpt>
      <trkpt lat="44.28486" lon="6.17566">
        <ele>1560.2</ele>
        <time>2012-06-27T12:48:53Z</time>
      </trkpt>
      <trkpt lat="44.28487" lon="6.17554">
        <ele>1559.3</ele>
        <time>2012-06-27T12:49:02Z</time>
      </trkpt>
      <trkpt lat="44.28487" lon="6.17543">
        <ele>1558.7</ele>
        <time>2012-06-27T12:49:10Z</time>
      </trkpt>
      <trkpt lat="44.28492" lon="6.17533">
        <ele>1558.1</ele>
        <time>2012-06-27T12:49:21Z</time>
      </trkpt>
      <trkpt lat="44.28498" lon="6.17524">
        <ele>1557.3</ele>
        <time>2012-06-27T12:49:32Z</time>
      </trkpt>
      <trkpt lat="44.28503" lon="6.17516">
        <ele>1556.6</ele>
        <time>2012-06-27T12:49:42Z</time>
      </trkpt>
      <trkpt lat="44.28504" lon="6.17515">
        <ele>1556.7</ele>
        <time>2012-06-27T12:49:43Z</time>
      </trkpt>
      <trkpt lat="44.28516" lon="6.175">
        <ele>1557</ele>
        <time>2012-06-27T12:49:57Z</time>
      </trkpt>
      <trkpt lat="44.28523" lon="6.17494">
        <ele>1555.8</ele>
        <time>2012-06-27T12:50:04Z</time>
      </trkpt>
      <trkpt lat="44.28532" lon="6.17491">
        <ele>1555.7</ele>
        <time>2012-06-27T12:50:11Z</time>
      </trkpt>
      <trkpt lat="44.2854" lon="6.17489">
        <ele>1555.2</ele>
        <time>2012-06-27T12:50:19Z</time>
      </trkpt>
      <trkpt lat="44.28549" lon="6.17493">
        <ele>1554.1</ele>
        <time>2012-06-27T12:50:28Z</time>
      </trkpt>
      <trkpt lat="44.28556" lon="6.17499">
        <ele>1553.1</ele>
        <time>2012-06-27T12:50:37Z</time>
      </trkpt>
      <trkpt lat="44.28562" lon="6.17507">
        <ele>1552.8</ele>
        <time>2012-06-27T12:50:48Z</time>
      </trkpt>
      <trkpt lat="44.28563" lon="6.17507">
        <ele>1552.7</ele>
        <time>2012-06-27T12:50:49Z</time>
      </trkpt>
      <trkpt lat="44.28569" lon="6.17528">
        <ele>1550.7</ele>
        <time>2012-06-27T12:51:12Z</time>
      </trkpt>
      <trkpt lat="44.28569" lon="6.17516">
        <ele>1551.6</ele>
        <time>2012-06-27T12:51:52Z</time>
      </trkpt>
      <trkpt lat="44.28569" lon="6.17515">
        <ele>1551.7</ele>
        <time>2012-06-27T12:51:53Z</time>
      </trkpt>
      <trkpt lat="44.28581" lon="6.17497">
        <ele>1553</ele>
        <time>2012-06-27T12:53:54Z</time>
      </trkpt>
      <trkpt lat="44.28581" lon="6.17497">
        <ele>1552.9</ele>
        <time>2012-06-27T12:53:55Z</time>
      </trkpt>
      <trkpt lat="44.28593" lon="6.1748">
        <ele>1556</ele>
        <time>2012-06-27T12:54:28Z</time>
      </trkpt>
      <trkpt lat="44.28599" lon="6.1747">
        <ele>1558.4</ele>
        <time>2012-06-27T12:54:49Z</time>
      </trkpt>
      <trkpt lat="44.28603" lon="6.1746">
        <ele>1561.2</ele>
        <time>2012-06-27T12:55:56Z</time>
      </trkpt>
      <trkpt lat="44.28604" lon="6.17459">
        <ele>1561.3</ele>
        <time>2012-06-27T12:55:57Z</time>
      </trkpt>
      <trkpt lat="44.28615" lon="6.17477">
        <ele>1558.6</ele>
        <time>2012-06-27T12:57:09Z</time>
      </trkpt>
      <trkpt lat="44.28615" lon="6.17478">
        <ele>1558.4</ele>
        <time>2012-06-27T12:57:10Z</time>
      </trkpt>
      <trkpt lat="44.28615" lon="6.17502">
        <ele>1554.6</ele>
        <time>2012-06-27T12:57:47Z</time>
      </trkpt>
      <trkpt lat="44.28615" lon="6.17514">
        <ele>1552.9</ele>
        <time>2012-06-27T12:58:07Z</time>
      </trkpt>
      <trkpt lat="44.28613" lon="6.17525">
        <ele>1551.4</ele>
        <time>2012-06-27T12:58:19Z</time>
      </trkpt>
      <trkpt lat="44.28613" lon="6.17527">
        <ele>1551.3</ele>
        <time>2012-06-27T12:58:20Z</time>
      </trkpt>
      <trkpt lat="44.28608" lon="6.17548">
        <ele>1550.3</ele>
        <time>2012-06-27T12:58:47Z</time>
      </trkpt>
      <trkpt lat="44.28605" lon="6.17559">
        <ele>1549</ele>
        <time>2012-06-27T12:59:00Z</time>
      </trkpt>
      <trkpt lat="44.28607" lon="6.17571">
        <ele>1548.5</ele>
        <time>2012-06-27T12:59:10Z</time>
      </trkpt>
      <trkpt lat="44.28606" lon="6.17583">
        <ele>1547.6</ele>
        <time>2012-06-27T12:59:21Z</time>
      </trkpt>
      <trkpt lat="44.28606" lon="6.17584">
        <ele>1547.6</ele>
        <time>2012-06-27T12:59:22Z</time>
      </trkpt>
      <trkpt lat="44.28608" lon="6.17606">
        <ele>1546.7</ele>
        <time>2012-06-27T12:59:42Z</time>
      </trkpt>
      <trkpt lat="44.28608" lon="6.17618">
        <ele>1546.3</ele>
        <time>2012-06-27T12:59:55Z</time>
      </trkpt>
      <trkpt lat="44.2861" lon="6.1763">
        <ele>1545.9</ele>
        <time>2012-06-27T13:00:04Z</time>
      </trkpt>
      <trkpt lat="44.2861" lon="6.17642">
        <ele>1546.4</ele>
        <time>2012-06-27T13:00:13Z</time>
      </trkpt>
      <trkpt lat="44.28611" lon="6.17654">
        <ele>1546.2</ele>
        <time>2012-06-27T13:00:22Z</time>
      </trkpt>
      <trkpt lat="44.28611" lon="6.17655">
        <ele>1545.8</ele>
        <time>2012-06-27T13:00:23Z</time>
      </trkpt>
      <trkpt lat="44.28614" lon="6.17677">
        <ele>1545.6</ele>
        <time>2012-06-27T13:00:40Z</time>
      </trkpt>
      <trkpt lat="44.28613" lon="6.17689">
        <ele>1543.7</ele>
        <time>2012-06-27T13:00:52Z</time>
      </trkpt>
      <trkpt lat="44.28621" lon="6.17687">
        <ele>1543.7</ele>
        <time>2012-06-27T13:01:06Z</time>
      </trkpt>
      <trkpt lat="44.28628" lon="6.1768">
        <ele>1543.2</ele>
        <time>2012-06-27T13:01:15Z</time>
      </trkpt>
      <trkpt lat="44.28633" lon="6.17671">
        <ele>1543</ele>
        <time>2012-06-27T13:01:23Z</time>
      </trkpt>
      <trkpt lat="44.28634" lon="6.1767">
        <ele>1543</ele>
        <time>2012-06-27T13:01:24Z</time>
      </trkpt>
      <trkpt lat="44.2864" lon="6.1765">
        <ele>1541.7</ele>
        <time>2012-06-27T13:01:39Z</time>
      </trkpt>
      <trkpt lat="44.28642" lon="6.17639">
        <ele>1540.7</ele>
        <time>2012-06-27T13:01:47Z</time>
      </trkpt>
      <trkpt lat="44.28646" lon="6.17629">
        <ele>1540.3</ele>
        <time>2012-06-27T13:01:55Z</time>
      </trkpt>
      <trkpt lat="44.2865" lon="6.17619">
        <ele>1540.1</ele>
        <time>2012-06-27T13:02:04Z</time>
      </trkpt>
      <trkpt lat="44.28657" lon="6.17612">
        <ele>1540.5</ele>
        <time>2012-06-27T13:02:13Z</time>
      </trkpt>
      <trkpt lat="44.28663" lon="6.17604">
        <ele>1539.7</ele>
        <time>2012-06-27T13:02:26Z</time>
      </trkpt>
      <trkpt lat="44.28664" lon="6.17604">
        <ele>1539.8</ele>
        <time>2012-06-27T13:02:27Z</time>
      </trkpt>
      <trkpt lat="44.28679" lon="6.17606">
        <ele>1539.9</ele>
        <time>2012-06-27T13:02:44Z</time>
      </trkpt>
      <trkpt lat="44.28688" lon="6.17607">
        <ele>1540.5</ele>
        <time>2012-06-27T13:02:54Z</time>
      </trkpt>
      <trkpt lat="44.28696" lon="6.17611">
        <ele>1540.7</ele>
        <time>2012-06-27T13:03:02Z</time>
      </trkpt>
      <trkpt lat="44.28703" lon="6.17613">
        <ele>1540.3</ele>
        <time>2012-06-27T13:03:10Z</time>
      </trkpt>
      <trkpt lat="44.28712" lon="6.17612">
        <ele>1540.3</ele>
        <time>2012-06-27T13:03:17Z</time>
      </trkpt>
      <trkpt lat="44.2872" lon="6.17608">
        <ele>1540.3</ele>
        <time>2012-06-27T13:03:26Z</time>
      </trkpt>
      <trkpt lat="44.28729" lon="6.17609">
        <ele>1539.8</ele>
        <time>2012-06-27T13:03:35Z</time>
      </trkpt>
      <trkpt lat="44.2873" lon="6.17609">
        <ele>1539.9</ele>
        <time>2012-06-27T13:03:36Z</time>
      </trkpt>
      <trkpt lat="44.28745" lon="6.17606">
        <ele>1540</ele>
        <time>2012-06-27T13:04:16Z</time>
      </trkpt>
      <trkpt lat="44.28753" lon="6.17607">
        <ele>1540.4</ele>
        <time>2012-06-27T13:04:25Z</time>
      </trkpt>
      <trkpt lat="44.28761" lon="6.17602">
        <ele>1540.1</ele>
        <time>2012-06-27T13:04:32Z</time>
      </trkpt>
      <trkpt lat="44.28767" lon="6.17596">
        <ele>1540.4</ele>
        <time>2012-06-27T13:04:38Z</time>
      </trkpt>
      <trkpt lat="44.28769" lon="6.17594">
        <ele>1540.4</ele>
        <time>2012-06-27T13:04:39Z</time>
      </trkpt>
      <trkpt lat="44.28782" lon="6.17587">
        <ele>1539.9</ele>
        <time>2012-06-27T13:04:52Z</time>
      </trkpt>
      <trkpt lat="44.2879" lon="6.17583">
        <ele>1539.4</ele>
        <time>2012-06-27T13:04:58Z</time>
      </trkpt>
      <trkpt lat="44.28798" lon="6.17581">
        <ele>1538.9</ele>
        <time>2012-06-27T13:05:06Z</time>
      </trkpt>
      <trkpt lat="44.28805" lon="6.17579">
        <ele>1538.8</ele>
        <time>2012-06-27T13:05:12Z</time>
      </trkpt>
      <trkpt lat="44.28813" lon="6.1758">
        <ele>1538.8</ele>
        <time>2012-06-27T13:05:18Z</time>
      </trkpt>
      <trkpt lat="44.2882" lon="6.17587">
        <ele>1539</ele>
        <time>2012-06-27T13:05:26Z</time>
      </trkpt>
      <trkpt lat="44.28827" lon="6.17593">
        <ele>1538.5</ele>
        <time>2012-06-27T13:05:33Z</time>
      </trkpt>
      <trkpt lat="44.28836" lon="6.17595">
        <ele>1537.6</ele>
        <time>2012-06-27T13:05:59Z</time>
      </trkpt>
      <trkpt lat="44.28837" lon="6.17596">
        <ele>1537.5</ele>
        <time>2012-06-27T13:06:00Z</time>
      </trkpt>
      <trkpt lat="44.28853" lon="6.17601">
        <ele>1537.2</ele>
        <time>2012-06-27T13:06:16Z</time>
      </trkpt>
      <trkpt lat="44.28861" lon="6.17601">
        <ele>1537.5</ele>
        <time>2012-06-27T13:06:24Z</time>
      </trkpt>
      <trkpt lat="44.28869" lon="6.17603">
        <ele>1537.7</ele>
        <time>2012-06-27T13:06:33Z</time>
      </trkpt>
      <trkpt lat="44.28878" lon="6.17606">
        <ele>1537.2</ele>
        <time>2012-06-27T13:06:40Z</time>
      </trkpt>
      <trkpt lat="44.28886" lon="6.17607">
        <ele>1536.9</ele>
        <time>2012-06-27T13:06:45Z</time>
      </trkpt>
      <trkpt lat="44.28893" lon="6.17605">
        <ele>1536.8</ele>
        <time>2012-06-27T13:06:50Z</time>
      </trkpt>
      <trkpt lat="44.28901" lon="6.17601">
        <ele>1537.1</ele>
        <time>2012-06-27T13:06:55Z</time>
      </trkpt>
      <trkpt lat="44.28908" lon="6.17596">
        <ele>1537.4</ele>
        <time>2012-06-27T13:07:01Z</time>
      </trkpt>
      <trkpt lat="44.2891" lon="6.17594">
        <ele>1537.6</ele>
        <time>2012-06-27T13:07:02Z</time>
      </trkpt>
      <trkpt lat="44.28923" lon="6.17588">
        <ele>1536.9</ele>
        <time>2012-06-27T13:07:13Z</time>
      </trkpt>
      <trkpt lat="44.28932" lon="6.17585">
        <ele>1536.5</ele>
        <time>2012-06-27T13:08:13Z</time>
      </trkpt>
      <trkpt lat="44.28932" lon="6.17585">
        <ele>1536.6</ele>
        <time>2012-06-27T13:08:14Z</time>
      </trkpt>
      <trkpt lat="44.28946" lon="6.1757">
        <ele>1537.2</ele>
        <time>2012-06-27T13:10:38Z</time>
      </trkpt>
      <trkpt lat="44.28946" lon="6.1757">
        <ele>1537</ele>
        <time>2012-06-27T13:10:39Z</time>
      </trkpt>
      <trkpt lat="44.28962" lon="6.17578">
        <ele>1536.6</ele>
        <time>2012-06-27T13:11:06Z</time>
      </trkpt>
      <trkpt lat="44.28971" lon="6.17578">
        <ele>1536.7</ele>
        <time>2012-06-27T13:11:13Z</time>
      </trkpt>
      <trkpt lat="44.2898" lon="6.17577">
        <ele>1536.3</ele>
        <time>2012-06-27T13:11:21Z</time>
      </trkpt>
      <trkpt lat="44.28988" lon="6.17576">
        <ele>1536.6</ele>
        <time>2012-06-27T13:11:28Z</time>
      </trkpt>
      <trkpt lat="44.28996" lon="6.17577">
        <ele>1536.6</ele>
        <time>2012-06-27T13:11:37Z</time>
      </trkpt>
      <trkpt lat="44.29004" lon="6.17577">
        <ele>1535.7</ele>
        <time>2012-06-27T13:11:49Z</time>
      </trkpt>
      <trkpt lat="44.29005" lon="6.17577">
        <ele>1535.5</ele>
        <time>2012-06-27T13:11:50Z</time>
      </trkpt>
      <trkpt lat="44.2902" lon="6.17571">
        <ele>1535.6</ele>
        <time>2012-06-27T13:12:03Z</time>
      </trkpt>
      <trkpt lat="44.29027" lon="6.17565">
        <ele>1535.3</ele>
        <time>2012-06-27T13:12:12Z</time>
      </trkpt>
      <trkpt lat="44.29035" lon="6.1756">
        <ele>1535.4</ele>
        <time>2012-06-27T13:12:31Z</time>
      </trkpt>
      <trkpt lat="44.29042" lon="6.17554">
        <ele>1534.7</ele>
        <time>2012-06-27T13:12:40Z</time>
      </trkpt>
      <trkpt lat="44.2905" lon="6.17548">
        <ele>1535.2</ele>
        <time>2012-06-27T13:12:47Z</time>
      </trkpt>
      <trkpt lat="44.29058" lon="6.17546">
        <ele>1535</ele>
        <time>2012-06-27T13:12:54Z</time>
      </trkpt>
      <trkpt lat="44.29059" lon="6.17546">
        <ele>1535</ele>
        <time>2012-06-27T13:12:55Z</time>
      </trkpt>
      <trkpt lat="44.29069" lon="6.17532">
        <ele>1534.7</ele>
        <time>2012-06-27T13:13:07Z</time>
      </trkpt>
      <trkpt lat="44.29076" lon="6.17524">
        <ele>1534.4</ele>
        <time>2012-06-27T13:13:16Z</time>
      </trkpt>
      <trkpt lat="44.29083" lon="6.17516">
        <ele>1534</ele>
        <time>2012-06-27T13:13:24Z</time>
      </trkpt>
      <trkpt lat="44.29092" lon="6.17518">
        <ele>1533.9</ele>
        <time>2012-06-27T13:13:46Z</time>
      </trkpt>
      <trkpt lat="44.29099" lon="6.17524">
        <ele>1533.7</ele>
        <time>2012-06-27T13:13:53Z</time>
      </trkpt>
      <trkpt lat="44.29106" lon="6.1753">
        <ele>1533.3</ele>
        <time>2012-06-27T13:14:00Z</time>
      </trkpt>
      <trkpt lat="44.29108" lon="6.17531">
        <ele>1533.5</ele>
        <time>2012-06-27T13:14:01Z</time>
      </trkpt>
      <trkpt lat="44.29122" lon="6.17539">
        <ele>1533.4</ele>
        <time>2012-06-27T13:14:14Z</time>
      </trkpt>
      <trkpt lat="44.29128" lon="6.17544">
        <ele>1533.3</ele>
        <time>2012-06-27T13:14:20Z</time>
      </trkpt>
      <trkpt lat="44.29136" lon="6.17548">
        <ele>1533.2</ele>
        <time>2012-06-27T13:14:29Z</time>
      </trkpt>
      <trkpt lat="44.29143" lon="6.17555">
        <ele>1533.7</ele>
        <time>2012-06-27T13:14:37Z</time>
      </trkpt>
      <trkpt lat="44.29151" lon="6.17561">
        <ele>1532.9</ele>
        <time>2012-06-27T13:14:44Z</time>
      </trkpt>
      <trkpt lat="44.29158" lon="6.17568">
        <ele>1533.3</ele>
        <time>2012-06-27T13:14:50Z</time>
      </trkpt>
      <trkpt lat="44.29167" lon="6.17569">
        <ele>1532.7</ele>
        <time>2012-06-27T13:14:57Z</time>
      </trkpt>
      <trkpt lat="44.29174" lon="6.17571">
        <ele>1532.6</ele>
        <time>2012-06-27T13:15:06Z</time>
      </trkpt>
      <trkpt lat="44.29176" lon="6.17571">
        <ele>1532.7</ele>
        <time>2012-06-27T13:15:07Z</time>
      </trkpt>
      <trkpt lat="44.2919" lon="6.1757">
        <ele>1532</ele>
        <time>2012-06-27T13:15:18Z</time>
      </trkpt>
      <trkpt lat="44.29198" lon="6.17565">
        <ele>1531.3</ele>
        <time>2012-06-27T13:15:25Z</time>
      </trkpt>
      <trkpt lat="44.29207" lon="6.17561">
        <ele>1531.5</ele>
        <time>2012-06-27T13:15:31Z</time>
      </trkpt>
      <trkpt lat="44.29211" lon="6.17551">
        <ele>1531.4</ele>
        <time>2012-06-27T13:15:38Z</time>
      </trkpt>
      <trkpt lat="44.2922" lon="6.1755">
        <ele>1530.9</ele>
        <time>2012-06-27T13:15:51Z</time>
      </trkpt>
      <trkpt lat="44.29228" lon="6.17547">
        <ele>1530.7</ele>
        <time>2012-06-27T13:15:56Z</time>
      </trkpt>
      <trkpt lat="44.29236" lon="6.17544">
        <ele>1530.6</ele>
        <time>2012-06-27T13:16:00Z</time>
      </trkpt>
      <trkpt lat="44.29244" lon="6.1754">
        <ele>1530.7</ele>
        <time>2012-06-27T13:16:07Z</time>
      </trkpt>
      <trkpt lat="44.29245" lon="6.17538">
        <ele>1530.6</ele>
        <time>2012-06-27T13:16:08Z</time>
      </trkpt>
      <trkpt lat="44.29256" lon="6.17525">
        <ele>1529.7</ele>
        <time>2012-06-27T13:16:17Z</time>
      </trkpt>
      <trkpt lat="44.29261" lon="6.17517">
        <ele>1529.8</ele>
        <time>2012-06-27T13:16:23Z</time>
      </trkpt>
      <trkpt lat="44.29268" lon="6.1751">
        <ele>1529.3</ele>
        <time>2012-06-27T13:16:30Z</time>
      </trkpt>
      <trkpt lat="44.29272" lon="6.17499">
        <ele>1529.4</ele>
        <time>2012-06-27T13:16:36Z</time>
      </trkpt>
      <trkpt lat="44.29271" lon="6.17489">
        <ele>1529.5</ele>
        <time>2012-06-27T13:16:42Z</time>
      </trkpt>
      <trkpt lat="44.29267" lon="6.17478">
        <ele>1529.9</ele>
        <time>2012-06-27T13:16:48Z</time>
      </trkpt>
      <trkpt lat="44.29263" lon="6.17468">
        <ele>1529.7</ele>
        <time>2012-06-27T13:16:55Z</time>
      </trkpt>
      <trkpt lat="44.2926" lon="6.17457">
        <ele>1529.7</ele>
        <time>2012-06-27T13:17:03Z</time>
      </trkpt>
      <trkpt lat="44.29262" lon="6.17446">
        <ele>1529.4</ele>
        <time>2012-06-27T13:17:11Z</time>
      </trkpt>
      <trkpt lat="44.29263" lon="6.17444">
        <ele>1529.4</ele>
        <time>2012-06-27T13:17:12Z</time>
      </trkpt>
      <trkpt lat="44.2927" lon="6.17426">
        <ele>1528.6</ele>
        <time>2012-06-27T13:17:26Z</time>
      </trkpt>
      <trkpt lat="44.29278" lon="6.17422">
        <ele>1528.1</ele>
        <time>2012-06-27T13:17:32Z</time>
      </trkpt>
      <trkpt lat="44.29285" lon="6.17418">
        <ele>1528.3</ele>
        <time>2012-06-27T13:17:38Z</time>
      </trkpt>
      <trkpt lat="44.29293" lon="6.17413">
        <ele>1528.3</ele>
        <time>2012-06-27T13:17:47Z</time>
      </trkpt>
      <trkpt lat="44.29301" lon="6.17409">
        <ele>1528.2</ele>
        <time>2012-06-27T13:17:53Z</time>
      </trkpt>
      <trkpt lat="44.29306" lon="6.17399">
        <ele>1528.9</ele>
        <time>2012-06-27T13:18:01Z</time>
      </trkpt>
      <trkpt lat="44.29307" lon="6.17387">
        <ele>1528.8</ele>
        <time>2012-06-27T13:18:07Z</time>
      </trkpt>
      <trkpt lat="44.2931" lon="6.17376">
        <ele>1528.3</ele>
        <time>2012-06-27T13:18:14Z</time>
      </trkpt>
      <trkpt lat="44.2931" lon="6.17374">
        <ele>1528.4</ele>
        <time>2012-06-27T13:18:15Z</time>
      </trkpt>
      <trkpt lat="44.2932" lon="6.17359">
        <ele>1529.2</ele>
        <time>2012-06-27T13:18:27Z</time>
      </trkpt>
      <trkpt lat="44.29318" lon="6.17347">
        <ele>1529.7</ele>
        <time>2012-06-27T13:18:33Z</time>
      </trkpt>
      <trkpt lat="44.29317" lon="6.17336">
        <ele>1529.5</ele>
        <time>2012-06-27T13:18:39Z</time>
      </trkpt>
      <trkpt lat="44.29318" lon="6.17324">
        <ele>1530.2</ele>
        <time>2012-06-27T13:18:47Z</time>
      </trkpt>
      <trkpt lat="44.29317" lon="6.17311">
        <ele>1529.9</ele>
        <time>2012-06-27T13:18:53Z</time>
      </trkpt>
      <trkpt lat="44.29322" lon="6.17302">
        <ele>1529.6</ele>
        <time>2012-06-27T13:19:00Z</time>
      </trkpt>
      <trkpt lat="44.29326" lon="6.17292">
        <ele>1530.7</ele>
        <time>2012-06-27T13:19:07Z</time>
      </trkpt>
      <trkpt lat="44.29322" lon="6.17282">
        <ele>1530.7</ele>
        <time>2012-06-27T13:19:12Z</time>
      </trkpt>
      <trkpt lat="44.2932" lon="6.1727">
        <ele>1530.4</ele>
        <time>2012-06-27T13:19:18Z</time>
      </trkpt>
      <trkpt lat="44.2932" lon="6.17269">
        <ele>1530.4</ele>
        <time>2012-06-27T13:19:19Z</time>
      </trkpt>
      <trkpt lat="44.29313" lon="6.17251">
        <ele>1530.5</ele>
        <time>2012-06-27T13:19:28Z</time>
      </trkpt>
      <trkpt lat="44.29309" lon="6.1724">
        <ele>1530.2</ele>
        <time>2012-06-27T13:19:34Z</time>
      </trkpt>
      <trkpt lat="44.29304" lon="6.17229">
        <ele>1530.4</ele>
        <time>2012-06-27T13:19:41Z</time>
      </trkpt>
      <trkpt lat="44.29303" lon="6.17217">
        <ele>1530.3</ele>
        <time>2012-06-27T13:19:49Z</time>
      </trkpt>
      <trkpt lat="44.29302" lon="6.17206">
        <ele>1530.3</ele>
        <time>2012-06-27T13:19:58Z</time>
      </trkpt>
      <trkpt lat="44.29304" lon="6.17195">
        <ele>1530.4</ele>
        <time>2012-06-27T13:20:06Z</time>
      </trkpt>
      <trkpt lat="44.29305" lon="6.17183">
        <ele>1530.5</ele>
        <time>2012-06-27T13:20:14Z</time>
      </trkpt>
      <trkpt lat="44.29306" lon="6.17171">
        <ele>1529.9</ele>
        <time>2012-06-27T13:20:22Z</time>
      </trkpt>
      <trkpt lat="44.29307" lon="6.1717">
        <ele>1529.9</ele>
        <time>2012-06-27T13:20:23Z</time>
      </trkpt>
      <trkpt lat="44.29305" lon="6.17147">
        <ele>1530.2</ele>
        <time>2012-06-27T13:20:37Z</time>
      </trkpt>
      <trkpt lat="44.29307" lon="6.17136">
        <ele>1529.4</ele>
        <time>2012-06-27T13:20:44Z</time>
      </trkpt>
      <trkpt lat="44.29304" lon="6.17125">
        <ele>1528.5</ele>
        <time>2012-06-27T13:20:52Z</time>
      </trkpt>
      <trkpt lat="44.293" lon="6.17114">
        <ele>1528.4</ele>
        <time>2012-06-27T13:20:58Z</time>
      </trkpt>
      <trkpt lat="44.29299" lon="6.17101">
        <ele>1529</ele>
        <time>2012-06-27T13:21:07Z</time>
      </trkpt>
      <trkpt lat="44.29305" lon="6.17093">
        <ele>1529.3</ele>
        <time>2012-06-27T13:21:17Z</time>
      </trkpt>
      <trkpt lat="44.29313" lon="6.17089">
        <ele>1528.5</ele>
        <time>2012-06-27T13:21:26Z</time>
      </trkpt>
      <trkpt lat="44.29314" lon="6.17088">
        <ele>1528.4</ele>
        <time>2012-06-27T13:21:27Z</time>
      </trkpt>
      <trkpt lat="44.29327" lon="6.1708">
        <ele>1528.6</ele>
        <time>2012-06-27T13:21:41Z</time>
      </trkpt>
      <trkpt lat="44.29335" lon="6.17077">
        <ele>1528.8</ele>
        <time>2012-06-27T13:21:47Z</time>
      </trkpt>
      <trkpt lat="44.29343" lon="6.17072">
        <ele>1528.2</ele>
        <time>2012-06-27T13:21:53Z</time>
      </trkpt>
      <trkpt lat="44.29349" lon="6.17065">
        <ele>1528.1</ele>
        <time>2012-06-27T13:21:59Z</time>
      </trkpt>
      <trkpt lat="44.29354" lon="6.17055">
        <ele>1527.9</ele>
        <time>2012-06-27T13:22:05Z</time>
      </trkpt>
      <trkpt lat="44.29356" lon="6.17043">
        <ele>1528</ele>
        <time>2012-06-27T13:22:11Z</time>
      </trkpt>
      <trkpt lat="44.29355" lon="6.17031">
        <ele>1528.7</ele>
        <time>2012-06-27T13:22:17Z</time>
      </trkpt>
      <trkpt lat="44.29352" lon="6.1702">
        <ele>1528.6</ele>
        <time>2012-06-27T13:22:26Z</time>
      </trkpt>
      <trkpt lat="44.29345" lon="6.17011">
        <ele>1528.5</ele>
        <time>2012-06-27T13:23:12Z</time>
      </trkpt>
      <trkpt lat="44.29345" lon="6.17011">
        <ele>1528.6</ele>
        <time>2012-06-27T13:23:13Z</time>
      </trkpt>
      <trkpt lat="44.29358" lon="6.16995">
        <ele>1530.4</ele>
        <time>2012-06-27T13:24:01Z</time>
      </trkpt>
      <trkpt lat="44.29364" lon="6.16989">
        <ele>1530.1</ele>
        <time>2012-06-27T13:24:09Z</time>
      </trkpt>
      <trkpt lat="44.29373" lon="6.16985">
        <ele>1529.4</ele>
        <time>2012-06-27T13:24:23Z</time>
      </trkpt>
      <trkpt lat="44.29373" lon="6.16984">
        <ele>1529.4</ele>
        <time>2012-06-27T13:24:24Z</time>
      </trkpt>
      <trkpt lat="44.29388" lon="6.16973">
        <ele>1530.6</ele>
        <time>2012-06-27T13:24:43Z</time>
      </trkpt>
      <trkpt lat="44.29395" lon="6.16966">
        <ele>1531.7</ele>
        <time>2012-06-27T13:24:59Z</time>
      </trkpt>
      <trkpt lat="44.29404" lon="6.16964">
        <ele>1533.3</ele>
        <time>2012-06-27T13:25:12Z</time>
      </trkpt>
      <trkpt lat="44.2941" lon="6.16955">
        <ele>1534.5</ele>
        <time>2012-06-27T13:25:25Z</time>
      </trkpt>
      <trkpt lat="44.2941" lon="6.16955">
        <ele>1534.5</ele>
        <time>2012-06-27T13:25:26Z</time>
      </trkpt>
      <trkpt lat="44.29426" lon="6.16949">
        <ele>1534.7</ele>
        <time>2012-06-27T13:25:47Z</time>
      </trkpt>
      <trkpt lat="44.29434" lon="6.16945">
        <ele>1535.1</ele>
        <time>2012-06-27T13:25:57Z</time>
      </trkpt>
      <trkpt lat="44.29442" lon="6.16943">
        <ele>1533.6</ele>
        <time>2012-06-27T13:26:08Z</time>
      </trkpt>
      <trkpt lat="44.29451" lon="6.16943">
        <ele>1533</ele>
        <time>2012-06-27T13:26:17Z</time>
      </trkpt>
      <trkpt lat="44.29459" lon="6.16946">
        <ele>1531.9</ele>
        <time>2012-06-27T13:26:28Z</time>
      </trkpt>
      <trkpt lat="44.2946" lon="6.16946">
        <ele>1531.7</ele>
        <time>2012-06-27T13:26:29Z</time>
      </trkpt>
      <trkpt lat="44.29475" lon="6.16938">
        <ele>1527.9</ele>
        <time>2012-06-27T13:26:55Z</time>
      </trkpt>
      <trkpt lat="44.29481" lon="6.1693">
        <ele>1527.5</ele>
        <time>2012-06-27T13:27:09Z</time>
      </trkpt>
      <trkpt lat="44.29487" lon="6.16923">
        <ele>1529</ele>
        <time>2012-06-27T13:27:16Z</time>
      </trkpt>
      <trkpt lat="44.29491" lon="6.16912">
        <ele>1530.5</ele>
        <time>2012-06-27T13:27:23Z</time>
      </trkpt>
      <trkpt lat="44.29494" lon="6.169">
        <ele>1531.9</ele>
        <time>2012-06-27T13:27:32Z</time>
      </trkpt>
      <trkpt lat="44.29494" lon="6.16899">
        <ele>1531.9</ele>
        <time>2012-06-27T13:27:33Z</time>
      </trkpt>
      <trkpt lat="44.29494" lon="6.16876">
        <ele>1532.8</ele>
        <time>2012-06-27T13:27:58Z</time>
      </trkpt>
      <trkpt lat="44.29498" lon="6.16866">
        <ele>1531.9</ele>
        <time>2012-06-27T13:28:09Z</time>
      </trkpt>
      <trkpt lat="44.29494" lon="6.16856">
        <ele>1531.9</ele>
        <time>2012-06-27T13:28:17Z</time>
      </trkpt>
      <trkpt lat="44.29492" lon="6.16845">
        <ele>1532.2</ele>
        <time>2012-06-27T13:28:24Z</time>
      </trkpt>
      <trkpt lat="44.29492" lon="6.16833">
        <ele>1531.2</ele>
        <time>2012-06-27T13:28:33Z</time>
      </trkpt>
      <trkpt lat="44.29492" lon="6.16831">
        <ele>1531.2</ele>
        <time>2012-06-27T13:28:34Z</time>
      </trkpt>
      <trkpt lat="44.29488" lon="6.16809">
        <ele>1530.1</ele>
        <time>2012-06-27T13:28:52Z</time>
      </trkpt>
      <trkpt lat="44.2949" lon="6.16798">
        <ele>1528.8</ele>
        <time>2012-06-27T13:29:03Z</time>
      </trkpt>
      <trkpt lat="44.29488" lon="6.16786">
        <ele>1528.4</ele>
        <time>2012-06-27T13:29:11Z</time>
      </trkpt>
      <trkpt lat="44.29485" lon="6.16775">
        <ele>1528.4</ele>
        <time>2012-06-27T13:29:17Z</time>
      </trkpt>
      <trkpt lat="44.29483" lon="6.16764">
        <ele>1529.1</ele>
        <time>2012-06-27T13:29:23Z</time>
      </trkpt>
      <trkpt lat="44.29482" lon="6.16753">
        <ele>1529.6</ele>
        <time>2012-06-27T13:29:31Z</time>
      </trkpt>
      <trkpt lat="44.29479" lon="6.16742">
        <ele>1530.2</ele>
        <time>2012-06-27T13:29:46Z</time>
      </trkpt>
      <trkpt lat="44.29478" lon="6.16741">
        <ele>1530.2</ele>
        <time>2012-06-27T13:29:47Z</time>
      </trkpt>
      <trkpt lat="44.29476" lon="6.16718">
        <ele>1531.4</ele>
        <time>2012-06-27T13:30:04Z</time>
      </trkpt>
      <trkpt lat="44.29474" lon="6.16707">
        <ele>1532</ele>
        <time>2012-06-27T13:30:14Z</time>
      </trkpt>
      <trkpt lat="44.29472" lon="6.16695">
        <ele>1532.7</ele>
        <time>2012-06-27T13:30:23Z</time>
      </trkpt>
      <trkpt lat="44.29468" lon="6.16684">
        <ele>1532.2</ele>
        <time>2012-06-27T13:30:34Z</time>
      </trkpt>
      <trkpt lat="44.29466" lon="6.16672">
        <ele>1531.7</ele>
        <time>2012-06-27T13:30:44Z</time>
      </trkpt>
      <trkpt lat="44.29466" lon="6.16661">
        <ele>1530.1</ele>
        <time>2012-06-27T13:30:56Z</time>
      </trkpt>
      <trkpt lat="44.29466" lon="6.1666">
        <ele>1530</ele>
        <time>2012-06-27T13:30:57Z</time>
      </trkpt>
      <trkpt lat="44.29476" lon="6.16641">
        <ele>1527.3</ele>
        <time>2012-06-27T13:31:18Z</time>
      </trkpt>
      <trkpt lat="44.2948" lon="6.16632">
        <ele>1525.3</ele>
        <time>2012-06-27T13:31:28Z</time>
      </trkpt>
      <trkpt lat="44.29488" lon="6.16626">
        <ele>1523.7</ele>
        <time>2012-06-27T13:31:37Z</time>
      </trkpt>
      <trkpt lat="44.29494" lon="6.16619">
        <ele>1522.7</ele>
        <time>2012-06-27T13:31:47Z</time>
      </trkpt>
      <trkpt lat="44.29503" lon="6.16617">
        <ele>1519.5</ele>
        <time>2012-06-27T13:32:02Z</time>
      </trkpt>
      <trkpt lat="44.29503" lon="6.16617">
        <ele>1519.2</ele>
        <time>2012-06-27T13:32:03Z</time>
      </trkpt>
      <trkpt lat="44.29512" lon="6.16597">
        <ele>1515.3</ele>
        <time>2012-06-27T13:32:21Z</time>
      </trkpt>
      <trkpt lat="44.29517" lon="6.16587">
        <ele>1513</ele>
        <time>2012-06-27T13:32:31Z</time>
      </trkpt>
      <trkpt lat="44.29525" lon="6.1658">
        <ele>1512.1</ele>
        <time>2012-06-27T13:32:43Z</time>
      </trkpt>
      <trkpt lat="44.29533" lon="6.16578">
        <ele>1508.9</ele>
        <time>2012-06-27T13:33:02Z</time>
      </trkpt>
      <trkpt lat="44.29542" lon="6.16575">
        <ele>1508.2</ele>
        <time>2012-06-27T13:33:09Z</time>
      </trkpt>
      <trkpt lat="44.29543" lon="6.16575">
        <ele>1508.1</ele>
        <time>2012-06-27T13:33:10Z</time>
      </trkpt>
      <trkpt lat="44.29557" lon="6.16567">
        <ele>1505.9</ele>
        <time>2012-06-27T13:33:27Z</time>
      </trkpt>
      <trkpt lat="44.29564" lon="6.16559">
        <ele>1505.1</ele>
        <time>2012-06-27T13:33:33Z</time>
      </trkpt>
      <trkpt lat="44.2957" lon="6.16551">
        <ele>1505</ele>
        <time>2012-06-27T13:33:42Z</time>
      </trkpt>
      <trkpt lat="44.29577" lon="6.16544">
        <ele>1504.6</ele>
        <time>2012-06-27T13:33:51Z</time>
      </trkpt>
      <trkpt lat="44.29584" lon="6.16541">
        <ele>1502.8</ele>
        <time>2012-06-27T13:33:59Z</time>
      </trkpt>
      <trkpt lat="44.29591" lon="6.16533">
        <ele>1501.7</ele>
        <time>2012-06-27T13:34:07Z</time>
      </trkpt>
      <trkpt lat="44.29598" lon="6.16528">
        <ele>1500.8</ele>
        <time>2012-06-27T13:34:14Z</time>
      </trkpt>
      <trkpt lat="44.29599" lon="6.16528">
        <ele>1500.7</ele>
        <time>2012-06-27T13:34:15Z</time>
      </trkpt>
      <trkpt lat="44.29609" lon="6.16515">
        <ele>1499.8</ele>
        <time>2012-06-27T13:34:30Z</time>
      </trkpt>
      <trkpt lat="44.29616" lon="6.16508">
        <ele>1497.8</ele>
        <time>2012-06-27T13:34:38Z</time>
      </trkpt>
      <trkpt lat="44.29623" lon="6.16503">
        <ele>1498.4</ele>
        <time>2012-06-27T13:34:46Z</time>
      </trkpt>
      <trkpt lat="44.29631" lon="6.16499">
        <ele>1497.1</ele>
        <time>2012-06-27T13:34:57Z</time>
      </trkpt>
      <trkpt lat="44.2964" lon="6.16497">
        <ele>1496.9</ele>
        <time>2012-06-27T13:35:04Z</time>
      </trkpt>
      <trkpt lat="44.29649" lon="6.16495">
        <ele>1495.7</ele>
        <time>2012-06-27T13:35:14Z</time>
      </trkpt>
      <trkpt lat="44.29657" lon="6.16494">
        <ele>1493.2</ele>
        <time>2012-06-27T13:35:26Z</time>
      </trkpt>
      <trkpt lat="44.29658" lon="6.16493">
        <ele>1492.8</ele>
        <time>2012-06-27T13:35:27Z</time>
      </trkpt>
      <trkpt lat="44.29672" lon="6.16485">
        <ele>1490.3</ele>
        <time>2012-06-27T13:35:42Z</time>
      </trkpt>
      <trkpt lat="44.29674" lon="6.16474">
        <ele>1489.3</ele>
        <time>2012-06-27T13:35:49Z</time>
      </trkpt>
      <trkpt lat="44.29678" lon="6.16463">
        <ele>1488.9</ele>
        <time>2012-06-27T13:35:56Z</time>
      </trkpt>
      <trkpt lat="44.29682" lon="6.16453">
        <ele>1488</ele>
        <time>2012-06-27T13:36:03Z</time>
      </trkpt>
      <trkpt lat="44.29688" lon="6.16445">
        <ele>1487.1</ele>
        <time>2012-06-27T13:36:14Z</time>
      </trkpt>
      <trkpt lat="44.29695" lon="6.16437">
        <ele>1485.3</ele>
        <time>2012-06-27T13:36:28Z</time>
      </trkpt>
      <trkpt lat="44.29696" lon="6.16437">
        <ele>1485.1</ele>
        <time>2012-06-27T13:36:29Z</time>
      </trkpt>
      <trkpt lat="44.2971" lon="6.16431">
        <ele>1482.2</ele>
        <time>2012-06-27T13:36:48Z</time>
      </trkpt>
      <trkpt lat="44.29717" lon="6.16423">
        <ele>1481.3</ele>
        <time>2012-06-27T13:36:59Z</time>
      </trkpt>
      <trkpt lat="44.29723" lon="6.16413">
        <ele>1478.4</ele>
        <time>2012-06-27T13:37:14Z</time>
      </trkpt>
      <trkpt lat="44.29729" lon="6.16406">
        <ele>1476.4</ele>
        <time>2012-06-27T13:37:24Z</time>
      </trkpt>
      <trkpt lat="44.29737" lon="6.16401">
        <ele>1474.2</ele>
        <time>2012-06-27T13:37:36Z</time>
      </trkpt>
      <trkpt lat="44.29738" lon="6.16402">
        <ele>1474.1</ele>
        <time>2012-06-27T13:37:37Z</time>
      </trkpt>
      <trkpt lat="44.29754" lon="6.16399">
        <ele>1472.2</ele>
        <time>2012-06-27T13:38:17Z</time>
      </trkpt>
      <trkpt lat="44.29761" lon="6.16391">
        <ele>1470.7</ele>
        <time>2012-06-27T13:38:26Z</time>
      </trkpt>
      <trkpt lat="44.29765" lon="6.16381">
        <ele>1469.2</ele>
        <time>2012-06-27T13:38:35Z</time>
      </trkpt>
      <trkpt lat="44.29769" lon="6.16371">
        <ele>1467.8</ele>
        <time>2012-06-27T13:38:46Z</time>
      </trkpt>
      <trkpt lat="44.2977" lon="6.1637">
        <ele>1467.3</ele>
        <time>2012-06-27T13:38:47Z</time>
      </trkpt>
      <trkpt lat="44.29776" lon="6.16349">
        <ele>1464.7</ele>
        <time>2012-06-27T13:39:07Z</time>
      </trkpt>
      <trkpt lat="44.29776" lon="6.16337">
        <ele>1462.5</ele>
        <time>2012-06-27T13:39:17Z</time>
      </trkpt>
      <trkpt lat="44.29781" lon="6.16327">
        <ele>1459.8</ele>
        <time>2012-06-27T13:39:32Z</time>
      </trkpt>
      <trkpt lat="44.29787" lon="6.16319">
        <ele>1457.4</ele>
        <time>2012-06-27T13:39:48Z</time>
      </trkpt>
      <trkpt lat="44.29788" lon="6.16318">
        <ele>1457.2</ele>
        <time>2012-06-27T13:39:49Z</time>
      </trkpt>
      <trkpt lat="44.29794" lon="6.16297">
        <ele>1453</ele>
        <time>2012-06-27T13:40:10Z</time>
      </trkpt>
      <trkpt lat="44.29797" lon="6.16286">
        <ele>1451.1</ele>
        <time>2012-06-27T13:40:31Z</time>
      </trkpt>
      <trkpt lat="44.298" lon="6.16274">
        <ele>1449.6</ele>
        <time>2012-06-27T13:40:43Z</time>
      </trkpt>
      <trkpt lat="44.29802" lon="6.16263">
        <ele>1447.5</ele>
        <time>2012-06-27T13:40:57Z</time>
      </trkpt>
      <trkpt lat="44.29802" lon="6.16262">
        <ele>1447.4</ele>
        <time>2012-06-27T13:40:58Z</time>
      </trkpt>
      <trkpt lat="44.29792" lon="6.16244">
        <ele>1445.4</ele>
        <time>2012-06-27T13:41:19Z</time>
      </trkpt>
      <trkpt lat="44.29786" lon="6.16234">
        <ele>1443.7</ele>
        <time>2012-06-27T13:41:29Z</time>
      </trkpt>
      <trkpt lat="44.2978" lon="6.16226">
        <ele>1441.9</ele>
        <time>2012-06-27T13:41:39Z</time>
      </trkpt>
      <trkpt lat="44.29776" lon="6.16216">
        <ele>1440.1</ele>
        <time>2012-06-27T13:41:54Z</time>
      </trkpt>
      <trkpt lat="44.29775" lon="6.16204">
        <ele>1438.3</ele>
        <time>2012-06-27T13:42:07Z</time>
      </trkpt>
      <trkpt lat="44.29774" lon="6.16203">
        <ele>1438.1</ele>
        <time>2012-06-27T13:42:08Z</time>
      </trkpt>
      <trkpt lat="44.29766" lon="6.16183">
        <ele>1433.6</ele>
        <time>2012-06-27T13:42:36Z</time>
      </trkpt>
      <trkpt lat="44.29762" lon="6.16174">
        <ele>1433.1</ele>
        <time>2012-06-27T13:42:43Z</time>
      </trkpt>
      <trkpt lat="44.29759" lon="6.16162">
        <ele>1432.7</ele>
        <time>2012-06-27T13:42:51Z</time>
      </trkpt>
      <trkpt lat="44.29763" lon="6.16151">
        <ele>1432.5</ele>
        <time>2012-06-27T13:50:19Z</time>
      </trkpt>
      <trkpt lat="44.29763" lon="6.16151">
        <ele>1432.6</ele>
        <time>2012-06-27T13:50:20Z</time>
      </trkpt>
      <trkpt lat="44.29771" lon="6.16147">
        <ele>1431.5</ele>
        <time>2012-06-27T13:51:40Z</time>
      </trkpt>
      <trkpt lat="44.29786" lon="6.16138">
        <ele>1430.9</ele>
        <time>2012-06-27T13:52:00Z</time>
      </trkpt>
      <trkpt lat="44.29792" lon="6.16133">
        <ele>1431.4</ele>
        <time>2012-06-27T13:52:06Z</time>
      </trkpt>
      <trkpt lat="44.298" lon="6.1613">
        <ele>1432</ele>
        <time>2012-06-27T13:52:14Z</time>
      </trkpt>
      <trkpt lat="44.29808" lon="6.16127">
        <ele>1432</ele>
        <time>2012-06-27T13:52:22Z</time>
      </trkpt>
      <trkpt lat="44.29816" lon="6.16123">
        <ele>1431.5</ele>
        <time>2012-06-27T13:52:29Z</time>
      </trkpt>
      <trkpt lat="44.29824" lon="6.16123">
        <ele>1430.4</ele>
        <time>2012-06-27T13:52:37Z</time>
      </trkpt>
      <trkpt lat="44.29832" lon="6.16123">
        <ele>1429.6</ele>
        <time>2012-06-27T13:52:45Z</time>
      </trkpt>
      <trkpt lat="44.29833" lon="6.16123">
        <ele>1429.6</ele>
        <time>2012-06-27T13:52:46Z</time>
      </trkpt>
      <trkpt lat="44.29847" lon="6.16124">
        <ele>1429</ele>
        <time>2012-06-27T13:53:07Z</time>
      </trkpt>
      <trkpt lat="44.29855" lon="6.16124">
        <ele>1428.4</ele>
        <time>2012-06-27T13:53:13Z</time>
      </trkpt>
      <trkpt lat="44.29864" lon="6.16126">
        <ele>1427.5</ele>
        <time>2012-06-27T13:53:20Z</time>
      </trkpt>
      <trkpt lat="44.29872" lon="6.16127">
        <ele>1427.5</ele>
        <time>2012-06-27T13:53:27Z</time>
      </trkpt>
      <trkpt lat="44.2988" lon="6.16127">
        <ele>1427.5</ele>
        <time>2012-06-27T13:53:35Z</time>
      </trkpt>
      <trkpt lat="44.29888" lon="6.16127">
        <ele>1427</ele>
        <time>2012-06-27T13:53:43Z</time>
      </trkpt>
      <trkpt lat="44.29896" lon="6.16129">
        <ele>1427</ele>
        <time>2012-06-27T13:53:51Z</time>
      </trkpt>
      <trkpt lat="44.29897" lon="6.16129">
        <ele>1427</ele>
        <time>2012-06-27T13:53:52Z</time>
      </trkpt>
      <trkpt lat="44.29913" lon="6.1613">
        <ele>1425.9</ele>
        <time>2012-06-27T13:54:08Z</time>
      </trkpt>
      <trkpt lat="44.29921" lon="6.16131">
        <ele>1425.4</ele>
        <time>2012-06-27T13:54:15Z</time>
      </trkpt>
      <trkpt lat="44.2993" lon="6.16131">
        <ele>1425.9</ele>
        <time>2012-06-27T13:54:23Z</time>
      </trkpt>
      <trkpt lat="44.29938" lon="6.16134">
        <ele>1425.2</ele>
        <time>2012-06-27T13:54:31Z</time>
      </trkpt>
      <trkpt lat="44.29946" lon="6.16132">
        <ele>1424.6</ele>
        <time>2012-06-27T13:54:42Z</time>
      </trkpt>
      <trkpt lat="44.29954" lon="6.16132">
        <ele>1424</ele>
        <time>2012-06-27T13:54:50Z</time>
      </trkpt>
      <trkpt lat="44.29962" lon="6.1613">
        <ele>1424.1</ele>
        <time>2012-06-27T13:54:57Z</time>
      </trkpt>
      <trkpt lat="44.29964" lon="6.1613">
        <ele>1423.9</ele>
        <time>2012-06-27T13:54:58Z</time>
      </trkpt>
      <trkpt lat="44.29978" lon="6.16124">
        <ele>1423.8</ele>
        <time>2012-06-27T13:55:12Z</time>
      </trkpt>
      <trkpt lat="44.29985" lon="6.16116">
        <ele>1424</ele>
        <time>2012-06-27T13:55:21Z</time>
      </trkpt>
      <trkpt lat="44.29991" lon="6.16107">
        <ele>1424.2</ele>
        <time>2012-06-27T13:55:28Z</time>
      </trkpt>
      <trkpt lat="44.29995" lon="6.16097">
        <ele>1424.8</ele>
        <time>2012-06-27T13:55:36Z</time>
      </trkpt>
      <trkpt lat="44.29999" lon="6.16087">
        <ele>1424.9</ele>
        <time>2012-06-27T13:55:43Z</time>
      </trkpt>
      <trkpt lat="44.30003" lon="6.16077">
        <ele>1424.8</ele>
        <time>2012-06-27T13:55:49Z</time>
      </trkpt>
      <trkpt lat="44.30006" lon="6.16066">
        <ele>1425.1</ele>
        <time>2012-06-27T13:55:55Z</time>
      </trkpt>
      <trkpt lat="44.30008" lon="6.16055">
        <ele>1425.4</ele>
        <time>2012-06-27T13:56:02Z</time>
      </trkpt>
      <trkpt lat="44.30009" lon="6.16054">
        <ele>1425.4</ele>
        <time>2012-06-27T13:56:03Z</time>
      </trkpt>
      <trkpt lat="44.30012" lon="6.16033">
        <ele>1424.5</ele>
        <time>2012-06-27T13:56:18Z</time>
      </trkpt>
      <trkpt lat="44.30013" lon="6.1602">
        <ele>1424.5</ele>
        <time>2012-06-27T13:56:27Z</time>
      </trkpt>
      <trkpt lat="44.30015" lon="6.16009">
        <ele>1423.3</ele>
        <time>2012-06-27T13:56:39Z</time>
      </trkpt>
      <trkpt lat="44.30018" lon="6.15998">
        <ele>1423.3</ele>
        <time>2012-06-27T13:56:49Z</time>
      </trkpt>
      <trkpt lat="44.30022" lon="6.15988">
        <ele>1422.4</ele>
        <time>2012-06-27T13:56:59Z</time>
      </trkpt>
      <trkpt lat="44.30025" lon="6.15977">
        <ele>1422.2</ele>
        <time>2012-06-27T13:57:07Z</time>
      </trkpt>
      <trkpt lat="44.30026" lon="6.15976">
        <ele>1421.9</ele>
        <time>2012-06-27T13:57:08Z</time>
      </trkpt>
      <trkpt lat="44.30033" lon="6.15957">
        <ele>1420.1</ele>
        <time>2012-06-27T13:57:30Z</time>
      </trkpt>
      <trkpt lat="44.30037" lon="6.15946">
        <ele>1419.8</ele>
        <time>2012-06-27T13:57:40Z</time>
      </trkpt>
      <trkpt lat="44.30043" lon="6.15937">
        <ele>1419.3</ele>
        <time>2012-06-27T13:57:50Z</time>
      </trkpt>
      <trkpt lat="44.30047" lon="6.15926">
        <ele>1417.5</ele>
        <time>2012-06-27T13:58:00Z</time>
      </trkpt>
      <trkpt lat="44.30052" lon="6.15916">
        <ele>1416.7</ele>
        <time>2012-06-27T13:58:13Z</time>
      </trkpt>
      <trkpt lat="44.30052" lon="6.15915">
        <ele>1416.7</ele>
        <time>2012-06-27T13:58:14Z</time>
      </trkpt>
      <trkpt lat="44.30065" lon="6.159">
        <ele>1413.5</ele>
        <time>2012-06-27T13:58:42Z</time>
      </trkpt>
      <trkpt lat="44.30071" lon="6.15891">
        <ele>1412.7</ele>
        <time>2012-06-27T13:58:54Z</time>
      </trkpt>
      <trkpt lat="44.30078" lon="6.15883">
        <ele>1410.3</ele>
        <time>2012-06-27T13:59:08Z</time>
      </trkpt>
      <trkpt lat="44.30082" lon="6.15873">
        <ele>1409.3</ele>
        <time>2012-06-27T13:59:17Z</time>
      </trkpt>
      <trkpt lat="44.30082" lon="6.15872">
        <ele>1409.2</ele>
        <time>2012-06-27T13:59:18Z</time>
      </trkpt>
      <trkpt lat="44.30096" lon="6.15857">
        <ele>1406</ele>
        <time>2012-06-27T13:59:38Z</time>
      </trkpt>
      <trkpt lat="44.30102" lon="6.1585">
        <ele>1404.7</ele>
        <time>2012-06-27T13:59:49Z</time>
      </trkpt>
      <trkpt lat="44.30108" lon="6.15841">
        <ele>1403.8</ele>
        <time>2012-06-27T13:59:59Z</time>
      </trkpt>
      <trkpt lat="44.30114" lon="6.15832">
        <ele>1402.1</ele>
        <time>2012-06-27T14:00:08Z</time>
      </trkpt>
      <trkpt lat="44.30118" lon="6.15822">
        <ele>1402</ele>
        <time>2012-06-27T14:00:16Z</time>
      </trkpt>
      <trkpt lat="44.30124" lon="6.15812">
        <ele>1401</ele>
        <time>2012-06-27T14:00:24Z</time>
      </trkpt>
      <trkpt lat="44.30124" lon="6.15811">
        <ele>1400.7</ele>
        <time>2012-06-27T14:00:25Z</time>
      </trkpt>
      <trkpt lat="44.30136" lon="6.15797">
        <ele>1399.9</ele>
        <time>2012-06-27T14:00:44Z</time>
      </trkpt>
      <trkpt lat="44.30144" lon="6.15793">
        <ele>1399.1</ele>
        <time>2012-06-27T14:00:54Z</time>
      </trkpt>
      <trkpt lat="44.30151" lon="6.15788">
        <ele>1398.5</ele>
        <time>2012-06-27T14:01:03Z</time>
      </trkpt>
      <trkpt lat="44.30157" lon="6.15779">
        <ele>1397.7</ele>
        <time>2012-06-27T14:01:11Z</time>
      </trkpt>
      <trkpt lat="44.30163" lon="6.15769">
        <ele>1396.3</ele>
        <time>2012-06-27T14:01:19Z</time>
      </trkpt>
      <trkpt lat="44.30169" lon="6.15762">
        <ele>1396.3</ele>
        <time>2012-06-27T14:01:26Z</time>
      </trkpt>
      <trkpt lat="44.3017" lon="6.15762">
        <ele>1396.4</ele>
        <time>2012-06-27T14:01:27Z</time>
      </trkpt>
      <trkpt lat="44.30184" lon="6.15753">
        <ele>1396</ele>
        <time>2012-06-27T14:01:40Z</time>
      </trkpt>
      <trkpt lat="44.30192" lon="6.15755">
        <ele>1396.6</ele>
        <time>2012-06-27T14:01:48Z</time>
      </trkpt>
      <trkpt lat="44.302" lon="6.15756">
        <ele>1396.4</ele>
        <time>2012-06-27T14:01:56Z</time>
      </trkpt>
      <trkpt lat="44.30207" lon="6.15748">
        <ele>1396.2</ele>
        <time>2012-06-27T14:02:03Z</time>
      </trkpt>
      <trkpt lat="44.30214" lon="6.15742">
        <ele>1396.2</ele>
        <time>2012-06-27T14:02:10Z</time>
      </trkpt>
      <trkpt lat="44.30223" lon="6.1574">
        <ele>1396.5</ele>
        <time>2012-06-27T14:02:19Z</time>
      </trkpt>
      <trkpt lat="44.3023" lon="6.15734">
        <ele>1396.8</ele>
        <time>2012-06-27T14:02:26Z</time>
      </trkpt>
      <trkpt lat="44.30238" lon="6.15731">
        <ele>1396.2</ele>
        <time>2012-06-27T14:02:33Z</time>
      </trkpt>
      <trkpt lat="44.30239" lon="6.1573">
        <ele>1396.2</ele>
        <time>2012-06-27T14:02:34Z</time>
      </trkpt>
      <trkpt lat="44.30254" lon="6.15723">
        <ele>1397.4</ele>
        <time>2012-06-27T14:02:50Z</time>
      </trkpt>
      <trkpt lat="44.30259" lon="6.15713">
        <ele>1398.2</ele>
        <time>2012-06-27T14:02:58Z</time>
      </trkpt>
      <trkpt lat="44.30264" lon="6.15703">
        <ele>1397.9</ele>
        <time>2012-06-27T14:03:05Z</time>
      </trkpt>
      <trkpt lat="44.3027" lon="6.15694">
        <ele>1398.7</ele>
        <time>2012-06-27T14:03:14Z</time>
      </trkpt>
      <trkpt lat="44.30277" lon="6.15688">
        <ele>1399.4</ele>
        <time>2012-06-27T14:03:23Z</time>
      </trkpt>
      <trkpt lat="44.30282" lon="6.15678">
        <ele>1399.5</ele>
        <time>2012-06-27T14:03:30Z</time>
      </trkpt>
      <trkpt lat="44.30287" lon="6.15669">
        <ele>1400</ele>
        <time>2012-06-27T14:03:36Z</time>
      </trkpt>
      <trkpt lat="44.30287" lon="6.15667">
        <ele>1400.1</ele>
        <time>2012-06-27T14:03:37Z</time>
      </trkpt>
      <trkpt lat="44.30296" lon="6.1565">
        <ele>1399.4</ele>
        <time>2012-06-27T14:03:50Z</time>
      </trkpt>
      <trkpt lat="44.30301" lon="6.1564">
        <ele>1399.1</ele>
        <time>2012-06-27T14:04:00Z</time>
      </trkpt>
      <trkpt lat="44.30306" lon="6.15629">
        <ele>1399.3</ele>
        <time>2012-06-27T14:05:17Z</time>
      </trkpt>
      <trkpt lat="44.30306" lon="6.15628">
        <ele>1399.3</ele>
        <time>2012-06-27T14:05:18Z</time>
      </trkpt>
      <trkpt lat="44.30319" lon="6.15617">
        <ele>1399.9</ele>
        <time>2012-06-27T14:05:38Z</time>
      </trkpt>
      <trkpt lat="44.30327" lon="6.15612">
        <ele>1399.9</ele>
        <time>2012-06-27T14:05:47Z</time>
      </trkpt>
      <trkpt lat="44.30334" lon="6.15604">
        <ele>1399.4</ele>
        <time>2012-06-27T14:05:55Z</time>
      </trkpt>
      <trkpt lat="44.3034" lon="6.15595">
        <ele>1398.9</ele>
        <time>2012-06-27T14:06:05Z</time>
      </trkpt>
      <trkpt lat="44.30345" lon="6.15586">
        <ele>1397</ele>
        <time>2012-06-27T14:06:17Z</time>
      </trkpt>
      <trkpt lat="44.3035" lon="6.15576">
        <ele>1395.6</ele>
        <time>2012-06-27T14:06:25Z</time>
      </trkpt>
      <trkpt lat="44.3035" lon="6.15574">
        <ele>1395.5</ele>
        <time>2012-06-27T14:06:26Z</time>
      </trkpt>
      <trkpt lat="44.30351" lon="6.15551">
        <ele>1395.4</ele>
        <time>2012-06-27T14:06:45Z</time>
      </trkpt>
      <trkpt lat="44.30353" lon="6.15539">
        <ele>1393.6</ele>
        <time>2012-06-27T14:06:55Z</time>
      </trkpt>
      <trkpt lat="44.30356" lon="6.15528">
        <ele>1391.1</ele>
        <time>2012-06-27T14:07:05Z</time>
      </trkpt>
      <trkpt lat="44.30357" lon="6.15516">
        <ele>1389.2</ele>
        <time>2012-06-27T14:07:21Z</time>
      </trkpt>
      <trkpt lat="44.30353" lon="6.15504">
        <ele>1389.2</ele>
        <time>2012-06-27T14:07:38Z</time>
      </trkpt>
      <trkpt lat="44.30353" lon="6.15504">
        <ele>1389</ele>
        <time>2012-06-27T14:07:39Z</time>
      </trkpt>
      <trkpt lat="44.30356" lon="6.15481">
        <ele>1386.3</ele>
        <time>2012-06-27T14:08:20Z</time>
      </trkpt>
      <trkpt lat="44.30351" lon="6.15471">
        <ele>1385.4</ele>
        <time>2012-06-27T14:08:28Z</time>
      </trkpt>
      <trkpt lat="44.30353" lon="6.15459">
        <ele>1382.4</ele>
        <time>2012-06-27T14:08:41Z</time>
      </trkpt>
      <trkpt lat="44.30354" lon="6.15458">
        <ele>1382.5</ele>
        <time>2012-06-27T14:08:42Z</time>
      </trkpt>
      <trkpt lat="44.30368" lon="6.15446">
        <ele>1377.8</ele>
        <time>2012-06-27T14:09:05Z</time>
      </trkpt>
      <trkpt lat="44.30376" lon="6.15443">
        <ele>1375.9</ele>
        <time>2012-06-27T14:09:11Z</time>
      </trkpt>
      <trkpt lat="44.30383" lon="6.15436">
        <ele>1374.5</ele>
        <time>2012-06-27T14:09:20Z</time>
      </trkpt>
      <trkpt lat="44.30388" lon="6.15426">
        <ele>1371.9</ele>
        <time>2012-06-27T14:09:29Z</time>
      </trkpt>
      <trkpt lat="44.30393" lon="6.15418">
        <ele>1371</ele>
        <time>2012-06-27T14:09:37Z</time>
      </trkpt>
      <trkpt lat="44.30396" lon="6.15406">
        <ele>1368.7</ele>
        <time>2012-06-27T14:09:48Z</time>
      </trkpt>
      <trkpt lat="44.30395" lon="6.15405">
        <ele>1368.7</ele>
        <time>2012-06-27T14:09:49Z</time>
      </trkpt>
      <trkpt lat="44.3039" lon="6.15383">
        <ele>1364.8</ele>
        <time>2012-06-27T14:10:10Z</time>
      </trkpt>
      <trkpt lat="44.3039" lon="6.15371">
        <ele>1363.9</ele>
        <time>2012-06-27T14:10:23Z</time>
      </trkpt>
      <trkpt lat="44.30391" lon="6.1536">
        <ele>1361.2</ele>
        <time>2012-06-27T14:10:35Z</time>
      </trkpt>
      <trkpt lat="44.30391" lon="6.15348">
        <ele>1359.9</ele>
        <time>2012-06-27T14:10:44Z</time>
      </trkpt>
      <trkpt lat="44.30391" lon="6.15336">
        <ele>1359.1</ele>
        <time>2012-06-27T14:10:52Z</time>
      </trkpt>
      <trkpt lat="44.30392" lon="6.15335">
        <ele>1359.2</ele>
        <time>2012-06-27T14:10:53Z</time>
      </trkpt>
      <trkpt lat="44.30401" lon="6.15317">
        <ele>1357.3</ele>
        <time>2012-06-27T14:11:40Z</time>
      </trkpt>
      <trkpt lat="44.30409" lon="6.1531">
        <ele>1353.9</ele>
        <time>2012-06-27T14:12:17Z</time>
      </trkpt>
      <trkpt lat="44.30409" lon="6.1531">
        <ele>1353.8</ele>
        <time>2012-06-27T14:12:18Z</time>
      </trkpt>
      <trkpt lat="44.30419" lon="6.1529">
        <ele>1347.3</ele>
        <time>2012-06-27T14:12:50Z</time>
      </trkpt>
      <trkpt lat="44.3042" lon="6.15278">
        <ele>1345.1</ele>
        <time>2012-06-27T14:13:03Z</time>
      </trkpt>
      <trkpt lat="44.3042" lon="6.15266">
        <ele>1343.5</ele>
        <time>2012-06-27T14:13:22Z</time>
      </trkpt>
      <trkpt lat="44.3042" lon="6.15265">
        <ele>1343.4</ele>
        <time>2012-06-27T14:13:23Z</time>
      </trkpt>
      <trkpt lat="44.30414" lon="6.15243">
        <ele>1341.8</ele>
        <time>2012-06-27T14:13:46Z</time>
      </trkpt>
      <trkpt lat="44.30414" lon="6.15232">
        <ele>1340.7</ele>
        <time>2012-06-27T14:13:58Z</time>
      </trkpt>
      <trkpt lat="44.30412" lon="6.15219">
        <ele>1338.7</ele>
        <time>2012-06-27T14:14:14Z</time>
      </trkpt>
      <trkpt lat="44.3042" lon="6.15215">
        <ele>1335.6</ele>
        <time>2012-06-27T14:14:55Z</time>
      </trkpt>
      <trkpt lat="44.30421" lon="6.15215">
        <ele>1335.6</ele>
        <time>2012-06-27T14:14:56Z</time>
      </trkpt>
      <trkpt lat="44.30437" lon="6.15221">
        <ele>1332.5</ele>
        <time>2012-06-27T14:15:21Z</time>
      </trkpt>
      <trkpt lat="44.30444" lon="6.15226">
        <ele>1332</ele>
        <time>2012-06-27T14:15:33Z</time>
      </trkpt>
      <trkpt lat="44.30448" lon="6.15237">
        <ele>1331.5</ele>
        <time>2012-06-27T14:15:44Z</time>
      </trkpt>
      <trkpt lat="44.30456" lon="6.15238">
        <ele>1331.2</ele>
        <time>2012-06-27T14:15:52Z</time>
      </trkpt>
      <trkpt lat="44.30463" lon="6.15232">
        <ele>1330.6</ele>
        <time>2012-06-27T14:16:04Z</time>
      </trkpt>
      <trkpt lat="44.30464" lon="6.15231">
        <ele>1330.2</ele>
        <time>2012-06-27T14:16:05Z</time>
      </trkpt>
      <trkpt lat="44.30472" lon="6.15211">
        <ele>1329.2</ele>
        <time>2012-06-27T14:16:26Z</time>
      </trkpt>
      <trkpt lat="44.30475" lon="6.15201">
        <ele>1328.5</ele>
        <time>2012-06-27T14:16:36Z</time>
      </trkpt>
      <trkpt lat="44.30478" lon="6.15191">
        <ele>1327.8</ele>
        <time>2012-06-27T14:16:45Z</time>
      </trkpt>
      <trkpt lat="44.30483" lon="6.15181">
        <ele>1327</ele>
        <time>2012-06-27T14:16:52Z</time>
      </trkpt>
      <trkpt lat="44.30487" lon="6.15171">
        <ele>1326</ele>
        <time>2012-06-27T14:17:01Z</time>
      </trkpt>
      <trkpt lat="44.30487" lon="6.15158">
        <ele>1324.5</ele>
        <time>2012-06-27T14:17:15Z</time>
      </trkpt>
      <trkpt lat="44.30488" lon="6.15158">
        <ele>1324.4</ele>
        <time>2012-06-27T14:17:16Z</time>
      </trkpt>
      <trkpt lat="44.3049" lon="6.15137">
        <ele>1321.9</ele>
        <time>2012-06-27T14:17:36Z</time>
      </trkpt>
      <trkpt lat="44.30491" lon="6.15126">
        <ele>1318.8</ele>
        <time>2012-06-27T14:17:55Z</time>
      </trkpt>
      <trkpt lat="44.30492" lon="6.15114">
        <ele>1318.2</ele>
        <time>2012-06-27T14:18:04Z</time>
      </trkpt>
      <trkpt lat="44.3049" lon="6.15103">
        <ele>1317.9</ele>
        <time>2012-06-27T14:18:12Z</time>
      </trkpt>
      <trkpt lat="44.30489" lon="6.15091">
        <ele>1318</ele>
        <time>2012-06-27T14:18:21Z</time>
      </trkpt>
      <trkpt lat="44.30488" lon="6.15091">
        <ele>1318.3</ele>
        <time>2012-06-27T14:18:22Z</time>
      </trkpt>
      <trkpt lat="44.30483" lon="6.1507">
        <ele>1317.3</ele>
        <time>2012-06-27T14:18:40Z</time>
      </trkpt>
      <trkpt lat="44.30482" lon="6.15058">
        <ele>1316.9</ele>
        <time>2012-06-27T14:18:51Z</time>
      </trkpt>
      <trkpt lat="44.30477" lon="6.15048">
        <ele>1316.4</ele>
        <time>2012-06-27T14:18:59Z</time>
      </trkpt>
      <trkpt lat="44.30479" lon="6.15036">
        <ele>1315.7</ele>
        <time>2012-06-27T14:19:08Z</time>
      </trkpt>
      <trkpt lat="44.30485" lon="6.15028">
        <ele>1314.9</ele>
        <time>2012-06-27T14:19:20Z</time>
      </trkpt>
      <trkpt lat="44.30493" lon="6.15023">
        <ele>1315.3</ele>
        <time>2012-06-27T14:19:28Z</time>
      </trkpt>
      <trkpt lat="44.30494" lon="6.15023">
        <ele>1315.1</ele>
        <time>2012-06-27T14:19:29Z</time>
      </trkpt>
      <trkpt lat="44.30507" lon="6.15011">
        <ele>1314.1</ele>
        <time>2012-06-27T14:19:44Z</time>
      </trkpt>
      <trkpt lat="44.30513" lon="6.15003">
        <ele>1313</ele>
        <time>2012-06-27T14:19:55Z</time>
      </trkpt>
      <trkpt lat="44.30518" lon="6.14993">
        <ele>1312.7</ele>
        <time>2012-06-27T14:20:16Z</time>
      </trkpt>
      <trkpt lat="44.30526" lon="6.14988">
        <ele>1311.3</ele>
        <time>2012-06-27T14:20:37Z</time>
      </trkpt>
      <trkpt lat="44.30526" lon="6.14987">
        <ele>1311.3</ele>
        <time>2012-06-27T14:20:38Z</time>
      </trkpt>
      <trkpt lat="44.30542" lon="6.14979">
        <ele>1308.4</ele>
        <time>2012-06-27T14:20:58Z</time>
      </trkpt>
      <trkpt lat="44.3055" lon="6.14976">
        <ele>1307.2</ele>
        <time>2012-06-27T14:21:10Z</time>
      </trkpt>
      <trkpt lat="44.30559" lon="6.14977">
        <ele>1305.6</ele>
        <time>2012-06-27T14:21:24Z</time>
      </trkpt>
      <trkpt lat="44.30567" lon="6.14983">
        <ele>1304.7</ele>
        <time>2012-06-27T14:21:34Z</time>
      </trkpt>
      <trkpt lat="44.30575" lon="6.14984">
        <ele>1303.2</ele>
        <time>2012-06-27T14:21:43Z</time>
      </trkpt>
      <trkpt lat="44.30577" lon="6.14984">
        <ele>1302.9</ele>
        <time>2012-06-27T14:21:44Z</time>
      </trkpt>
      <trkpt lat="44.30592" lon="6.14981">
        <ele>1300.7</ele>
        <time>2012-06-27T14:21:57Z</time>
      </trkpt>
      <trkpt lat="44.30599" lon="6.14975">
        <ele>1300.4</ele>
        <time>2012-06-27T14:22:04Z</time>
      </trkpt>
      <trkpt lat="44.30607" lon="6.1497">
        <ele>1299.6</ele>
        <time>2012-06-27T14:22:10Z</time>
      </trkpt>
      <trkpt lat="44.30611" lon="6.14961">
        <ele>1298.5</ele>
        <time>2012-06-27T14:22:16Z</time>
      </trkpt>
      <trkpt lat="44.30616" lon="6.14951">
        <ele>1298.4</ele>
        <time>2012-06-27T14:22:23Z</time>
      </trkpt>
      <trkpt lat="44.3062" lon="6.1494">
        <ele>1297.2</ele>
        <time>2012-06-27T14:22:31Z</time>
      </trkpt>
      <trkpt lat="44.30624" lon="6.14931">
        <ele>1296.3</ele>
        <time>2012-06-27T14:22:38Z</time>
      </trkpt>
      <trkpt lat="44.30629" lon="6.1492">
        <ele>1295.7</ele>
        <time>2012-06-27T14:22:46Z</time>
      </trkpt>
      <trkpt lat="44.30629" lon="6.14918">
        <ele>1295.6</ele>
        <time>2012-06-27T14:22:47Z</time>
      </trkpt>
      <trkpt lat="44.30642" lon="6.14906">
        <ele>1293.8</ele>
        <time>2012-06-27T14:23:00Z</time>
      </trkpt>
      <trkpt lat="44.30648" lon="6.14898">
        <ele>1293.9</ele>
        <time>2012-06-27T14:23:07Z</time>
      </trkpt>
      <trkpt lat="44.30652" lon="6.14888">
        <ele>1293.4</ele>
        <time>2012-06-27T14:23:13Z</time>
      </trkpt>
      <trkpt lat="44.30653" lon="6.14876">
        <ele>1292.5</ele>
        <time>2012-06-27T14:23:19Z</time>
      </trkpt>
      <trkpt lat="44.30653" lon="6.14865">
        <ele>1292.5</ele>
        <time>2012-06-27T14:23:26Z</time>
      </trkpt>
      <trkpt lat="44.30654" lon="6.14853">
        <ele>1291.9</ele>
        <time>2012-06-27T14:23:35Z</time>
      </trkpt>
      <trkpt lat="44.30659" lon="6.14845">
        <ele>1289.9</ele>
        <time>2012-06-27T14:23:44Z</time>
      </trkpt>
      <trkpt lat="44.30665" lon="6.14837">
        <ele>1289.6</ele>
        <time>2012-06-27T14:23:51Z</time>
      </trkpt>
      <trkpt lat="44.30666" lon="6.14836">
        <ele>1289.7</ele>
        <time>2012-06-27T14:23:52Z</time>
      </trkpt>
      <trkpt lat="44.30673" lon="6.14816">
        <ele>1288.6</ele>
        <time>2012-06-27T14:24:07Z</time>
      </trkpt>
      <trkpt lat="44.30674" lon="6.14804">
        <ele>1288.6</ele>
        <time>2012-06-27T14:24:14Z</time>
      </trkpt>
      <trkpt lat="44.30678" lon="6.14794">
        <ele>1287.6</ele>
        <time>2012-06-27T14:24:24Z</time>
      </trkpt>
      <trkpt lat="44.30685" lon="6.14787">
        <ele>1286.7</ele>
        <time>2012-06-27T14:24:33Z</time>
      </trkpt>
      <trkpt lat="44.30693" lon="6.14782">
        <ele>1285.2</ele>
        <time>2012-06-27T14:24:44Z</time>
      </trkpt>
      <trkpt lat="44.30698" lon="6.14772">
        <ele>1284.3</ele>
        <time>2012-06-27T14:25:06Z</time>
      </trkpt>
      <trkpt lat="44.30699" lon="6.14772">
        <ele>1284.1</ele>
        <time>2012-06-27T14:25:07Z</time>
      </trkpt>
      <trkpt lat="44.30714" lon="6.14764">
        <ele>1283.3</ele>
        <time>2012-06-27T14:25:22Z</time>
      </trkpt>
      <trkpt lat="44.30722" lon="6.1476">
        <ele>1283</ele>
        <time>2012-06-27T14:25:29Z</time>
      </trkpt>
      <trkpt lat="44.30719" lon="6.14771">
        <ele>1280.6</ele>
        <time>2012-06-27T14:25:48Z</time>
      </trkpt>
      <trkpt lat="44.30713" lon="6.1478">
        <ele>1279.6</ele>
        <time>2012-06-27T14:25:57Z</time>
      </trkpt>
      <trkpt lat="44.30709" lon="6.1479">
        <ele>1278.6</ele>
        <time>2012-06-27T14:26:08Z</time>
      </trkpt>
      <trkpt lat="44.30708" lon="6.14791">
        <ele>1278.5</ele>
        <time>2012-06-27T14:26:09Z</time>
      </trkpt>
      <trkpt lat="44.30703" lon="6.14813">
        <ele>1275.7</ele>
        <time>2012-06-27T14:26:27Z</time>
      </trkpt>
      <trkpt lat="44.30703" lon="6.14825">
        <ele>1275</ele>
        <time>2012-06-27T14:26:39Z</time>
      </trkpt>
      <trkpt lat="44.30708" lon="6.14834">
        <ele>1274.7</ele>
        <time>2012-06-27T14:27:20Z</time>
      </trkpt>
      <trkpt lat="44.30709" lon="6.14835">
        <ele>1274.6</ele>
        <time>2012-06-27T14:27:21Z</time>
      </trkpt>
      <trkpt lat="44.30725" lon="6.14827">
        <ele>1270.9</ele>
        <time>2012-06-27T14:27:38Z</time>
      </trkpt>
      <trkpt lat="44.30733" lon="6.14823">
        <ele>1269.7</ele>
        <time>2012-06-27T14:27:48Z</time>
      </trkpt>
      <trkpt lat="44.30741" lon="6.1482">
        <ele>1268.8</ele>
        <time>2012-06-27T14:27:56Z</time>
      </trkpt>
      <trkpt lat="44.30749" lon="6.14826">
        <ele>1267.3</ele>
        <time>2012-06-27T14:28:03Z</time>
      </trkpt>
      <trkpt lat="44.30758" lon="6.14826">
        <ele>1267</ele>
        <time>2012-06-27T14:28:09Z</time>
      </trkpt>
      <trkpt lat="44.30765" lon="6.14825">
        <ele>1265.5</ele>
        <time>2012-06-27T14:28:14Z</time>
      </trkpt>
      <trkpt lat="44.30773" lon="6.14823">
        <ele>1264.4</ele>
        <time>2012-06-27T14:28:20Z</time>
      </trkpt>
      <trkpt lat="44.3078" lon="6.1482">
        <ele>1263.6</ele>
        <time>2012-06-27T14:28:25Z</time>
      </trkpt>
      <trkpt lat="44.30782" lon="6.1482">
        <ele>1263.2</ele>
        <time>2012-06-27T14:28:26Z</time>
      </trkpt>
      <trkpt lat="44.30796" lon="6.1482">
        <ele>1261.1</ele>
        <time>2012-06-27T14:28:39Z</time>
      </trkpt>
      <trkpt lat="44.30804" lon="6.1482">
        <ele>1259</ele>
        <time>2012-06-27T14:28:46Z</time>
      </trkpt>
      <trkpt lat="44.30813" lon="6.14819">
        <ele>1258.2</ele>
        <time>2012-06-27T14:28:52Z</time>
      </trkpt>
      <trkpt lat="44.30819" lon="6.14814">
        <ele>1257.3</ele>
        <time>2012-06-27T14:28:57Z</time>
      </trkpt>
      <trkpt lat="44.30827" lon="6.14808">
        <ele>1256.3</ele>
        <time>2012-06-27T14:29:03Z</time>
      </trkpt>
      <trkpt lat="44.30836" lon="6.14804">
        <ele>1255.3</ele>
        <time>2012-06-27T14:29:09Z</time>
      </trkpt>
      <trkpt lat="44.30844" lon="6.14807">
        <ele>1254.6</ele>
        <time>2012-06-27T14:29:17Z</time>
      </trkpt>
      <trkpt lat="44.30848" lon="6.14817">
        <ele>1251.6</ele>
        <time>2012-06-27T14:29:30Z</time>
      </trkpt>
      <trkpt lat="44.30848" lon="6.14818">
        <ele>1251.4</ele>
        <time>2012-06-27T14:29:31Z</time>
      </trkpt>
      <trkpt lat="44.30858" lon="6.14836">
        <ele>1248.7</ele>
        <time>2012-06-27T14:29:48Z</time>
      </trkpt>
      <trkpt lat="44.30865" lon="6.14843">
        <ele>1247.5</ele>
        <time>2012-06-27T14:29:56Z</time>
      </trkpt>
      <trkpt lat="44.30872" lon="6.1485">
        <ele>1247.2</ele>
        <time>2012-06-27T14:30:04Z</time>
      </trkpt>
      <trkpt lat="44.30878" lon="6.14859">
        <ele>1246.7</ele>
        <time>2012-06-27T14:30:12Z</time>
      </trkpt>
      <trkpt lat="44.30883" lon="6.14869">
        <ele>1246.1</ele>
        <time>2012-06-27T14:30:20Z</time>
      </trkpt>
      <trkpt lat="44.30886" lon="6.1488">
        <ele>1244.9</ele>
        <time>2012-06-27T14:30:29Z</time>
      </trkpt>
      <trkpt lat="44.30889" lon="6.14891">
        <ele>1245.2</ele>
        <time>2012-06-27T14:30:37Z</time>
      </trkpt>
      <trkpt lat="44.30889" lon="6.14893">
        <ele>1245.2</ele>
        <time>2012-06-27T14:30:38Z</time>
      </trkpt>
      <trkpt lat="44.30888" lon="6.14914">
        <ele>1243.4</ele>
        <time>2012-06-27T14:30:53Z</time>
      </trkpt>
      <trkpt lat="44.30886" lon="6.14925">
        <ele>1242.7</ele>
        <time>2012-06-27T14:31:01Z</time>
      </trkpt>
      <trkpt lat="44.30887" lon="6.14937">
        <ele>1242.3</ele>
        <time>2012-06-27T14:31:08Z</time>
      </trkpt>
      <trkpt lat="44.30889" lon="6.14948">
        <ele>1242.4</ele>
        <time>2012-06-27T14:31:15Z</time>
      </trkpt>
      <trkpt lat="44.30892" lon="6.14958">
        <ele>1241.1</ele>
        <time>2012-06-27T14:31:22Z</time>
      </trkpt>
      <trkpt lat="44.30896" lon="6.14967">
        <ele>1241.1</ele>
        <time>2012-06-27T14:31:29Z</time>
      </trkpt>
      <trkpt lat="44.309" lon="6.14978">
        <ele>1240.4</ele>
        <time>2012-06-27T14:31:35Z</time>
      </trkpt>
      <trkpt lat="44.30899" lon="6.1499">
        <ele>1240.2</ele>
        <time>2012-06-27T14:31:44Z</time>
      </trkpt>
      <trkpt lat="44.30898" lon="6.14991">
        <ele>1240.1</ele>
        <time>2012-06-27T14:31:45Z</time>
      </trkpt>
      <trkpt lat="44.30889" lon="6.15008">
        <ele>1239.6</ele>
        <time>2012-06-27T14:31:59Z</time>
      </trkpt>
      <trkpt lat="44.30885" lon="6.15019">
        <ele>1238.9</ele>
        <time>2012-06-27T14:32:07Z</time>
      </trkpt>
      <trkpt lat="44.30885" lon="6.15031">
        <ele>1237.8</ele>
        <time>2012-06-27T14:32:16Z</time>
      </trkpt>
      <trkpt lat="44.30883" lon="6.15042">
        <ele>1237.1</ele>
        <time>2012-06-27T14:32:24Z</time>
      </trkpt>
      <trkpt lat="44.30879" lon="6.15053">
        <ele>1236.9</ele>
        <time>2012-06-27T14:32:39Z</time>
      </trkpt>
      <trkpt lat="44.30876" lon="6.15052">
        <ele>1237.2</ele>
        <time>2012-06-27T14:34:00Z</time>
      </trkpt>
      <trkpt lat="44.30876" lon="6.15052">
        <ele>1237.2</ele>
        <time>2012-06-27T14:34:00Z</time>
      </trkpt>
    </trkseg>
  </trk>
</gpx>